Provisional Data: Grays Run near Gray, PA


Please select a monitoring station.
Please select start date.
Please select start date.

Toggle Unit: C/F Toggle Unit: C/F
Sample Time Temperature (C) Temperature (F) Specific Conductivity (mS/cm) pH   Turbidity (NTU+) DO (mg/L)
10/22/2021 12:00:00 AM 12.81 55.058 0.032 6.52 3.77 10.41
10/22/2021 12:15:00 AM 12.81 55.058 0.032 6.48 3.77 10.4
10/22/2021 12:30:00 AM 12.8 55.04 0.032 6.53 4.3 10.42
10/22/2021 12:45:00 AM 12.8 55.04 0.033 6.52 7.59 10.4
10/22/2021 1:00:00 AM 12.78 55.004 0.033 6.55 7.69 10.41
10/22/2021 1:15:00 AM 12.76 54.968 0.033 6.55 7.5 10.43
10/22/2021 1:30:00 AM 12.73 54.914 0.033 6.56 5.5 10.43
10/22/2021 1:45:00 AM 12.71 54.878 0.033 6.53 4.99 10.44
10/22/2021 2:00:00 AM 12.68 54.824 0.033 6.59 6.47 10.45
10/22/2021 2:15:00 AM 12.64 54.752 0.033 6.58 5.52 10.47
10/22/2021 2:30:00 AM 12.61 54.698 0.033 6.58 4.4 10.49
10/22/2021 2:45:00 AM 12.57 54.626 0.033 6.59 4.3 10.49
10/22/2021 3:00:00 AM 12.53 54.554 0.033 6.59 4.09 10.51
10/22/2021 3:15:00 AM 12.49 54.482 0.032 6.57 4.16 10.53
10/22/2021 3:30:00 AM 12.45 54.41 0.032 6.6 3.78 10.55
10/22/2021 3:45:00 AM 12.41 54.338 0.032 6.6 3.75 10.55
10/22/2021 4:00:00 AM 12.37 54.266 0.032 6.58 3.64 10.56
10/22/2021 4:15:00 AM 12.33 54.194 0.032 6.57 3.59 10.57
10/22/2021 4:30:00 AM 12.29 54.122 0.032 6.57 3.54 10.58
10/22/2021 4:45:00 AM 12.25 54.05 0.032 6.57 3.51 10.61
10/22/2021 5:00:00 AM 12.21 53.978 0.032 6.58 3.5 10.61
10/22/2021 5:15:00 AM 12.17 53.906 0.032 6.58 3.52 10.61
10/22/2021 5:30:00 AM 12.13 53.834 0.032 6.57 3.45 10.63
10/22/2021 5:45:00 AM 12.09 53.762 0.032 6.57 3.44 10.63
10/22/2021 6:00:00 AM 12.07 53.726 0.032 6.58 3.45 10.65
10/22/2021 6:15:00 AM 12.05 53.69 0.032 6.58 3.4 10.66
10/22/2021 6:30:00 AM 12.03 53.654 0.032 6.57 3.44 10.66
10/22/2021 6:45:00 AM 12.02 53.636 0.032 6.58 3.43 10.67
10/22/2021 7:00:00 AM 12.01 53.618 0.032 6.57 3.38 10.66
10/22/2021 7:15:00 AM 12 53.6 0.032 6.57 3.43 10.67
10/22/2021 7:30:00 AM 12 53.6 0.032 6.56 3.37 10.68
10/22/2021 7:45:00 AM 11.99 53.582 0.032 6.57 3.36 10.68
10/22/2021 8:00:00 AM 11.99 53.582 0.032 6.58 3.33 10.69
10/22/2021 8:15:00 AM 11.99 53.582 0.032 6.57 3.29 10.71
10/22/2021 8:30:00 AM 12 53.6 0.032 6.57 3.25 10.7
10/22/2021 8:45:00 AM 12 53.6 0.032 6.57 3.27 10.72
10/22/2021 9:00:00 AM 12.02 53.636 0.032 6.57 3.23 10.74
10/22/2021 9:15:00 AM 12.03 53.654 0.032 6.57 3.24 10.73
10/22/2021 9:30:00 AM 12.04 53.672 0.032 6.59 3.26 10.75
10/22/2021 9:45:00 AM 12.05 53.69 0.032 6.59 3.21 10.76
10/22/2021 10:00:00 AM 12.07 53.726 0.032 6.58 3.18 10.78
10/22/2021 10:15:00 AM 12.09 53.762 0.032 6.58 3.17 10.78
10/22/2021 10:30:00 AM 12.12 53.816 0.032 6.56 3.17 10.79
10/22/2021 10:45:00 AM 12.16 53.888 0.032 6.56 3.18 10.8
10/22/2021 11:00:00 AM 12.2 53.96 0.032 6.57 3.15 10.8
10/22/2021 11:15:00 AM 12.23 54.014 0.032 6.57 3.18 10.79
10/22/2021 11:30:00 AM 12.26 54.068 0.032 6.58 3.12 10.78
10/22/2021 11:45:00 AM 12.29 54.122 0.032 6.57 3.1 10.77
10/22/2021 12:00:00 PM 12.3 54.14 0.032 6.58 3.12 10.74
10/22/2021 12:15:00 PM 12.3 54.14 0.032 6.6 3.17 10.73
10/22/2021 12:30:00 PM 12.31 54.158 0.032 6.59 3.12 10.75
10/22/2021 12:45:00 PM 12.33 54.194 0.032 6.59 3.13 10.77
10/22/2021 1:00:00 PM 12.36 54.248 0.032 6.61 3.17 10.78
10/22/2021 1:15:00 PM 12.37 54.266 0.032 6.59 3.16 10.74
10/22/2021 1:30:00 PM 12.38 54.284 0.032 6.59 3.14 10.73
10/22/2021 1:45:00 PM 12.4 54.32 0.032 6.59 3.16 10.74
10/22/2021 2:00:00 PM 12.42 54.356 0.032 6.59 3.14 10.74
10/22/2021 2:15:00 PM 12.42 54.356 0.032 6.59 3.19 10.72
10/22/2021 2:30:00 PM 12.45 54.41 0.032 6.57 3.2 10.74
10/22/2021 2:45:00 PM 12.5 54.5 0.032 6.58 3.23 10.73
10/22/2021 3:00:00 PM 12.49 54.482 0.032 6.58 3.19 10.71
10/22/2021 3:15:00 PM 12.49 54.482 0.032 6.56 3.24 10.7
10/22/2021 3:30:00 PM 12.5 54.5 0.032 6.56 3.2 10.69
10/22/2021 3:45:00 PM 12.52 54.536 0.032 6.58 3.2 10.71
10/22/2021 4:00:00 PM 12.53 54.554 0.032 6.58 3.25 10.67
10/22/2021 4:15:00 PM 12.54 54.572 0.032 6.57 3.26 10.66
10/22/2021 4:30:00 PM 12.55 54.59 0.032 6.58 3.23 10.69
10/22/2021 4:45:00 PM 12.54 54.572 0.032 6.58 3.23 10.67
10/22/2021 5:00:00 PM 12.53 54.554 0.032 6.59 3.23 10.68
10/22/2021 5:15:00 PM 12.53 54.554 0.032 6.59 3.28 10.67
10/22/2021 5:30:00 PM 12.51 54.518 0.032 6.58 3.25 10.65
10/22/2021 5:45:00 PM 12.49 54.482 0.032 6.57 3.27 10.63
10/22/2021 6:00:00 PM 12.48 54.464 0.032 6.56 3.24 10.61
10/22/2021 6:15:00 PM 12.47 54.446 0.032 6.56 3.22 10.6
10/22/2021 6:30:00 PM 12.45 54.41 0.032 6.55 3.25 10.59
10/22/2021 6:45:00 PM 12.42 54.356 0.032 6.56 3.26 10.59
10/22/2021 7:00:00 PM 12.39 54.302 0.032 6.55 3.38 10.6
10/22/2021 7:15:00 PM 12.35 54.23 0.032 6.56 3.27 10.61
10/22/2021 7:30:00 PM 12.3 54.14 0.032 6.56 3.2 10.62
10/22/2021 7:45:00 PM 12.25 54.05 0.032 6.55 3.19 10.64
10/22/2021 8:00:00 PM 12.19 53.942 0.032 6.56 3.15 10.64
10/22/2021 8:15:00 PM 12.14 53.852 0.032 6.55 3.05 10.66
10/22/2021 8:30:00 PM 12.09 53.762 0.032 6.55 3.16 10.67
10/22/2021 8:45:00 PM 12.04 53.672 0.032 6.55 3.06 10.69
10/22/2021 9:00:00 PM 11.99 53.582 0.032 6.55 3.04 10.7
10/22/2021 9:15:00 PM 11.95 53.51 0.032 6.56 3.04 10.71
10/22/2021 9:30:00 PM 11.89 53.402 0.032 6.56 3.08 10.73
10/22/2021 9:45:00 PM 11.84 53.312 0.032 6.55 3.01 10.74
10/22/2021 10:00:00 PM 11.78 53.204 0.032 6.53 3.1 10.76
10/22/2021 10:15:00 PM 11.73 53.114 0.032 6.5 2.94 10.76
10/22/2021 10:30:00 PM 11.68 53.024 0.032 6.54 2.87 10.78
10/22/2021 10:45:00 PM 11.63 52.934 0.032 6.49 2.8 10.79
10/22/2021 11:00:00 PM 11.59 52.862 0.032 6.53 2.8 10.81
10/22/2021 11:15:00 PM 11.54 52.772 0.032 6.54 2.91 10.82
10/22/2021 11:30:00 PM 11.5 52.7 0.032 6.53 2.96 10.83
10/22/2021 11:45:00 PM 11.46 52.628 0.032 6.52 2.89 10.84
10/23/2021 12:00:00 AM 11.43 52.574 0.032 6.53 3.03 10.85
10/23/2021 12:15:00 AM 11.4 52.52 0.032 6.53 2.92 10.86
10/23/2021 12:30:00 AM 11.37 52.466 0.032 6.53 2.87 10.87
10/23/2021 12:45:00 AM 11.35 52.43 0.032 6.53 2.84 10.87
10/23/2021 1:00:00 AM 11.32 52.376 0.032 6.52 2.83 10.88
10/23/2021 1:15:00 AM 11.31 52.358 0.032 6.53 2.82 10.88
10/23/2021 1:30:00 AM 11.29 52.322 0.032 6.53 2.86 10.89
10/23/2021 1:45:00 AM 11.27 52.286 0.032 6.51 2.83 10.89
10/23/2021 2:00:00 AM 11.25 52.25 0.032 6.53 2.77 10.9
10/23/2021 2:15:00 AM 11.22 52.196 0.032 6.52 2.86 10.9
10/23/2021 2:30:00 AM 11.2 52.16 0.032 6.51 2.88 10.91
10/23/2021 2:45:00 AM 11.19 52.142 0.032 6.52 2.84 10.91
10/23/2021 3:00:00 AM 11.17 52.106 0.032 6.52 2.8 10.92
10/23/2021 3:15:00 AM 11.15 52.07 0.032 6.52 2.84 10.92
10/23/2021 3:30:00 AM 11.14 52.052 0.032 6.52 2.8 10.92
10/23/2021 3:45:00 AM 11.12 52.016 0.032 6.53 2.84 10.93
10/23/2021 4:00:00 AM 11.1 51.98 0.032 6.52 2.85 10.94
10/23/2021 4:15:00 AM 11.08 51.944 0.032 6.52 2.86 10.94
10/23/2021 4:30:00 AM 11.06 51.908 0.032 6.52 2.92 10.95
10/23/2021 4:45:00 AM 11.04 51.872 0.032 6.52 2.82 10.95
10/23/2021 5:00:00 AM 11.01 51.818 0.032 6.54 2.95 10.96
10/23/2021 5:15:00 AM 10.99 51.782 0.032 6.53 2.88 10.97
10/23/2021 5:30:00 AM 10.96 51.728 0.032 6.53 2.86 10.98
10/23/2021 5:45:00 AM 10.93 51.674 0.032 6.53 2.84 10.99
10/23/2021 6:00:00 AM 10.91 51.638 0.032 6.53 2.87 10.99
10/23/2021 6:15:00 AM 10.88 51.584 0.032 6.53 2.88 11
10/23/2021 6:30:00 AM 10.86 51.548 0.032 6.53 2.9 11.01
10/23/2021 6:45:00 AM 10.84 51.512 0.032 6.53 2.88 11.02
10/23/2021 7:00:00 AM 10.81 51.458 0.032 6.54 2.89 11.02
10/23/2021 7:15:00 AM 10.79 51.422 0.032 6.53 2.9 11.03
10/23/2021 7:30:00 AM 10.77 51.386 0.032 6.52 2.9 11.04
10/23/2021 7:45:00 AM 10.76 51.368 0.032 6.54 2.9 11.06
10/23/2021 8:00:00 AM 10.74 51.332 0.032 6.54 2.86 11.06
10/23/2021 8:15:00 AM 10.73 51.314 0.032 6.53 2.94 11.09
10/23/2021 8:30:00 AM 10.73 51.314 0.032 6.53 2.84 11.13
10/23/2021 8:45:00 AM 10.74 51.332 0.032 6.55 2.84 11.15
10/23/2021 9:00:00 AM 10.74 51.332 0.032 6.56 2.86 11.15
10/23/2021 9:15:00 AM 10.73 51.314 0.032 6.56 2.83 11.15
10/23/2021 9:30:00 AM 10.73 51.314 0.032 6.56 2.85 11.16
10/23/2021 9:45:00 AM 10.74 51.332 0.032 6.55 2.81 11.17
10/23/2021 10:00:00 AM 10.74 51.332 0.032 6.56 2.85 11.17
10/23/2021 10:15:00 AM 10.75 51.35 0.032 6.55 2.78 11.17
10/23/2021 10:30:00 AM 10.77 51.386 0.032 6.55 2.7 11.19
10/23/2021 10:45:00 AM 10.79 51.422 0.032 6.57 2.75 11.2
10/23/2021 11:00:00 AM 10.81 51.458 0.031 6.55 2.78 11.2
10/23/2021 11:15:00 AM 10.82 51.476 0.031 6.56 2.81 11.19
10/23/2021 11:30:00 AM 10.84 51.512 0.031 6.56 2.74 11.19
10/23/2021 11:45:00 AM 10.88 51.584 0.031 6.57 2.83 11.2
10/23/2021 12:00:00 PM 10.9 51.62 0.031 6.56 2.78 11.19
10/23/2021 12:15:00 PM 10.92 51.656 0.031 6.57 2.87 11.17
10/23/2021 12:30:00 PM 10.94 51.692 0.031 6.56 2.82 11.17
10/23/2021 12:45:00 PM 10.96 51.728 0.031 6.57 2.67 11.16
10/23/2021 1:00:00 PM 10.98 51.764 0.031 6.57 2.71 11.15
10/23/2021 1:15:00 PM 11 51.8 0.031 6.56 2.71 11.13
10/23/2021 1:30:00 PM 11.02 51.836 0.031 6.58 2.75 11.14
10/23/2021 1:45:00 PM 11.04 51.872 0.031 6.57 2.78 11.13
10/23/2021 2:00:00 PM 11.03 51.854 0.031 6.57 2.78 11.08
10/23/2021 2:15:00 PM 11.03 51.854 0.031 6.56 2.82 11.08
10/23/2021 2:30:00 PM 11.05 51.89 0.031 6.57 2.78 11.1
10/23/2021 2:45:00 PM 11.07 51.926 0.031 6.57 2.76 11.11
10/23/2021 3:00:00 PM 11.08 51.944 0.031 6.57 2.78 11.09
10/23/2021 3:15:00 PM 11.07 51.926 0.031 6.57 2.74 11.05
10/23/2021 3:30:00 PM 11.07 51.926 0.032 6.57 2.73 11.04
10/23/2021 3:45:00 PM 11.07 51.926 0.032 6.56 2.76 11.03
10/23/2021 4:00:00 PM 11.07 51.926 0.032 6.56 2.76 11.05
10/23/2021 4:15:00 PM 11.08 51.944 0.031 6.57 2.84 11.08
10/23/2021 4:30:00 PM 11.09 51.962 0.032 6.56 2.8 11.07
10/23/2021 4:45:00 PM 11.1 51.98 0.032 6.57 2.81 11.07
10/23/2021 5:00:00 PM 11.1 51.98 0.031 6.57 2.79 11.05
10/23/2021 5:15:00 PM 11.1 51.98 0.032 6.56 2.82 11.04
10/23/2021 5:30:00 PM 11.09 51.962 0.032 6.55 2.81 11.03
10/23/2021 5:45:00 PM 11.08 51.944 0.032 6.54 2.85 11
10/23/2021 6:00:00 PM 11.06 51.908 0.032 6.54 2.83 11
10/23/2021 6:15:00 PM 11.04 51.872 0.032 6.54 2.79 10.98
10/23/2021 6:30:00 PM 11 51.8 0.032 6.54 2.84 10.98
10/23/2021 6:45:00 PM 10.97 51.746 0.032 6.52 2.86 10.99
10/23/2021 7:00:00 PM 10.94 51.692 0.032 6.52 2.83 10.99
10/23/2021 7:15:00 PM 10.9 51.62 0.032 6.52 2.68 10.98
10/23/2021 7:30:00 PM 10.87 51.566 0.032 6.51 3.43 10.99
10/23/2021 7:45:00 PM 10.84 51.512 0.032 6.51 2.78 11.01
10/23/2021 8:00:00 PM 10.82 51.476 0.032 6.53 2.69 11.03
10/23/2021 8:15:00 PM 10.79 51.422 0.032 6.52 2.69 11.03
10/23/2021 8:30:00 PM 10.78 51.404 0.032 6.51 2.77 11.02
10/23/2021 8:45:00 PM 10.76 51.368 0.032 6.51 2.72 11.04
10/23/2021 9:00:00 PM 10.74 51.332 0.032 6.53 2.74 11.05
10/23/2021 9:15:00 PM 10.71 51.278 0.032 6.52 2.78 11.03
10/23/2021 9:30:00 PM 10.69 51.242 0.032 6.52 2.75 11.04
10/23/2021 9:45:00 PM 10.66 51.188 0.032 6.52 2.76 11.07
10/23/2021 10:00:00 PM 10.64 51.152 0.032 6.51 2.76 11.05
10/23/2021 10:15:00 PM 10.6 51.08 0.032 6.51 2.79 11.08
10/23/2021 10:30:00 PM 10.57 51.026 0.032 6.51 2.74 11.09
10/23/2021 10:45:00 PM 10.56 51.008 0.032 6.5 2.78 11.08
10/23/2021 11:00:00 PM 10.54 50.972 0.032 6.52 2.74 11.1
10/23/2021 11:15:00 PM 10.51 50.918 0.032 6.52 2.72 11.12
10/23/2021 11:30:00 PM 10.49 50.882 0.032 6.52 2.81 11.11
10/23/2021 11:45:00 PM 10.49 50.882 0.032 6.51 2.88 11.08
10/24/2021 12:00:00 AM 10.46 50.828 0.032 6.54 2.72 11.13
10/24/2021 12:15:00 AM 10.45 50.81 0.032 6.52 2.81 11.12
10/24/2021 12:30:00 AM 10.44 50.792 0.032 6.51 3.06 11.1
10/24/2021 12:45:00 AM 10.4 50.72 0.032 6.52 2.84 11.14
10/24/2021 1:00:00 AM 10.37 50.666 0.032 6.52 2.85 11.15
10/24/2021 1:15:00 AM 10.35 50.63 0.032 6.52 2.86 11.14
10/24/2021 1:30:00 AM 10.32 50.576 0.032 6.51 2.77 11.16
10/24/2021 1:45:00 AM 10.3 50.54 0.032 6.5 2.83 11.15
10/24/2021 2:00:00 AM 10.27 50.486 0.032 6.53 2.79 11.18
10/24/2021 2:15:00 AM 10.26 50.468 0.032 6.51 2.77 11.18
10/24/2021 2:30:00 AM 10.24 50.432 0.032 6.51 2.78 11.19
10/24/2021 2:45:00 AM 10.22 50.396 0.032 6.51 2.79 11.19
10/24/2021 3:00:00 AM 10.2 50.36 0.032 6.51 2.88 11.2
10/24/2021 3:15:00 AM 10.18 50.324 0.032 6.52 2.79 11.21
10/24/2021 3:30:00 AM 10.16 50.288 0.032 6.51 2.8 11.22
10/24/2021 3:45:00 AM 10.14 50.252 0.032 6.52 2.77 11.21
10/24/2021 4:00:00 AM 10.12 50.216 0.032 6.48 2.77 11.18
10/24/2021 4:15:00 AM 10.09 50.162 0.032 6.49 2.82 11.22
10/24/2021 4:30:00 AM 10.08 50.144 0.032 6.48 2.8 11.22
10/24/2021 4:45:00 AM 10.05 50.09 0.032 6.49 2.89 11.22
10/24/2021 5:00:00 AM 10.04 50.072 0.032 6.48 2.83 11.21
10/24/2021 5:15:00 AM 10.02 50.036 0.032 6.48 2.88 11.23
10/24/2021 5:30:00 AM 10 50 0.032 6.49 2.89 11.25
10/24/2021 5:45:00 AM 9.98 49.964 0.032 6.49 2.88 11.25
10/24/2021 6:00:00 AM 9.97 49.946 0.032 6.48 2.84 11.26
10/24/2021 6:15:00 AM 9.95 49.91 0.032 6.48 2.88 11.24
10/24/2021 6:30:00 AM 9.93 49.874 0.032 6.49 2.93 11.27
10/24/2021 6:45:00 AM 9.91 49.838 0.032 6.49 2.91 11.29
10/24/2021 7:00:00 AM 9.9 49.82 0.032 6.49 2.93 11.28
10/24/2021 7:15:00 AM 9.88 49.784 0.032 6.48 2.96 11.29
10/24/2021 7:30:00 AM 9.88 49.784 0.032 6.48 3 11.28
10/24/2021 7:45:00 AM 9.87 49.766 0.032 6.49 2.95 11.31
10/24/2021 8:00:00 AM 9.86 49.748 0.032 6.49 2.92 11.33
10/24/2021 8:15:00 AM 9.86 49.748 0.032 6.49 2.93 11.31
10/24/2021 8:30:00 AM 9.86 49.748 0.032 6.5 2.93 11.34
10/24/2021 8:45:00 AM 9.86 49.748 0.032 6.5 2.95 11.37
10/24/2021 9:00:00 AM 9.87 49.766 0.032 6.51 3.11 11.37
10/24/2021 9:15:00 AM 9.88 49.784 0.032 6.51 2.91 11.4
10/24/2021 9:30:00 AM 9.89 49.802 0.032 6.51 2.91 11.41
10/24/2021 9:45:00 AM 9.9 49.82 0.032 6.51 2.91 11.39
10/24/2021 10:00:00 AM 9.92 49.856 0.032 6.51 2.95 11.43
10/24/2021 10:15:00 AM 9.94 49.892 0.032 6.52 2.93 11.42
10/24/2021 10:30:00 AM 9.98 49.964 0.032 6.52 2.94 11.44
10/24/2021 10:45:00 AM 10 50 0.032 6.53 2.91 11.45
10/24/2021 11:00:00 AM 10.03 50.054 0.032 6.52 2.94 11.4
10/24/2021 11:15:00 AM 10.04 50.072 0.031 6.55 2.9 11.4
10/24/2021 11:30:00 AM 10.06 50.108 0.031 6.56 2.94 11.35
10/24/2021 11:45:00 AM 10.09 50.162 0.031 6.57 2.95 11.32
10/24/2021 12:00:00 PM 10.14 50.252 0.031 6.57 2.91 11.32
10/24/2021 12:15:00 PM 10.16 50.288 0.031 6.58 2.89 11.28
10/24/2021 12:30:00 PM 10.18 50.324 0.031 6.58 2.9 11.31
10/24/2021 12:45:00 PM 10.21 50.378 0.031 6.59 2.9 11.31
10/24/2021 1:00:00 PM 10.23 50.414 0.031 6.59 2.87 11.25
10/24/2021 1:15:00 PM 10.27 50.486 0.031 6.6 2.85 11.33
10/24/2021 1:30:00 PM 10.31 50.558 0.031 6.6 2.87 11.34
10/24/2021 1:45:00 PM 10.34 50.612 0.031 6.58 2.88 11.31
10/24/2021 2:00:00 PM 10.36 50.648 0.031 6.6 2.85 11.29
10/24/2021 2:15:00 PM 10.37 50.666 0.031 6.59 2.89 11.28
10/24/2021 2:30:00 PM 10.39 50.702 0.031 6.59 2.84 11.27
10/24/2021 2:45:00 PM 10.4 50.72 0.031 6.58 2.86 11.24
10/24/2021 3:00:00 PM 10.42 50.756 0.031 6.58 2.84 11.23
10/24/2021 3:15:00 PM 10.42 50.756 0.031 6.59 2.91 11.22
10/24/2021 3:30:00 PM 10.44 50.792 0.031 6.59 2.88 11.24
10/24/2021 3:45:00 PM 10.46 50.828 0.032 6.55 2.9 11.25
10/24/2021 4:00:00 PM 10.46 50.828 0.032 6.55 2.9 11.22
10/24/2021 4:15:00 PM 10.47 50.846 0.032 6.54 3.48 11.18
10/24/2021 4:30:00 PM 10.47 50.846 0.032 6.55 2.89 11.19
10/24/2021 4:45:00 PM 10.48 50.864 0.032 6.55 2.89 11.18
10/24/2021 5:00:00 PM 10.48 50.864 0.032 6.55 2.91 11.18
10/24/2021 5:15:00 PM 10.48 50.864 0.032 6.55 2.89 11.16
10/24/2021 5:30:00 PM 10.49 50.882 0.032 6.54 2.94 11.16
10/24/2021 5:45:00 PM 10.49 50.882 0.032 6.55 2.96 11.15
10/24/2021 6:00:00 PM 10.48 50.864 0.032 6.54 2.94 11.13
10/24/2021 6:15:00 PM 10.48 50.864 0.032 6.53 2.94 11.13
10/24/2021 6:30:00 PM 10.48 50.864 0.032 6.53 2.9 11.11
10/24/2021 6:45:00 PM 10.48 50.864 0.032 6.54 2.89 11.12
10/24/2021 7:00:00 PM 10.48 50.864 0.032 6.53 2.93 11.11
10/24/2021 7:15:00 PM 10.48 50.864 0.032 6.52 2.93 11.11
10/24/2021 7:30:00 PM 10.48 50.864 0.032 6.53 2.92 11.11
10/24/2021 7:45:00 PM 10.48 50.864 0.032 6.52 2.93 11.11
10/24/2021 8:00:00 PM 10.47 50.846 0.032 6.52 2.98 11.1
10/24/2021 8:15:00 PM 10.47 50.846 0.032 6.52 2.91 11.1
10/24/2021 8:30:00 PM 10.47 50.846 0.032 6.52 2.94 11.09
10/24/2021 8:45:00 PM 10.47 50.846 0.032 6.51 2.94 11.1
10/24/2021 9:00:00 PM 10.47 50.846 0.032 6.53 2.93 11.1
10/24/2021 9:15:00 PM 10.47 50.846 0.032 6.54 3.1 11.09
10/24/2021 9:30:00 PM 10.47 50.846 0.032 6.54 3.15 11.09
10/24/2021 9:45:00 PM 10.47 50.846 0.032 6.53 3.77 11.09
10/24/2021 10:00:00 PM 10.47 50.846 0.032 6.53 3.04 11.08
10/24/2021 10:15:00 PM 10.48 50.864 0.032 6.54 3.05 11.1
10/24/2021 10:30:00 PM 10.49 50.882 0.032 6.55 3.01 11.08
10/24/2021 10:45:00 PM 10.49 50.882 0.032 6.53 3.08 11.07
10/24/2021 11:00:00 PM 10.5 50.9 0.032 6.53 3.16 11.08
10/24/2021 11:15:00 PM 10.51 50.918 0.032 6.54 3.14 11.09
10/24/2021 11:30:00 PM 10.51 50.918 0.032 6.54 3.18 11.07
10/24/2021 11:45:00 PM 10.52 50.936 0.032 6.54 3.17 11.07
10/25/2021 12:00:00 AM 10.53 50.954 0.032 6.54 3.32 11.07
10/25/2021 12:15:00 AM 10.53 50.954 0.032 6.54 3.25 11.05
10/25/2021 12:30:00 AM 10.54 50.972 0.032 6.54 3.21 11.06
10/25/2021 12:45:00 AM 10.55 50.99 0.032 6.54 3.26 11.05
10/25/2021 1:00:00 AM 10.55 50.99 0.032 6.54 3.23 11.04
10/25/2021 1:15:00 AM 10.56 51.008 0.032 6.55 3.22 11.04
10/25/2021 1:30:00 AM 10.57 51.026 0.032 6.51 3.26 11.04
10/25/2021 1:45:00 AM 10.57 51.026 0.032 6.53 3.26 11.06
10/25/2021 2:00:00 AM 10.57 51.026 0.032 6.52 3.25 11.05
10/25/2021 2:15:00 AM 10.58 51.044 0.032 6.51 3.21 11.04
10/25/2021 2:30:00 AM 10.58 51.044 0.032 6.5 3.24 11.05
10/25/2021 2:45:00 AM 10.58 51.044 0.032 6.53 3.23 11.05
10/25/2021 3:00:00 AM 10.59 51.062 0.032 6.53 3.37 11.02
10/25/2021 3:15:00 AM 10.6 51.08 0.032 6.51 3.37 11.05
10/25/2021 3:30:00 AM 10.61 51.098 0.032 6.52 3.22 11.05
10/25/2021 3:45:00 AM 10.62 51.116 0.032 6.51 3.24 11.04
10/25/2021 4:00:00 AM 10.63 51.134 0.032 6.52 3.19 11.04
10/25/2021 4:15:00 AM 10.64 51.152 0.032 6.52 3.19 11.04
10/25/2021 4:30:00 AM 10.64 51.152 0.032 6.51 3.16 11.04
10/25/2021 4:45:00 AM 10.64 51.152 0.032 6.51 3.1 11.01
10/25/2021 5:00:00 AM 10.64 51.152 0.032 6.52 3.12 11.04
10/25/2021 5:15:00 AM 10.65 51.17 0.032 6.52 3.15 11.06
10/25/2021 5:30:00 AM 10.65 51.17 0.032 6.53 3.12 11.07
10/25/2021 5:45:00 AM 10.65 51.17 0.032 6.5 3.15 11.04
10/25/2021 6:00:00 AM 10.65 51.17 0.032 6.49 3.15 11.04
10/25/2021 6:15:00 AM 10.66 51.188 0.032 6.49 3.12 11
10/25/2021 6:30:00 AM 10.65 51.17 0.032 6.5 3.2 11.01
10/25/2021 6:45:00 AM 10.65 51.17 0.032 6.5 3.08 11.01
10/25/2021 7:00:00 AM 10.66 51.188 0.032 6.51 3.07 11
10/25/2021 7:15:00 AM 10.66 51.188 0.032 6.51 3.08 10.99
10/25/2021 7:30:00 AM 10.66 51.188 0.032 6.51 3.11 10.98
10/25/2021 7:45:00 AM 10.66 51.188 0.032 6.5 3.12 10.99
10/25/2021 8:00:00 AM 10.66 51.188 0.032 6.5 3.18 11.01
10/25/2021 8:15:00 AM 10.66 51.188 0.032 6.5 3.13 11.02
10/25/2021 8:30:00 AM 10.67 51.206 0.032 6.51 3.19 11.05
10/25/2021 8:45:00 AM 10.69 51.242 0.032 6.52 3.13 11.08
10/25/2021 9:00:00 AM 10.7 51.26 0.032 6.52 3.16 11.08
10/25/2021 9:15:00 AM 10.73 51.314 0.032 6.52 3.15 11.09
10/25/2021 9:30:00 AM 10.76 51.368 0.032 6.52 3.15 11.08
10/25/2021 9:45:00 AM 10.78 51.404 0.032 6.52 3.13 11.06
10/25/2021 10:00:00 AM 10.81 51.458 0.032 6.53 3.17 11.06
10/25/2021 10:15:00 AM 10.84 51.512 0.032 6.52 3.12 11.11
10/25/2021 10:30:00 AM 10.89 51.602 0.032 6.54 3.1 11.08
10/25/2021 10:45:00 AM 10.94 51.692 0.032 6.54 3.15 11.07
10/25/2021 11:00:00 AM 11.01 51.818 0.032 6.54 3.13 11.06
10/25/2021 11:15:00 AM 11.08 51.944 0.032 6.54 3.02 11.05
10/25/2021 11:30:00 AM 11.16 52.088 0.031 6.56 3.04 11.04
10/25/2021 11:45:00 AM 11.25 52.25 0.031 6.56 3.02 11.03
10/25/2021 12:00:00 PM 11.35 52.43 0.031 6.56 3.05 11
10/25/2021 12:15:00 PM 11.46 52.628 0.031 6.57 2.99 10.98
10/25/2021 12:30:00 PM 11.58 52.844 0.031 6.56 3.01 10.95
10/25/2021 12:45:00 PM 11.68 53.024 0.031 6.56 3.02 10.9
10/25/2021 1:00:00 PM 11.79 53.222 0.031 6.56 3 10.88
10/25/2021 1:15:00 PM 11.89 53.402 0.031 6.56 2.99 10.84
10/25/2021 1:30:00 PM 12 53.6 0.031 6.56 3.01 10.82
10/25/2021 1:45:00 PM 12.1 53.78 0.031 6.57 3.03 10.78
10/25/2021 2:00:00 PM 12.19 53.942 0.031 6.56 2.99 10.76
10/25/2021 2:15:00 PM 12.24 54.032 0.031 6.56 2.96 10.71
10/25/2021 2:30:00 PM 12.28 54.104 0.031 6.56 2.94 10.73
10/25/2021 2:45:00 PM 12.3 54.14 0.031 6.57 2.95 10.71
10/25/2021 3:00:00 PM 12.32 54.176 0.031 6.59 2.92 10.77
10/25/2021 3:15:00 PM 12.36 54.248 0.031 6.57 2.97 10.71
10/25/2021 3:30:00 PM 12.38 54.284 0.031 6.54 2.97 10.69
10/25/2021 3:45:00 PM 12.38 54.284 0.031 6.55 2.92 10.68
10/25/2021 4:00:00 PM 12.38 54.284 0.031 6.54 2.97 10.67
10/25/2021 4:15:00 PM 12.39 54.302 0.031 6.53 2.91 10.67
10/25/2021 4:30:00 PM 12.39 54.302 0.031 6.53 2.95 10.63
10/25/2021 4:45:00 PM 12.38 54.284 0.032 6.53 2.99 10.61
10/25/2021 5:00:00 PM 12.38 54.284 0.031 6.52 2.97 10.63
10/25/2021 5:15:00 PM 12.38 54.284 0.032 6.51 2.93 10.58
10/25/2021 5:30:00 PM 12.36 54.248 0.032 6.5 3 10.57
10/25/2021 5:45:00 PM 12.35 54.23 0.032 6.49 2.96 10.53
10/25/2021 6:00:00 PM 12.34 54.212 0.032 6.48 2.93 10.54
10/25/2021 6:15:00 PM 12.33 54.194 0.032 6.47 3.04 10.51
10/25/2021 6:30:00 PM 12.32 54.176 0.032 6.46 2.96 10.52
10/25/2021 6:45:00 PM 12.31 54.158 0.032 6.46 2.99 10.51
10/25/2021 7:00:00 PM 12.3 54.14 0.032 6.46 2.98 10.48
10/25/2021 7:15:00 PM 12.29 54.122 0.032 6.46 2.98 10.52
10/25/2021 7:30:00 PM 12.28 54.104 0.032 6.46 2.98 10.53
10/25/2021 7:45:00 PM 12.27 54.086 0.032 6.46 3 10.52
10/25/2021 8:00:00 PM 12.26 54.068 0.032 6.45 3.04 10.53
10/25/2021 8:15:00 PM 12.25 54.05 0.032 6.47 3.05 10.51
10/25/2021 8:30:00 PM 12.25 54.05 0.032 6.46 3.04 10.53
10/25/2021 8:45:00 PM 12.24 54.032 0.032 6.47 3.07 10.52
10/25/2021 9:00:00 PM 12.24 54.032 0.032 6.46 3.05 10.49
10/25/2021 9:15:00 PM 12.23 54.014 0.032 6.47 3.02 10.51
10/25/2021 9:30:00 PM 12.23 54.014 0.032 6.48 3 10.51
10/25/2021 9:45:00 PM 12.22 53.996 0.032 6.48 3.04 10.5
10/25/2021 10:00:00 PM 12.22 53.996 0.032 6.47 3 10.51
10/25/2021 10:15:00 PM 12.21 53.978 0.032 6.47 3 10.5
10/25/2021 10:30:00 PM 12.21 53.978 0.032 6.47 3.05 10.52
10/25/2021 10:45:00 PM 12.2 53.96 0.032 6.47 3.07 10.52
10/25/2021 11:00:00 PM 12.2 53.96 0.032 6.46 3.04 10.52
10/25/2021 11:15:00 PM 12.2 53.96 0.032 6.5 3.06 10.57
10/25/2021 11:30:00 PM 12.19 53.942 0.032 6.46 3.15 10.52
10/25/2021 11:45:00 PM 12.19 53.942 0.032 6.44 3.09 10.51
10/26/2021 12:00:00 AM 12.18 53.924 0.032 6.46 3.01 10.52
10/26/2021 12:15:00 AM 12.18 53.924 0.032 6.47 2.97 10.53
10/26/2021 12:30:00 AM 12.17 53.906 0.032 6.48 3 10.54
10/26/2021 12:45:00 AM 12.17 53.906 0.032 6.46 3.02 10.52
10/26/2021 1:00:00 AM 12.17 53.906 0.032 6.47 2.96 10.52
10/26/2021 1:15:00 AM 12.16 53.888 0.032 6.46 2.96 10.51
10/26/2021 1:30:00 AM 12.16 53.888 0.032 6.47 2.96 10.53
10/26/2021 1:45:00 AM 12.15 53.87 0.032 6.46 2.99 10.52
10/26/2021 2:00:00 AM 12.15 53.87 0.032 6.44 2.93 10.49
10/26/2021 2:15:00 AM 12.14 53.852 0.032 6.47 2.95 10.52
10/26/2021 2:30:00 AM 12.14 53.852 0.032 6.48 2.92 10.53
10/26/2021 2:45:00 AM 12.13 53.834 0.032 6.49 2.89 10.52
10/26/2021 3:00:00 AM 12.13 53.834 0.032 6.48 2.96 10.55
10/26/2021 3:15:00 AM 12.12 53.816 0.032 6.47 2.98 10.54
10/26/2021 3:30:00 AM 12.11 53.798 0.032 6.49 3.02 10.54
10/26/2021 3:45:00 AM 12.11 53.798 0.032 6.48 2.98 10.53
10/26/2021 4:00:00 AM 12.1 53.78 0.032 6.47 2.98 10.54
10/26/2021 4:15:00 AM 12.1 53.78 0.032 6.47 2.95 10.55
10/26/2021 4:30:00 AM 12.09 53.762 0.032 6.46 2.98 10.55
10/26/2021 4:45:00 AM 12.09 53.762 0.032 6.47 2.96 10.55
10/26/2021 5:00:00 AM 12.08 53.744 0.032 6.47 3.03 10.56
10/26/2021 5:15:00 AM 12.08 53.744 0.032 6.47 2.96 10.55
10/26/2021 5:30:00 AM 12.07 53.726 0.032 6.44 3.01 10.53
10/26/2021 5:45:00 AM 12.07 53.726 0.032 6.43 2.95 10.5
10/26/2021 6:00:00 AM 12.07 53.726 0.032 6.44 2.97 10.52
10/26/2021 6:15:00 AM 12.06 53.708 0.032 6.45 2.99 10.53
10/26/2021 6:30:00 AM 12.06 53.708 0.032 6.44 2.96 10.52
10/26/2021 6:45:00 AM 12.05 53.69 0.032 6.43 3 10.5
10/26/2021 7:00:00 AM 12.05 53.69 0.032 6.43 3 10.51
10/26/2021 7:15:00 AM 12.05 53.69 0.032 6.44 3 10.51
10/26/2021 7:30:00 AM 12.04 53.672 0.032 6.45 3 10.51
10/26/2021 7:45:00 AM 12.04 53.672 0.032 6.49 2.98 10.52
10/26/2021 8:00:00 AM 12.03 53.654 0.032 6.49 2.96 10.53
10/26/2021 8:15:00 AM 12.03 53.654 0.032 6.49 2.92 10.54
10/26/2021 8:30:00 AM 12.03 53.654 0.032 6.49 2.95 10.54
10/26/2021 8:45:00 AM 12.03 53.654 0.032 6.48 2.94 10.55
10/26/2021 9:00:00 AM 12.03 53.654 0.032 6.5 2.91 10.59
10/26/2021 9:15:00 AM 12.04 53.672 0.032 6.5 2.91 10.58
10/26/2021 9:30:00 AM 12.04 53.672 0.032 6.5 2.95 10.61
10/26/2021 9:45:00 AM 12.05 53.69 0.032 6.5 2.94 10.6
10/26/2021 10:00:00 AM 12.06 53.708 0.032 6.5 3.01 10.63
10/26/2021 10:15:00 AM 12.07 53.726 0.032 6.52 2.9 10.63
10/26/2021 10:30:00 AM 12.08 53.744 0.032 6.57 2.87 10.6
10/26/2021 10:45:00 AM 12.08 53.744 0.032 6.52 2.89 10.62
10/26/2021 11:00:00 AM 12.08 53.744 0.032 6.53 2.92 10.66
10/26/2021 11:15:00 AM 12.08 53.744 0.032 6.55 2.89 10.66
10/26/2021 11:30:00 AM 12.07 53.726 0.032 6.54 2.92 10.66
10/26/2021 11:45:00 AM 12.05 53.69 0.032 6.57 2.89 10.68
10/26/2021 12:00:00 PM 12.03 53.654 0.032 6.58 2.87 10.68
10/26/2021 12:15:00 PM 12 53.6 0.031 6.61 2.89 10.69
10/26/2021 12:30:00 PM 11.97 53.546 0.031 6.61 2.89 10.7
10/26/2021 12:45:00 PM 11.94 53.492 0.031 6.61 2.93 10.69
10/26/2021 1:00:00 PM 11.9 53.42 0.031 6.59 2.86 10.7
10/26/2021 1:15:00 PM 11.87 53.366 0.031 6.6 2.94 10.65
10/26/2021 1:30:00 PM 11.83 53.294 0.031 6.6 2.97 10.69
10/26/2021 1:45:00 PM 11.79 53.222 0.031 6.58 2.96 10.66
10/26/2021 2:00:00 PM 11.74 53.132 0.031 6.59 3.03 10.66
10/26/2021 2:15:00 PM 11.7 53.06 0.031 6.58 3.05 10.67
10/26/2021 2:30:00 PM 11.66 52.988 0.031 6.59 2.99 10.69
10/26/2021 2:45:00 PM 11.61 52.898 0.031 6.58 3.03 10.7
10/26/2021 3:00:00 PM 11.55 52.79 0.031 6.58 3.06 10.71
10/26/2021 3:15:00 PM 11.52 52.736 0.031 6.58 3.1 10.72
10/26/2021 3:30:00 PM 11.48 52.664 0.031 6.59 3.16 10.76
10/26/2021 3:45:00 PM 11.43 52.574 0.031 6.59 3.24 10.76
10/26/2021 4:00:00 PM 11.4 52.52 0.031 6.59 3.3 10.84
10/26/2021 4:15:00 PM 11.37 52.466 0.031 6.6 3.3 10.82
10/26/2021 4:30:00 PM 11.34 52.412 0.031 6.58 3.73 10.82
10/26/2021 4:45:00 PM 11.33 52.394 0.032 6.59 4.02 10.83
10/26/2021 5:00:00 PM 11.3 52.34 0.032 6.6 3.86 10.81
10/26/2021 5:15:00 PM 11.28 52.304 0.032 6.61 4.07 10.84
10/26/2021 5:30:00 PM 11.25 52.25 0.032 6.61 4.14 10.82
10/26/2021 5:45:00 PM 11.23 52.214 0.032 6.6 4.5 10.84
10/26/2021 6:00:00 PM 11.21 52.178 0.032 6.59 4.48 10.82
10/26/2021 6:15:00 PM 11.18 52.124 0.032 6.61 4.45 10.83
10/26/2021 6:30:00 PM 11.15 52.07 0.032 6.59 4.52 10.82
10/26/2021 6:45:00 PM 11.12 52.016 0.032 6.6 4.61 10.83
10/26/2021 7:00:00 PM 11.09 51.962 0.032 6.59 4.54 10.83
10/26/2021 7:15:00 PM 11.07 51.926 0.032 6.6 4.19 10.84
10/26/2021 7:30:00 PM 11.05 51.89 0.032 6.57 4.08 10.84
10/26/2021 7:45:00 PM 11.02 51.836 0.032 6.57 4.27 10.84
10/26/2021 8:00:00 PM 11 51.8 0.032 6.58 3.94 10.85
10/26/2021 8:15:00 PM 10.98 51.764 0.032 6.58 3.9 10.85
10/26/2021 8:30:00 PM 10.96 51.728 0.032 6.56 4.13 10.86
10/26/2021 8:45:00 PM 10.94 51.692 0.032 6.56 3.76 10.87
10/26/2021 9:00:00 PM 10.92 51.656 0.032 6.59 3.75 10.87
10/26/2021 9:15:00 PM 10.91 51.638 0.031 6.56 3.73 10.87
10/26/2021 9:30:00 PM 10.91 51.638 0.032 6.56 3.82 10.88
10/26/2021 9:45:00 PM 10.9 51.62 0.031 6.59 3.66 10.89
10/26/2021 10:00:00 PM 10.9 51.62 0.031 6.57 3.71 10.9
10/26/2021 10:15:00 PM 10.9 51.62 0.031 6.56 3.78 10.91
10/26/2021 10:30:00 PM 10.9 51.62 0.031 6.56 3.66 10.91
10/26/2021 10:45:00 PM 10.89 51.602 0.031 6.56 3.72 10.91
10/26/2021 11:00:00 PM 10.9 51.62 0.031 6.55 3.74 10.93
10/26/2021 11:15:00 PM 10.9 51.62 0.031 6.54 5.92 10.92
10/26/2021 11:30:00 PM 10.9 51.62 0.031 6.58 3.86 10.91
10/26/2021 11:45:00 PM 10.91 51.638 0.031 6.58 3.77 10.92
10/27/2021 12:00:00 AM 10.91 51.638 0.031 6.56 3.63 10.92
10/27/2021 12:15:00 AM 10.91 51.638 0.032 6.56 3.64 10.93
10/27/2021 12:30:00 AM 10.92 51.656 0.031 6.55 3.63 10.92
10/27/2021 12:45:00 AM 10.92 51.656 0.031 6.56 3.66 10.93
10/27/2021 1:00:00 AM 10.92 51.656 0.031 6.57 3.64 10.93
10/27/2021 1:15:00 AM 10.92 51.656 0.031 6.56 3.76 10.94
10/27/2021 1:30:00 AM 10.92 51.656 0.031 6.56 3.71 10.94
10/27/2021 1:45:00 AM 10.93 51.674 0.031 6.57 3.77 10.94
10/27/2021 2:00:00 AM 10.93 51.674 0.031 6.55 3.56 10.94
10/27/2021 2:15:00 AM 10.93 51.674 0.031 6.55 3.65 10.94
10/27/2021 2:30:00 AM 10.94 51.692 0.031 6.54 3.89 10.94
10/27/2021 2:45:00 AM 10.94 51.692 0.031 6.55 3.87 10.94
10/27/2021 3:00:00 AM 10.95 51.71 0.031 6.53 3.94 10.94
10/27/2021 3:15:00 AM 10.95 51.71 0.031 6.54 3.89 10.94
10/27/2021 3:30:00 AM 10.96 51.728 0.031 6.53 3.8 10.95
10/27/2021 3:45:00 AM 10.96 51.728 0.031 6.55 3.83 10.95
10/27/2021 4:00:00 AM 10.97 51.746 0.031 6.54 3.83 10.94
10/27/2021 4:15:00 AM 10.97 51.746 0.031 6.54 3.92 10.94
10/27/2021 4:30:00 AM 10.98 51.764 0.031 6.54 3.96 10.94
10/27/2021 4:45:00 AM 10.99 51.782 0.031 6.53 4 10.94
10/27/2021 5:00:00 AM 10.99 51.782 0.031 6.53 3.99 10.94
10/27/2021 5:15:00 AM 11 51.8 0.031 6.53 4.02 10.94
10/27/2021 5:30:00 AM 11.01 51.818 0.031 6.53 4.05 10.94
10/27/2021 5:45:00 AM 11.02 51.836 0.031 6.53 3.96 10.93
10/27/2021 6:00:00 AM 11.02 51.836 0.031 6.53 3.95 10.93
10/27/2021 6:15:00 AM 11.03 51.854 0.031 6.53 4.02 10.93
10/27/2021 6:30:00 AM 11.04 51.872 0.031 6.52 4.01 10.93
10/27/2021 6:45:00 AM 11.05 51.89 0.031 6.53 3.94 10.93
10/27/2021 7:00:00 AM 11.06 51.908 0.031 6.53 3.96 10.93
10/27/2021 7:15:00 AM 11.07 51.926 0.031 6.52 3.98 10.93
10/27/2021 7:30:00 AM 11.07 51.926 0.031 6.53 4 10.93
10/27/2021 7:45:00 AM 11.07 51.926 0.031 6.54 3.95 10.93
10/27/2021 8:00:00 AM 11.08 51.944 0.031 6.53 3.95 10.93
10/27/2021 8:15:00 AM 11.08 51.944 0.031 6.53 3.96 10.94
10/27/2021 8:30:00 AM 11.09 51.962 0.031 6.52 3.86 10.95
10/27/2021 8:45:00 AM 11.1 51.98 0.031 6.51 3.83 10.95
10/27/2021 9:00:00 AM 11.1 51.98 0.031 6.53 3.85 10.98
10/27/2021 9:15:00 AM 11.11 51.998 0.031 6.54 3.81 11
10/27/2021 9:30:00 AM 11.12 52.016 0.031 6.55 3.85 11.02
10/27/2021 9:45:00 AM 11.12 52.016 0.031 6.55 3.85 11.03
10/27/2021 10:00:00 AM 11.11 51.998 0.031 6.55 4.02 11.04
10/27/2021 10:15:00 AM 11.12 52.016 0.031 6.55 3.95 11.05
10/27/2021 10:30:00 AM 11.14 52.052 0.031 6.55 3.99 11.05
10/27/2021 10:45:00 AM 11.16 52.088 0.031 6.55 3.98 11.05
10/27/2021 11:00:00 AM 11.19 52.142 0.031 6.55 4.04 11.05
10/27/2021 11:15:00 AM 11.23 52.214 0.031 6.56 4.07 11.04
10/27/2021 11:30:00 AM 11.28 52.304 0.031 6.57 4.05 11.02
10/27/2021 11:45:00 AM 11.34 52.412 0.031 6.57 4.02 11.02
10/27/2021 12:00:00 PM 11.4 52.52 0.031 6.57 4.02 11.01
10/27/2021 12:15:00 PM 11.47 52.646 0.031 6.59 4 10.99
10/27/2021 12:30:00 PM 11.54 52.772 0.031 6.58 4.05 10.97
10/27/2021 12:45:00 PM 11.62 52.916 0.031 6.58 4.01 10.96
10/27/2021 1:00:00 PM 11.7 53.06 0.031 6.59 3.92 10.93
10/27/2021 1:15:00 PM 11.79 53.222 0.031 6.58 3.96 10.9
10/27/2021 1:30:00 PM 11.87 53.366 0.031 6.59 3.94 10.89
10/27/2021 1:45:00 PM 11.94 53.492 0.031 6.6 3.95 10.87
10/27/2021 2:00:00 PM 12 53.6 0.031 6.6 3.91 10.83
10/27/2021 2:15:00 PM 12.05 53.69 0.031 6.59 3.89 10.8
10/27/2021 2:30:00 PM 12.08 53.744 0.031 6.59 3.94 10.79
10/27/2021 2:45:00 PM 12.1 53.78 0.031 6.61 3.89 10.78
10/27/2021 3:00:00 PM 12.11 53.798 0.031 6.6 3.91 10.76
10/27/2021 3:15:00 PM 12.11 53.798 0.031 6.59 3.96 10.77
10/27/2021 3:30:00 PM 12.1 53.78 0.031 6.58 3.97 10.77
10/27/2021 3:45:00 PM 12.09 53.762 0.031 6.57 3.89 10.77
10/27/2021 4:00:00 PM 12.08 53.744 0.031 6.56 3.88 10.77
10/27/2021 4:15:00 PM 12.06 53.708 0.031 6.56 4.03 10.76
10/27/2021 4:30:00 PM 12.04 53.672 0.031 6.57 3.93 10.76
10/27/2021 4:45:00 PM 12.02 53.636 0.031 6.55 3.89 10.76
10/27/2021 5:00:00 PM 12 53.6 0.031 6.57 3.84 10.76
10/27/2021 5:15:00 PM 11.97 53.546 0.031 6.55 3.9 10.75
10/27/2021 5:30:00 PM 11.94 53.492 0.031 6.55 3.81 10.74
10/27/2021 5:45:00 PM 11.92 53.456 0.031 6.54 3.8 10.75
10/27/2021 6:00:00 PM 11.89 53.402 0.031 6.52 3.85 10.75
10/27/2021 6:15:00 PM 11.86 53.348 0.031 6.51 3.7 10.74
10/27/2021 6:30:00 PM 11.82 53.276 0.031 6.52 3.65 10.76
10/27/2021 6:45:00 PM 11.79 53.222 0.031 6.51 4.17 10.75
10/27/2021 7:00:00 PM 11.75 53.15 0.031 6.52 4.3 10.76
10/27/2021 7:15:00 PM 11.72 53.096 0.031 6.53 4.3 10.77
10/27/2021 7:30:00 PM 11.68 53.024 0.031 6.53 4.26 10.78
10/27/2021 7:45:00 PM 11.65 52.97 0.031 6.5 4.24 10.79
10/27/2021 8:00:00 PM 11.61 52.898 0.031 6.51 4.29 10.81
10/27/2021 8:15:00 PM 11.58 52.844 0.031 6.51 4.17 10.81
10/27/2021 8:30:00 PM 11.54 52.772 0.031 6.52 3.68 10.82
10/27/2021 8:45:00 PM 11.51 52.718 0.031 6.53 3.49 10.84
10/27/2021 9:00:00 PM 11.48 52.664 0.031 6.52 3.52 10.85
10/27/2021 9:15:00 PM 11.44 52.592 0.031 6.52 3.6 10.85
10/27/2021 9:30:00 PM 11.4 52.52 0.031 6.52 3.61 10.87
10/27/2021 9:45:00 PM 11.36 52.448 0.031 6.53 3.63 10.88
10/27/2021 10:00:00 PM 11.32 52.376 0.031 6.53 3.5 10.88
10/27/2021 10:15:00 PM 11.28 52.304 0.031 6.53 3.49 10.89
10/27/2021 10:30:00 PM 11.24 52.232 0.031 6.52 3.63 10.9
10/27/2021 10:45:00 PM 11.19 52.142 0.031 6.53 3.56 10.91
10/27/2021 11:00:00 PM 11.15 52.07 0.031 6.53 3.59 10.93
10/27/2021 11:15:00 PM 11.1 51.98 0.031 6.52 3.72 10.94
10/27/2021 11:30:00 PM 11.06 51.908 0.031 6.52 3.76 10.95
10/27/2021 11:45:00 PM 11.01 51.818 0.031 6.51 3.76 10.96
10/28/2021 12:00:00 AM 10.97 51.746 0.031 6.49 3.71 10.98
10/28/2021 12:15:00 AM 10.93 51.674 0.031 6.5 3.53 11
10/28/2021 12:30:00 AM 10.88 51.584 0.031 6.52 3.49 11
10/28/2021 12:45:00 AM 10.84 51.512 0.031 6.52 3.45 11.01
10/28/2021 1:00:00 AM 10.8 51.44 0.031 6.52 3.4 11.02
10/28/2021 1:15:00 AM 10.76 51.368 0.031 6.5 3.35 11.02
10/28/2021 1:30:00 AM 10.71 51.278 0.031 6.53 3.45 11.06
10/28/2021 1:45:00 AM 10.67 51.206 0.031 6.53 3.38 11.07
10/28/2021 2:00:00 AM 10.62 51.116 0.031 6.53 3.36 11.08
10/28/2021 2:15:00 AM 10.57 51.026 0.031 6.53 3.46 11.1
10/28/2021 2:30:00 AM 10.53 50.954 0.031 6.54 3.38 11.11
10/28/2021 2:45:00 AM 10.48 50.864 0.031 6.52 3.31 11.13
10/28/2021 3:00:00 AM 10.44 50.792 0.031 6.53 3.32 11.14
10/28/2021 3:15:00 AM 10.4 50.72 0.031 6.52 3.35 11.15
10/28/2021 3:30:00 AM 10.36 50.648 0.031 6.57 3.7 11.16
10/28/2021 3:45:00 AM 10.32 50.576 0.031 6.55 3.73 11.17
10/28/2021 4:00:00 AM 10.28 50.504 0.031 6.54 3.65 11.18
10/28/2021 4:15:00 AM 10.24 50.432 0.031 6.53 3.68 11.19
10/28/2021 4:30:00 AM 10.2 50.36 0.031 6.52 3.59 11.2
10/28/2021 4:45:00 AM 10.15 50.27 0.031 6.52 3.64 11.21
10/28/2021 5:00:00 AM 10.11 50.198 0.031 6.52 3.54 11.23
10/28/2021 5:15:00 AM 10.07 50.126 0.031 6.51 3.58 11.24
10/28/2021 5:30:00 AM 10.03 50.054 0.031 6.51 3.6 11.25
10/28/2021 5:45:00 AM 9.98 49.964 0.031 6.51 3.56 11.26
10/28/2021 6:00:00 AM 9.94 49.892 0.031 6.51 3.56 11.28
10/28/2021 6:15:00 AM 9.9 49.82 0.031 6.52 3.51 11.29
10/28/2021 6:30:00 AM 9.86 49.748 0.031 6.51 3.53 11.3
10/28/2021 6:45:00 AM 9.82 49.676 0.031 6.51 3.54 11.31
10/28/2021 7:00:00 AM 9.79 49.622 0.031 6.52 3.43 11.32
10/28/2021 7:15:00 AM 9.75 49.55 0.031 6.51 3.43 11.33
10/28/2021 7:30:00 AM 9.72 49.496 0.031 6.49 3.32 11.34
10/28/2021 7:45:00 AM 9.68 49.424 0.031 6.51 3.29 11.34
10/28/2021 8:00:00 AM 9.65 49.37 0.031 6.51 3.41 11.37
10/28/2021 8:15:00 AM 9.61 49.298 0.031 6.52 3.26 11.38
10/28/2021 8:30:00 AM 9.58 49.244 0.031 6.5 3.23 11.41
10/28/2021 8:45:00 AM 9.55 49.19 0.031 6.5 3.26 11.42
10/28/2021 9:00:00 AM 9.52 49.136 0.031 6.52 3.23 11.44
10/28/2021 9:15:00 AM 9.5 49.1 0.031 6.54 3.15 11.45
10/28/2021 9:30:00 AM 9.48 49.064 0.031 6.54 3.24 11.46
10/28/2021 9:45:00 AM 9.47 49.046 0.031 6.53 3.09 11.49
10/28/2021 10:00:00 AM 9.49 49.082 0.031 6.54 3.15 11.5
10/28/2021 10:15:00 AM 9.53 49.154 0.031 6.55 3.19 11.51
10/28/2021 10:30:00 AM 9.57 49.226 0.031 6.56 3.06 11.52
10/28/2021 10:45:00 AM 9.64 49.352 0.031 6.56 3.13 11.5
10/28/2021 11:00:00 AM 9.7 49.46 0.031 6.55 3.11 11.49
10/28/2021 11:15:00 AM 9.79 49.622 0.031 6.56 3.1 11.48
10/28/2021 11:30:00 AM 9.88 49.784 0.031 6.56 3.14 11.45
10/28/2021 11:45:00 AM 9.98 49.964 0.031 6.56 3.16 11.42
10/28/2021 12:00:00 PM 10.1 50.18 0.031 6.56 3.03 11.4
10/28/2021 12:15:00 PM 10.22 50.396 0.031 6.56 3.07 11.38
10/28/2021 12:30:00 PM 10.34 50.612 0.031 6.56 3.04 11.34
10/28/2021 12:45:00 PM 10.45 50.81 0.031 6.56 3.06 11.31
10/28/2021 1:00:00 PM 10.56 51.008 0.031 6.57 3.09 11.29
10/28/2021 1:15:00 PM 10.69 51.242 0.031 6.57 3.04 11.26
10/28/2021 1:30:00 PM 10.8 51.44 0.031 6.55 3.04 11.21
10/28/2021 1:45:00 PM 10.9 51.62 0.031 6.55 3.09 11.18
10/28/2021 2:00:00 PM 10.99 51.782 0.031 6.54 3.03 11.15
10/28/2021 2:15:00 PM 11.05 51.89 0.031 6.54 3.02 11.12
10/28/2021 2:30:00 PM 11.1 51.98 0.031 6.55 3.05 11.1
10/28/2021 2:45:00 PM 11.13 52.034 0.031 6.55 2.98 11.09
10/28/2021 3:00:00 PM 11.17 52.106 0.031 6.54 3.03 11.08
10/28/2021 3:15:00 PM 11.2 52.16 0.031 6.54 3.04 11.06
10/28/2021 3:30:00 PM 11.22 52.196 0.031 6.55 3.05 11.05
10/28/2021 3:45:00 PM 11.23 52.214 0.031 6.55 3.07 11.03
10/28/2021 4:00:00 PM 11.25 52.25 0.031 6.53 3.05 11.03
10/28/2021 4:15:00 PM 11.26 52.268 0.031 6.54 3.09 11.02
10/28/2021 4:30:00 PM 11.27 52.286 0.031 6.54 3.04 11.01
10/28/2021 4:45:00 PM 11.29 52.322 0.031 6.54 3.04 11.02
10/28/2021 5:00:00 PM 11.3 52.34 0.031 6.54 3.06 10.99
10/28/2021 5:15:00 PM 11.29 52.322 0.031 6.55 3.04 10.97
10/28/2021 5:30:00 PM 11.27 52.286 0.031 6.54 3.11 10.94
10/28/2021 5:45:00 PM 11.26 52.268 0.031 6.52 3.04 10.93
10/28/2021 6:00:00 PM 11.25 52.25 0.031 6.52 3.05 10.92
10/28/2021 6:15:00 PM 11.23 52.214 0.031 6.53 3.09 10.92
10/28/2021 6:30:00 PM 11.2 52.16 0.031 6.5 3.15 10.92
10/28/2021 6:45:00 PM 11.18 52.124 0.031 6.49 3.13 10.93
10/28/2021 7:00:00 PM 11.15 52.07 0.031 6.5 3.11 10.93
10/28/2021 7:15:00 PM 11.12 52.016 0.031 6.51 3.12 10.94
10/28/2021 7:30:00 PM 11.1 51.98 0.031 6.51 3.09 10.94
10/28/2021 7:45:00 PM 11.07 51.926 0.031 6.5 3.14 10.94
10/28/2021 8:00:00 PM 11.04 51.872 0.031 6.5 3.15 10.95
10/28/2021 8:15:00 PM 11.01 51.818 0.031 6.49 3.18 10.96
10/28/2021 8:30:00 PM 10.97 51.746 0.031 6.51 3.17 10.98
10/28/2021 8:45:00 PM 10.94 51.692 0.031 6.5 3.21 10.99
10/28/2021 9:00:00 PM 10.91 51.638 0.031 6.51 3.16 10.99
10/28/2021 9:15:00 PM 10.89 51.602 0.031 6.51 3.16 10.99
10/28/2021 9:30:00 PM 10.87 51.566 0.031 6.52 3.18 10.99
10/28/2021 9:45:00 PM 10.86 51.548 0.031 6.52 3.13 11
10/28/2021 10:00:00 PM 10.85 51.53 0.031 6.5 3.15 11.01
10/28/2021 10:15:00 PM 10.84 51.512 0.031 6.52 3.11 11.01
10/28/2021 10:30:00 PM 10.84 51.512 0.031 6.5 3.19 11.02
10/28/2021 10:45:00 PM 10.84 51.512 0.031 6.49 3.19 11.02
10/28/2021 11:00:00 PM 10.84 51.512 0.031 6.52 3.12 11.01
10/28/2021 11:15:00 PM 10.84 51.512 0.031 6.51 3.07 11.02
10/28/2021 11:30:00 PM 10.85 51.53 0.031 6.5 3.13 11.02
10/28/2021 11:45:00 PM 10.85 51.53 0.031 6.5 3.16 11.01
10/29/2021 12:00:00 AM 10.86 51.548 0.031 6.49 3.16 11
10/29/2021 12:15:00 AM 10.87 51.566 0.031 6.5 3.23 11
10/29/2021 12:30:00 AM 10.88 51.584 0.031 6.51 3.21 11
10/29/2021 12:45:00 AM 10.89 51.602 0.031 6.51 3.14 11
10/29/2021 1:00:00 AM 10.9 51.62 0.031 6.52 3.16 11
10/29/2021 1:15:00 AM 10.91 51.638 0.031 6.49 3.25 10.98
10/29/2021 1:30:00 AM 10.93 51.674 0.031 6.49 3.19 10.98
10/29/2021 1:45:00 AM 10.94 51.692 0.031 6.5 3.2 10.98
10/29/2021 2:00:00 AM 10.95 51.71 0.031 6.5 3.25 10.98
10/29/2021 2:15:00 AM 10.96 51.728 0.031 6.5 3.22 10.98
10/29/2021 2:30:00 AM 10.96 51.728 0.031 6.49 3.27 10.96
10/29/2021 2:45:00 AM 10.96 51.728 0.031 6.51 3.26 10.98
10/29/2021 3:00:00 AM 10.96 51.728 0.031 6.49 3.31 10.97
10/29/2021 3:15:00 AM 10.96 51.728 0.031 6.5 3.33 10.97
10/29/2021 3:30:00 AM 10.95 51.71 0.031 6.5 3.37 10.97
10/29/2021 3:45:00 AM 10.95 51.71 0.031 6.5 3.3 10.97
10/29/2021 4:00:00 AM 10.94 51.692 0.031 6.48 3.28 10.97
10/29/2021 4:15:00 AM 10.94 51.692 0.031 6.47 3.32 10.96
10/29/2021 4:30:00 AM 10.94 51.692 0.031 6.49 3.26 10.97
10/29/2021 4:45:00 AM 10.93 51.674 0.031 6.49 3.24 10.97
10/29/2021 5:00:00 AM 10.92 51.656 0.031 6.5 3.26 10.96
10/29/2021 5:15:00 AM 10.92 51.656 0.031 6.48 3.24 10.96
10/29/2021 5:30:00 AM 10.91 51.638 0.031 6.49 3.33 10.95
10/29/2021 5:45:00 AM 10.9 51.62 0.031 6.48 3.26 10.96
10/29/2021 6:00:00 AM 10.89 51.602 0.031 6.51 3.24 10.97
10/29/2021 6:15:00 AM 10.88 51.584 0.031 6.51 3.28 10.97
10/29/2021 6:30:00 AM 10.87 51.566 0.031 6.5 3.33 10.98
10/29/2021 6:45:00 AM 10.86 51.548 0.031 6.5 3.32 10.96
10/29/2021 7:00:00 AM 10.84 51.512 0.031 6.5 3.35 10.97
10/29/2021 7:15:00 AM 10.83 51.494 0.031 6.51 3.27 10.98
10/29/2021 7:30:00 AM 10.82 51.476 0.031 6.51 3.25 10.99
10/29/2021 7:45:00 AM 10.81 51.458 0.031 6.5 3.27 10.97
10/29/2021 8:00:00 AM 10.8 51.44 0.031 6.5 3.3 10.99
10/29/2021 8:15:00 AM 10.8 51.44 0.031 6.5 3.29 11
10/29/2021 8:30:00 AM 10.79 51.422 0.031 6.5 3.26 11.01
10/29/2021 8:45:00 AM 10.78 51.404 0.031 6.5 3.25 11.01
10/29/2021 9:00:00 AM 10.78 51.404 0.031 6.51 3.24 11.03
10/29/2021 9:15:00 AM 10.78 51.404 0.031 6.51 3.24 11.03
10/29/2021 9:30:00 AM 10.77 51.386 0.031 6.51 3.27 11.06
10/29/2021 9:45:00 AM 10.78 51.404 0.031 6.53 3.27 11.09
10/29/2021 10:00:00 AM 10.8 51.44 0.031 6.54 3.27 11.11
10/29/2021 10:15:00 AM 10.85 51.53 0.031 6.54 3.28 11.12
10/29/2021 10:30:00 AM 10.88 51.584 0.031 6.54 3.24 11.1
10/29/2021 10:45:00 AM 10.9 51.62 0.031 6.55 3.24 11.12
10/29/2021 11:00:00 AM 10.9 51.62 0.031 6.53 3.21 11.08
10/29/2021 11:15:00 AM 10.92 51.656 0.031 6.54 3.23 11.1
10/29/2021 11:30:00 AM 10.93 51.674 0.031 6.54 3.25 11.08
10/29/2021 11:45:00 AM 10.94 51.692 0.031 6.54 3.26 11.05
10/29/2021 12:00:00 PM 10.95 51.71 0.031 6.54 3.26 11.06
10/29/2021 12:15:00 PM 10.98 51.764 0.031 6.56 3.24 11.07
10/29/2021 12:30:00 PM 10.99 51.782 0.031 6.56 3.22 11.06
10/29/2021 12:45:00 PM 11.02 51.836 0.031 6.55 3.19 11.04
10/29/2021 1:00:00 PM 11.03 51.854 0.031 6.54 3.25 11.01
10/29/2021 1:15:00 PM 11.04 51.872 0.031 6.55 3.26 11.01
10/29/2021 1:30:00 PM 11.05 51.89 0.031 6.56 3.26 11.01
10/29/2021 1:45:00 PM 11.05 51.89 0.031 6.54 3.29 10.98
10/29/2021 2:00:00 PM 11.04 51.872 0.031 6.53 3.3 10.97
10/29/2021 2:15:00 PM 11.02 51.836 0.031 6.52 3.24 10.96
10/29/2021 2:30:00 PM 11 51.8 0.031 6.53 3.27 10.95
10/29/2021 2:45:00 PM 10.98 51.764 0.031 6.52 3.36 10.96
10/29/2021 3:00:00 PM 10.97 51.746 0.031 6.54 3.38 10.98
10/29/2021 3:15:00 PM 10.97 51.746 0.031 6.55 3.36 10.99
10/29/2021 3:30:00 PM 10.95 51.71 0.031 6.54 3.3 10.99
10/29/2021 3:45:00 PM 10.94 51.692 0.031 6.54 3.37 10.96
10/29/2021 4:00:00 PM 10.9 51.62 0.031 6.55 3.43 10.96
10/29/2021 4:15:00 PM 10.88 51.584 0.031 6.55 3.5 10.95
10/29/2021 4:30:00 PM 10.84 51.512 0.03 6.53 3.68 10.96
10/29/2021 4:45:00 PM 10.83 51.494 0.031 6.53 3.92 10.95
10/29/2021 5:00:00 PM 10.8 51.44 0.031 6.54 4.57 10.96
10/29/2021 5:15:00 PM 10.78 51.404 0.031 6.54 6.18 10.95
10/29/2021 5:30:00 PM 10.77 51.386 0.032 6.56 14.49 10.93
10/29/2021 5:45:00 PM 10.73 51.314 0.032 6.59 21.09 10.95
10/29/2021 6:00:00 PM 10.71 51.278 0.032 6.61 26.97 10.94
10/29/2021 6:15:00 PM 10.68 51.224 0.032 6.59 27.42 10.97
10/29/2021 6:30:00 PM 10.65 51.17 0.032 6.58 26.17 10.98
10/29/2021 6:45:00 PM 10.63 51.134 0.032 6.61 26.12 11
10/29/2021 7:00:00 PM 10.61 51.098 0.032 6.63 30.04 11.02
10/29/2021 7:15:00 PM 10.59 51.062 0.032 6.59 33.11 11.04
10/29/2021 7:30:00 PM 10.59 51.062 0.032 6.64 35.37 11.05
10/29/2021 7:45:00 PM 10.58 51.044 0.032 6.61 33.13 11.06
10/29/2021 8:00:00 PM 10.56 51.008 0.032 6.57 36.57 11.08
10/29/2021 8:15:00 PM 10.55 50.99 0.032 6.59 36.03 11.1
10/29/2021 8:30:00 PM 10.54 50.972 0.031 6.56 26.88 11.1
10/29/2021 8:45:00 PM 10.53 50.954 0.031 6.56 34.61 11.11
10/29/2021 9:00:00 PM 10.51 50.918 0.031 6.55 30.47 11.11
10/29/2021 9:15:00 PM 10.5 50.9 0.031 6.55 33.32 11.12
10/29/2021 9:30:00 PM 10.51 50.918 0.03 6.49 31.68 11.11
10/29/2021 9:45:00 PM 10.51 50.918 0.03 6.46 17.38 11.11
10/29/2021 10:00:00 PM 10.53 50.954 0.031 6.51 39.89 11.11
10/29/2021 10:15:00 PM 10.54 50.972 0.031 6.55 26.1 11.1
10/29/2021 10:30:00 PM 10.55 50.99 0.031 6.56 55.41 11.11
10/29/2021 10:45:00 PM 10.55 50.99 0.03 6.49 58.9 11.11
10/29/2021 11:00:00 PM 10.55 50.99 0.03 6.52 4281.43 11.11
10/29/2021 11:15:00 PM 10.56 51.008 0.019 6.5 1324.71 11.1
10/29/2021 11:30:00 PM 10.56 51.008 0.022 6.51 2628.99 11.1
10/29/2021 11:45:00 PM 10.56 51.008 0.025 6.48 757.53 11.1
10/30/2021 12:00:00 AM 10.57 51.026 0.025 6.48 2959.45 11.1
10/30/2021 12:15:00 AM 10.58 51.044 0.025 6.5 5233.33 11.1
10/30/2021 12:30:00 AM 10.58 51.044 0.024 6.52 923.61 11.09
10/30/2021 12:45:00 AM 10.58 51.044 0.024 6.51 692.66 11.09
10/30/2021 1:00:00 AM 10.58 51.044 0.024 6.51 640.65 11.08
10/30/2021 1:15:00 AM 10.58 51.044 0.026 6.48 33.48 11.09
10/30/2021 1:30:00 AM 10.58 51.044 0.028 6.49 70.49 11.08
10/30/2021 1:45:00 AM 10.59 51.062 0.029 6.45 241.72 11.08
10/30/2021 2:00:00 AM 10.59 51.062 0.029 6.45 388.9 11.08
10/30/2021 2:15:00 AM 10.59 51.062 0.03 6.45 7169.15 11.08
10/30/2021 2:30:00 AM 10.59 51.062 0.03 6.46 1466.59 11.08
10/30/2021 2:45:00 AM 10.59 51.062 0.03 6.47 3226.71 11.07
10/30/2021 3:00:00 AM 10.59 51.062 0.03 6.48 1972.11 11.08
10/30/2021 3:15:00 AM 10.59 51.062 0.03 6.48 713.68 11.07
10/30/2021 3:30:00 AM 10.59 51.062 0.03 6.48 679.47 11.07
10/30/2021 3:45:00 AM 10.59 51.062 0.03 6.49 553.97 11.08
10/30/2021 4:00:00 AM 10.59 51.062 0.03 6.48 628.93 11.07
10/30/2021 4:15:00 AM 10.6 51.08 0.029 6.49 677.22 11.07
10/30/2021 4:30:00 AM 10.61 51.098 0.03 6.48 613.12 11.06
10/30/2021 4:45:00 AM 10.61 51.098 0.029 6.43 533.16 11.07
10/30/2021 5:00:00 AM 10.62 51.116 0.029 6.34 475.68 11.07
10/30/2021 5:15:00 AM 10.62 51.116 0.029 6.28 463.59 11.08
10/30/2021 5:30:00 AM 10.63 51.134 0.029 6.27 450.11 11.07
10/30/2021 5:45:00 AM 10.63 51.134 0.029 6.32 452.75 11.06
10/30/2021 6:00:00 AM 10.64 51.152 0.029 6.27 451.33 11.07
10/30/2021 6:15:00 AM 10.64 51.152 0.029 6.18 450.93 11.07
10/30/2021 6:30:00 AM 10.65 51.17 0.029 6.22 498.49 11.06
10/30/2021 6:45:00 AM 10.66 51.188 0.029 6.18 491.66 11.06
10/30/2021 7:00:00 AM 10.67 51.206 0.029 6.16 477.45 11.06
10/30/2021 7:15:00 AM 10.67 51.206 0.029 6.21 476.36 11.07
10/30/2021 7:30:00 AM 10.68 51.224 0.029 6.28 472.5 11.06
10/30/2021 7:45:00 AM 10.69 51.242 0.029 6.25 468.88 11.06
10/30/2021 8:00:00 AM 10.69 51.242 0.029 6.25 470.91 11.06
10/30/2021 8:15:00 AM 10.7 51.26 0.028 6.24 470.32 11.06
10/30/2021 8:30:00 AM 10.71 51.278 0.028 6.25 472.53 11.07
10/30/2021 8:45:00 AM 10.71 51.278 0.029 6.25 469.87 11.06
10/30/2021 9:00:00 AM 10.72 51.296 0.028 6.25 468.21 11.06
10/30/2021 9:15:00 AM 10.73 51.314 0.029 6.25 466.15 11.04
10/30/2021 9:30:00 AM 10.74 51.332 0.029 6.25 465.1 11.03
10/30/2021 9:45:00 AM 10.75 51.35 0.029 6.25 463.47 11.02
10/30/2021 10:00:00 AM 10.77 51.386 0.029 6.25 463.07 11.06
10/30/2021 10:15:00 AM 10.78 51.404 0.029 6.25 462 11.05
10/30/2021 10:30:00 AM 10.79 51.422 0.029 6.25 462.15 11.06
10/30/2021 10:45:00 AM 10.81 51.458 0.029 6.25 460.77 11.04
10/30/2021 11:00:00 AM 10.82 51.476 0.028 6.25 460.36 11.05
10/30/2021 11:15:00 AM 10.84 51.512 0.029 6.24 459.91 11.05
10/30/2021 11:30:00 AM 10.86 51.548 0.028 6.24 458.88 11.04
10/30/2021 11:45:00 AM 10.88 51.584 0.028 6.24 458.54 11.05
10/30/2021 12:00:00 PM 10.9 51.62 0.029 6.24 458.57 11.02
10/30/2021 12:15:00 PM 10.91 51.638 0.029 6.24 458.26 11.02
10/30/2021 12:30:00 PM 10.93 51.674 0.028 6.23 457.75 10.94
10/30/2021 12:45:00 PM 10.95 51.71 0.028 6.23 457.47 10.62
10/30/2021 1:00:00 PM 10.98 51.764 0.028 6.23 456.64 10.26
10/30/2021 1:15:00 PM 11.01 51.818 0.028 6.24 457.52 11.02
10/30/2021 1:30:00 PM 11.04 51.872 0.028 6.23 457.58 11.01
10/30/2021 1:45:00 PM 11.06 51.908 0.028 6.24 456.81 10.94
10/30/2021 2:00:00 PM 11.08 51.944 0.029 6.24 456.06 10.51
10/30/2021 2:15:00 PM 11.1 51.98 0.029 6.25 455.86 9.7
10/30/2021 2:30:00 PM 11.12 52.016 0.029 6.24 456.51 9.58
10/30/2021 2:45:00 PM 11.13 52.034 0.029 6.24 455.64 9.36
10/30/2021 3:00:00 PM 11.15 52.07 0.029 6.24 455.48 9.33
10/30/2021 3:15:00 PM 11.17 52.106 0.029 6.24 455.34 10.1
10/30/2021 3:30:00 PM 11.19 52.142 0.029 6.24 455.81 10.61
10/30/2021 3:45:00 PM 11.2 52.16 0.029 6.24 454.23 10.77
10/30/2021 4:00:00 PM 11.22 52.196 0.029 6.23 453.73 10.78
10/30/2021 4:15:00 PM 11.23 52.214 0.029 6.24 454.26 10.75
10/30/2021 4:30:00 PM 11.24 52.232 0.029 6.24 454.77 10.54
10/30/2021 4:45:00 PM 11.25 52.25 0.03 6.24 454.54 10.02
10/30/2021 5:00:00 PM 11.26 52.268 0.03 6.25 453.87 10.31
10/30/2021 5:15:00 PM 11.26 52.268 0.029 6.23 452.15 10.31
10/30/2021 5:30:00 PM 11.27 52.286 0.029 6.22 452.52 10.2
10/30/2021 5:45:00 PM 11.28 52.304 0.029 6.21 452.25 10.28
10/30/2021 6:00:00 PM 11.29 52.322 0.029 6.21 452.15 10.51
10/30/2021 6:15:00 PM 11.3 52.34 0.029 6.2 451.69 10.85
10/30/2021 6:30:00 PM 11.3 52.34 0.029 6.2 451.81 10.84
10/30/2021 6:45:00 PM 11.3 52.34 0.029 6.2 451.63 10.88
10/30/2021 7:00:00 PM 11.3 52.34 0.029 6.2 451.84 10.8
10/30/2021 7:15:00 PM 11.3 52.34 0.029 6.21 452.53 10.57
10/30/2021 7:30:00 PM 11.29 52.322 0.029 6.21 452.34 10.55
10/30/2021 7:45:00 PM 11.29 52.322 0.029 6.21 452.19 10.54
10/30/2021 8:00:00 PM 11.28 52.304 0.028 6.21 453.28 10.2
10/30/2021 8:15:00 PM 11.28 52.304 0.028 6.21 453.4 9.97
10/30/2021 8:30:00 PM 11.27 52.286 0.028 6.21 452.9 9.94
10/30/2021 8:45:00 PM 11.26 52.268 0.028 6.21 453.22 10.08
10/30/2021 9:00:00 PM 11.25 52.25 0.028 6.22 452.61 10.08
10/30/2021 9:15:00 PM 11.25 52.25 0.028 6.21 452.53 10.07
10/30/2021 9:30:00 PM 11.24 52.232 0.028 6.21 452.87 10.06
10/30/2021 9:45:00 PM 11.23 52.214 0.028 6.2 452.1 10.07
10/30/2021 10:00:00 PM 11.22 52.196 0.028 6.2 451.97 10.19
10/30/2021 10:15:00 PM 11.2 52.16 0.028 6.21 451.43 10.25
10/30/2021 10:30:00 PM 11.19 52.142 0.028 6.19 452.01 10.32
10/30/2021 10:45:00 PM 11.18 52.124 0.028 6.2 451.93 10.38
10/30/2021 11:00:00 PM 11.17 52.106 0.028 6.2 452.1 10.41
10/30/2021 11:15:00 PM 11.16 52.088 0.028 6.2 451.72 10.41
10/30/2021 11:30:00 PM 11.15 52.07 0.028 6.2 451.55 10.38
10/30/2021 11:45:00 PM 11.13 52.034 0.028 6.2 450.97 10.48
10/31/2021 12:00:00 AM 11.12 52.016 0.028 6.19 450.2 10.51
10/31/2021 12:15:00 AM 11.11 51.998 0.028 6.19 450 10.59
10/31/2021 12:30:00 AM 11.09 51.962 0.028 6.19 450.28 10.57
10/31/2021 12:45:00 AM 11.07 51.926 0.028 6.19 448.8 10.59
10/31/2021 1:00:00 AM 11.06 51.908 0.028 6.2 448.55 10.52
10/31/2021 1:15:00 AM 11.03 51.854 0.028 6.19 447.47 10.55
10/31/2021 1:30:00 AM 11.01 51.818 0.028 6.19 447.38 10.63
10/31/2021 1:45:00 AM 10.99 51.782 0.028 6.19 446.64 10.66
10/31/2021 2:00:00 AM 10.96 51.728 0.028 6.19 445.95 10.61
10/31/2021 2:15:00 AM 10.93 51.674 0.028 6.19 445.41 10.65
10/31/2021 2:30:00 AM 10.91 51.638 0.028 6.19 444.98 10.51
10/31/2021 2:45:00 AM 10.88 51.584 0.028 6.2 444.83 10.58
10/31/2021 3:00:00 AM 10.87 51.566 0.028 6.22 444.47 10.39
10/31/2021 3:15:00 AM 10.86 51.548 0.028 6.22 444.44 10.38
10/31/2021 3:30:00 AM 10.85 51.53 0.028 6.22 445.09 10.34
10/31/2021 3:45:00 AM 10.83 51.494 0.028 6.23 444.88 10.42
10/31/2021 4:00:00 AM 10.82 51.476 0.028 6.22 444.4 10.39
10/31/2021 4:15:00 AM 10.81 51.458 0.028 6.22 444.86 10.35
10/31/2021 4:30:00 AM 10.8 51.44 0.028 6.22 444.85 10.5
10/31/2021 4:45:00 AM 10.79 51.422 0.028 6.23 444.84 10.46
10/31/2021 5:00:00 AM 10.79 51.422 0.028 6.23 444.8 10.59
10/31/2021 5:15:00 AM 10.78 51.404 0.028 6.23 444.74 10.66
10/31/2021 5:30:00 AM 10.78 51.404 0.028 6.23 444.61 10.57
10/31/2021 5:45:00 AM 10.78 51.404 0.028 6.23 444.25 10.4
10/31/2021 6:00:00 AM 10.79 51.422 0.028 6.03 443.91 10.53
10/31/2021 6:15:00 AM 10.8 51.44 0.028 6.2 444.56 10.49
10/31/2021 6:30:00 AM 10.81 51.458 0.028 6.19 444.73 10.4
10/31/2021 6:45:00 AM 10.8 51.44 0.028 6.23 444.38 10.53
10/31/2021 7:00:00 AM 10.81 51.458 0.028 6.23 443.83 10.28
10/31/2021 7:15:00 AM 10.81 51.458 0.028 6.07 444.58 10.36
10/31/2021 7:30:00 AM 10.81 51.458 0.028 6.22 444.35 10.39
10/31/2021 7:45:00 AM 10.8 51.44 0.028 6.22 444.26 10.51
10/31/2021 8:00:00 AM 10.8 51.44 0.028 6.01 444.27 10.32
10/31/2021 8:15:00 AM 10.81 51.458 0.028 6.09 444.26 10.04
10/31/2021 8:30:00 AM 10.82 51.476 0.028 6.24 444.21 9.93
10/31/2021 8:45:00 AM 10.82 51.476 0.028 6.22 444.22 10.19
10/31/2021 9:00:00 AM 10.82 51.476 0.028 6.22 444.26 10.05
10/31/2021 9:15:00 AM 10.83 51.494 0.028 6.2 444.16 9.99
10/31/2021 9:30:00 AM 10.84 51.512 0.028 6.22 444.46 9.97
10/31/2021 9:45:00 AM 10.85 51.53 0.028 6.21 444.06 9.73
10/31/2021 10:00:00 AM 10.87 51.566 0.029 6.03 444.08 9.48
10/31/2021 10:15:00 AM 10.89 51.602 0.029 6.07 443.98 9.5
10/31/2021 10:30:00 AM 10.91 51.638 0.029 6.04 444.46 9.11
10/31/2021 10:45:00 AM 10.93 51.674 0.029 6.05 443.99 9.24
10/31/2021 11:00:00 AM 10.95 51.71 0.029 6.18 444.25 9.2
10/31/2021 11:15:00 AM 10.97 51.746 0.029 6.16 443.93 9.33
10/31/2021 11:30:00 AM 11 51.8 0.029 6.15 444.07 9.19
10/31/2021 11:45:00 AM 11.03 51.854 0.029 6.16 443.82 9.13
10/31/2021 12:00:00 PM 11.06 51.908 0.029 6.05 443.39 9.15
10/31/2021 12:15:00 PM 11.09 51.962 0.029 5.97 443.37 9.22
10/31/2021 12:30:00 PM 11.11 51.998 0.029 5.99 443.38 9.14
10/31/2021 12:45:00 PM 11.15 52.07 0.029 6.15 443.01 9.36
10/31/2021 1:00:00 PM 11.17 52.106 0.029 6.13 443.12 9.11
10/31/2021 1:15:00 PM 11.19 52.142 0.029 6.14 443.04 9.02
10/31/2021 1:30:00 PM 11.22 52.196 0.029 6.15 442.82 9.04
10/31/2021 1:45:00 PM 11.25 52.25 0.029 6.08 442.68 9.22
10/31/2021 2:00:00 PM 11.27 52.286 0.029 6.14 442.81 9.03
10/31/2021 2:15:00 PM 11.29 52.322 0.029 5.88 442.95 8.85
10/31/2021 2:30:00 PM 11.31 52.358 0.029 6.14 442.77 8.94
10/31/2021 2:45:00 PM 11.32 52.376 0.029 6.06 442.81 8.93
10/31/2021 3:00:00 PM 11.34 52.412 0.029 6.13 442.34 9.08
10/31/2021 3:15:00 PM 11.35 52.43 0.029 5.88 443.19 9.05
10/31/2021 3:30:00 PM 11.37 52.466 0.028 5.97 442.95 9.65
10/31/2021 3:45:00 PM 11.4 52.52 0.028 5.94 442.81 9.93
10/31/2021 4:00:00 PM 11.41 52.538 0.028 6.14 442.71 9.95
10/31/2021 4:15:00 PM 11.42 52.556 0.028 5.9 441.9 10.26
10/31/2021 4:30:00 PM 11.42 52.556 0.028 5.95 442.35 9.99
10/31/2021 4:45:00 PM 11.42 52.556 0.028 5.95 442.22 9.66
10/31/2021 5:00:00 PM 11.42 52.556 0.028 5.94 442.19 9.84
10/31/2021 5:15:00 PM 11.42 52.556 0.028 5.95 442.16 9.74
10/31/2021 5:30:00 PM 11.42 52.556 0.028 5.95 442.09 9.76
10/31/2021 5:45:00 PM 11.42 52.556 0.028 5.96 442.05 10
10/31/2021 6:00:00 PM 11.41 52.538 0.028 5.93 442.04 9.71
10/31/2021 6:15:00 PM 11.4 52.52 0.028 5.94 441.93 9.75
10/31/2021 6:30:00 PM 11.39 52.502 0.028 5.97 442.08 9.71
10/31/2021 6:45:00 PM 11.38 52.484 0.028 5.94 441.99 9.44
10/31/2021 7:00:00 PM 11.36 52.448 0.028 5.93 442.15 9.23
10/31/2021 7:15:00 PM 11.34 52.412 0.028 6.11 442.22 9.47
10/31/2021 7:30:00 PM 11.33 52.394 0.028 6.08 442.14 9.41
10/31/2021 7:45:00 PM 11.31 52.358 0.029 6.08 442.12 9.13
10/31/2021 8:00:00 PM 11.29 52.322 0.029 6.02 442.08 9.02
10/31/2021 8:15:00 PM 11.27 52.286 0.029 6.06 442.03 9.08
10/31/2021 8:30:00 PM 11.24 52.232 0.029 6.07 442.09 9.16
10/31/2021 8:45:00 PM 11.22 52.196 0.029 6.06 442.08 8.67
10/31/2021 9:00:00 PM 11.2 52.16 0.029 5.98 442.41 8.8
10/31/2021 9:15:00 PM 11.17 52.106 0.029 6.07 442.15 8.64
10/31/2021 9:30:00 PM 11.15 52.07 0.03 6.06 442.46 8.67
10/31/2021 9:45:00 PM 11.13 52.034 0.03 6.05 442.51 8.05
10/31/2021 10:00:00 PM 11.1 51.98 0.03 5.88 442.62 8.04
10/31/2021 10:15:00 PM 11.06 51.908 0.03 5.89 442.59 7.37
10/31/2021 10:30:00 PM 11.03 51.854 0.029 5.89 442.83 8.39
10/31/2021 10:45:00 PM 11 51.8 0.029 5.9 442.7 8.16
10/31/2021 11:00:00 PM 10.96 51.728 0.03 5.89 443.04 7.63
10/31/2021 11:15:00 PM 10.91 51.638 0.029 5.9 442.86 8.35
10/31/2021 11:30:00 PM 10.86 51.548 0.028 5.91 443.04 9.07
10/31/2021 11:45:00 PM 10.82 51.476 0.028 5.89 442.91 9.07
11/1/2021 12:00:00 AM 10.75 51.35 0.028 5.91 442.93 9.32
11/1/2021 12:15:00 AM 10.72 51.296 0.028 5.9 442.94 9.49
11/1/2021 12:30:00 AM 10.67 51.206 0.028 5.9 442.83 9.45
11/1/2021 12:45:00 AM 10.67 51.206 0.028 5.9 442.76 9.45
11/1/2021 1:00:00 AM 10.69 51.242 0.029 5.89 442.74 9.31
11/1/2021 1:15:00 AM 10.66 51.188 0.029 5.91 442.91 7.78
11/1/2021 1:30:00 AM 10.65 51.17 0.029 5.9 442.82 8.27
11/1/2021 1:45:00 AM 10.62 51.116 0.029 5.86 442.51 8.72
11/1/2021 2:00:00 AM 10.61 51.098 0.028 5.87 442.46 8.96
11/1/2021 2:15:00 AM 10.62 51.116 0.028 5.87 442.76 8.83
11/1/2021 2:30:00 AM 10.64 51.152 0.029 5.86 442.43 8.39
11/1/2021 2:45:00 AM 10.64 51.152 0.029 5.86 442.55 8.18
11/1/2021 3:00:00 AM 10.67 51.206 0.03 5.85 442.61 7.35
11/1/2021 3:15:00 AM 10.67 51.206 0.031 5.84 442.36 6.91
11/1/2021 3:30:00 AM 10.65 51.17 0.032 5.83 442.41 6.54
11/1/2021 3:45:00 AM 10.62 51.116 0.031 5.82 442.29 6.42
11/1/2021 4:00:00 AM 10.58 51.044 0.03 5.81 442.59 7.18
11/1/2021 4:15:00 AM 10.44 50.792 0.028 5.88 442.51 9.81
11/1/2021 4:30:00 AM 10.4 50.72 0.028 5.9 442.7 10.22
11/1/2021 4:45:00 AM 10.4 50.72 0.027 5.92 442.9 10.57
11/1/2021 5:00:00 AM 10.43 50.774 0.027 5.96 443.02 10.41
11/1/2021 5:15:00 AM 10.46 50.828 0.028 5.91 443.06 10.4
11/1/2021 5:30:00 AM 10.49 50.882 0.028 6.07 442.98 10.18
11/1/2021 5:45:00 AM 10.52 50.936 0.028 5.84 442.78 9.43
11/1/2021 6:00:00 AM 10.53 50.954 0.028 6.03 443.01 9.57
11/1/2021 6:15:00 AM 10.54 50.972 0.029 6 443.08 8.6
11/1/2021 6:30:00 AM 10.54 50.972 0.029 5.98 442.83 7.64
11/1/2021 6:45:00 AM 10.52 50.936 0.029 5.78 442.54 7.26
11/1/2021 7:00:00 AM 10.44 50.792 0.028 5.98 442.27 8.66
11/1/2021 7:15:00 AM 10.38 50.684 0.028 5.97 441.84 10.07
11/1/2021 7:30:00 AM 10.34 50.612 0.027 5.87 441.99 10.47
11/1/2021 7:45:00 AM 10.31 50.558 0.027 5.89 441.75 10.39
11/1/2021 8:00:00 AM 10.27 50.486 0.027 5.89 442.34 10.43
11/1/2021 8:15:00 AM 10.24 50.432 0.027 5.9 442.17 10.43
11/1/2021 8:30:00 AM 10.2 50.36 0.027 5.91 442.49 10.7
11/1/2021 8:45:00 AM 10.17 50.306 0.027 5.92 442.61 10.87
11/1/2021 9:00:00 AM 10.15 50.27 0.027 5.92 442.47 10.87
11/1/2021 9:15:00 AM 10.13 50.234 0.027 5.92 442.37 10.55
11/1/2021 9:30:00 AM 10.11 50.198 0.027 6.04 442.45 10.56
11/1/2021 9:45:00 AM 10.09 50.162 0.027 5.91 442.39 10.62
11/1/2021 10:00:00 AM 10.08 50.144 0.027 6.05 442.28 10.55
11/1/2021 10:15:00 AM 10.09 50.162 0.027 5.9 442.25 10.54
11/1/2021 10:30:00 AM 10.1 50.18 0.027 6.07 442.23 10.64
11/1/2021 10:45:00 AM 10.13 50.234 0.027 6.06 442.59 10.87
11/1/2021 11:00:00 AM 10.16 50.288 0.027 6.05 442.38 10.33
11/1/2021 11:15:00 AM 10.18 50.324 0.027 5.86 442.33 10.28
11/1/2021 11:30:00 AM 10.2 50.36 0.027 6.07 442.09 10.09
11/1/2021 11:45:00 AM 10.23 50.414 0.027 6.05 442.21 10.03
11/1/2021 12:00:00 PM 10.27 50.486 0.027 5.86 441.51 10.03
11/1/2021 12:15:00 PM 10.32 50.576 0.027 6.06 441 10.01
11/1/2021 12:30:00 PM 10.4 50.72 0.027 5.87 440.6 9.78
11/1/2021 12:45:00 PM 10.48 50.864 0.028 6.05 440.88 9.19
11/1/2021 1:00:00 PM 10.53 50.954 0.029 5.81 440.7 7.51
11/1/2021 1:15:00 PM 10.58 51.044 0.03 5.99 440.5 6.57
11/1/2021 1:30:00 PM 10.63 51.134 0.031 5.99 440.55 6.08
11/1/2021 1:45:00 PM 10.66 51.188 0.031 5.81 440.93 6.11
11/1/2021 2:00:00 PM 10.68 51.224 0.031 5.98 440.36 6.42
11/1/2021 2:15:00 PM 10.68 51.224 0.029 5.88 440.49 8.82
11/1/2021 2:30:00 PM 10.68 51.224 0.028 5.92 440.44 9.16
11/1/2021 2:45:00 PM 10.68 51.224 0.028 5.94 440.68 9.54
11/1/2021 3:00:00 PM 10.7 51.26 0.028 6 440.86 8.7
11/1/2021 3:15:00 PM 10.7 51.26 0.028 5.88 440.87 8.32
11/1/2021 3:30:00 PM 10.69 51.242 0.028 5.93 440.86 9.12
11/1/2021 3:45:00 PM 10.69 51.242 0.028 5.94 440.88 9.24
11/1/2021 4:00:00 PM 10.69 51.242 0.028 5.94 440.87 9.06
11/1/2021 4:15:00 PM 10.69 51.242 0.029 5.89 440.82 8.16
11/1/2021 4:30:00 PM 10.68 51.224 0.029 5.89 440.81 8.14
11/1/2021 4:45:00 PM 10.67 51.206 0.028 5.9 440.81 8.66
11/1/2021 5:00:00 PM 10.65 51.17 0.028 5.91 440.84 8.84
11/1/2021 5:15:00 PM 10.63 51.134 0.028 5.92 440.91 9.41
11/1/2021 5:30:00 PM 10.61 51.098 0.028 5.92 440.89 9.57
11/1/2021 5:45:00 PM 10.6 51.08 0.028 6.06 440.83 8.72
11/1/2021 6:00:00 PM 10.59 51.062 0.029 5.84 440.91 8.63
11/1/2021 6:15:00 PM 10.53 50.954 0.028 5.85 441.01 8.55
11/1/2021 6:30:00 PM 10.47 50.846 0.028 6.04 441.1 9.57
11/1/2021 6:45:00 PM 10.43 50.774 0.028 5.88 440.79 9.88
11/1/2021 7:00:00 PM 10.42 50.756 0.028 6.09 440.75 9.6
11/1/2021 7:15:00 PM 10.42 50.756 0.028 5.88 440.85 9.06
11/1/2021 7:30:00 PM 10.35 50.63 0.029 6.01 440.55 8.33
11/1/2021 7:45:00 PM 10.26 50.468 0.028 5.86 440.65 9.65
11/1/2021 8:00:00 PM 10.21 50.378 0.027 6.07 440.6 9.95
11/1/2021 8:15:00 PM 10.17 50.306 0.027 5.88 440.66 9.89
11/1/2021 8:30:00 PM 10.13 50.234 0.027 6.07 440.7 9.9
11/1/2021 8:45:00 PM 10.1 50.18 0.027 6.04 440.72 9.86
11/1/2021 9:00:00 PM 10.1 50.18 0.027 5.92 440.86 9.67
11/1/2021 9:15:00 PM 10.08 50.144 0.027 6.08 440.93 9.58
11/1/2021 9:30:00 PM 10.04 50.072 0.027 5.99 440.96 9.65
11/1/2021 9:45:00 PM 9.98 49.964 0.027 5.86 440.94 9.86
11/1/2021 10:00:00 PM 9.93 49.874 0.027 5.89 440.88 9.92
11/1/2021 10:15:00 PM 9.89 49.802 0.027 6.03 440.89 9.95
11/1/2021 10:30:00 PM 9.81 49.658 0.027 6.04 440.7 10.23
11/1/2021 10:45:00 PM 9.75 49.55 0.027 5.88 440.81 10.49
11/1/2021 11:00:00 PM 9.7 49.46 0.027 6.06 440.52 10.36
11/1/2021 11:15:00 PM 9.65 49.37 0.027 5.88 440.69 10.3
11/1/2021 11:30:00 PM 9.61 49.298 0.027 6.05 440.88 10.33
11/1/2021 11:45:00 PM 9.57 49.226 0.027 5.95 440.81 10.38
11/2/2021 12:00:00 AM 9.54 49.172 0.027 6.05 440.77 10.42
11/2/2021 12:15:00 AM 9.52 49.136 0.027 5.89 440.91 10.46
11/2/2021 12:30:00 AM 9.49 49.082 0.027 6.06 441.02 10.47
11/2/2021 12:45:00 AM 9.47 49.046 0.027 6.05 440.97 10.45
11/2/2021 1:00:00 AM 9.45 49.01 0.027 5.89 441.04 10.49
11/2/2021 1:15:00 AM 9.43 48.974 0.027 6.06 441.09 10.59
11/2/2021 1:30:00 AM 9.42 48.956 0.027 6.05 440.89 10.5
11/2/2021 1:45:00 AM 9.41 48.938 0.027 6.03 441 10.44
11/2/2021 2:00:00 AM 9.4 48.92 0.027 6.03 440.96 10.45
11/2/2021 2:15:00 AM 9.39 48.902 0.027 5.91 440.89 10.45
11/2/2021 2:30:00 AM 9.38 48.884 0.027 6.05 441.01 10.42
11/2/2021 2:45:00 AM 9.37 48.866 0.027 6.06 440.75 10.36
11/2/2021 3:00:00 AM 9.36 48.848 0.027 6.07 440.87 10.44
11/2/2021 3:15:00 AM 9.35 48.83 0.027 6.07 440.67 10.58
11/2/2021 3:30:00 AM 9.35 48.83 0.027 5.99 440.76 10.55
11/2/2021 3:45:00 AM 9.35 48.83 0.027 6.08 440.78 10.5
11/2/2021 4:00:00 AM 9.37 48.866 0.027 6.07 440.79 10.35
11/2/2021 4:15:00 AM 9.37 48.866 0.027 6.07 440.96 10.26
11/2/2021 4:30:00 AM 9.38 48.884 0.027 5.91 440.8 10.21
11/2/2021 4:45:00 AM 9.42 48.956 0.027 6.06 440.8 10.12
11/2/2021 5:00:00 AM 9.49 49.082 0.027 6.04 440.78 9.92
11/2/2021 5:15:00 AM 9.55 49.19 0.029 5.86 440.71 9.06
11/2/2021 5:30:00 AM 9.55 49.19 0.029 6.02 440.75 8.67
11/2/2021 5:45:00 AM 9.46 49.028 0.029 6.01 440.69 8.91
11/2/2021 6:00:00 AM 9.31 48.758 0.028 6.07 440.71 10.05
11/2/2021 6:15:00 AM 9.26 48.668 0.027 6.09 440.47 10.31
11/2/2021 6:30:00 AM 9.25 48.65 0.027 5.97 440.4 10.32
11/2/2021 6:45:00 AM 9.25 48.65 0.027 6.02 440.16 10.26
11/2/2021 7:00:00 AM 9.23 48.614 0.027 6.11 440 10.24
11/2/2021 7:15:00 AM 9.21 48.578 0.027 6.1 440.26 10.35
11/2/2021 7:30:00 AM 9.23 48.614 0.027 6.1 440.11 10.32
11/2/2021 7:45:00 AM 9.24 48.632 0.027 6.1 439.99 10.3
11/2/2021 8:00:00 AM 9.24 48.632 0.027 6.1 440.05 10.24
11/2/2021 8:15:00 AM 9.26 48.668 0.027 6.09 439.91 10.19
11/2/2021 8:30:00 AM 9.25 48.65 0.027 6.08 439.77 10.13
11/2/2021 8:45:00 AM 9.2 48.56 0.027 6.09 439.63 10.34
11/2/2021 9:00:00 AM 9.17 48.506 0.027 6.1 439.78 10.44
11/2/2021 9:15:00 AM 9.16 48.488 0.027 6.09 439.47 10.51
11/2/2021 9:30:00 AM 9.16 48.488 0.027 6.1 439.68 10.42
11/2/2021 9:45:00 AM 9.19 48.542 0.027 6.1 439.55 10.45
11/2/2021 10:00:00 AM 9.21 48.578 0.027 6.1 439.36 10.54
11/2/2021 10:15:00 AM 9.26 48.668 0.027 6.1 439.18 10.51
11/2/2021 10:30:00 AM 9.3 48.74 0.027 6.11 439.24 10.48
11/2/2021 10:45:00 AM 9.34 48.812 0.027 6.09 439.27 10.45
11/2/2021 11:00:00 AM 9.39 48.902 0.027 6.07 439.24 10.48
11/2/2021 11:15:00 AM 9.43 48.974 0.027 6.06 439.11 10.47
11/2/2021 11:30:00 AM 9.46 49.028 0.027 6.01 439.02 10.41
11/2/2021 11:45:00 AM 9.48 49.064 0.027 6.06 438.63 10.45
11/2/2021 12:00:00 PM 9.05 48.29 0.03 8.23 14.29 12.9
11/2/2021 12:15:00 PM 9.33 48.794 0.029 6.39 0.93 11.1
11/2/2021 12:30:00 PM 9.38 48.884 0.029 6.47 0.93 11.07
11/2/2021 12:45:00 PM 9.41 48.938 0.029 6.51 0.98 11.03
11/2/2021 1:00:00 PM 9.44 48.992 0.029 6.53 1.63 11.03
11/2/2021 1:15:00 PM 9.46 49.028 0.029 6.56 1.2 11.02
11/2/2021 1:30:00 PM 9.5 49.1 0.029 6.39 1.6 11.01
11/2/2021 1:45:00 PM 9.54 49.172 0.029 6.39 1.81 11
11/2/2021 2:00:00 PM 9.59 49.262 0.029 6.44 2.54 11
11/2/2021 2:15:00 PM 9.6 49.28 0.029 6.59 5.44 10.98
11/2/2021 2:30:00 PM 9.6 49.28 0.029 6.54 5.19 10.97
11/2/2021 2:45:00 PM 9.62 49.316 0.029 6.57 5.56 10.95
11/2/2021 3:00:00 PM 9.63 49.334 0.029 6.45 6.29 10.94
11/2/2021 3:15:00 PM 9.63 49.334 0.029 6.56 6.29 10.95
11/2/2021 3:30:00 PM 9.63 49.334 0.029 6.53 7.33 10.94
11/2/2021 3:45:00 PM 9.63 49.334 0.029 6.54 8.66 10.94
11/2/2021 4:00:00 PM 9.63 49.334 0.029 6.56 7.98 10.95
11/2/2021 4:15:00 PM 9.61 49.298 0.029 6.54 9.59 10.94
11/2/2021 4:30:00 PM 9.6 49.28 0.029 6.36 9.34 10.94
11/2/2021 4:45:00 PM 9.59 49.262 0.029 6.39 11.13 10.94
11/2/2021 5:00:00 PM 9.57 49.226 0.029 6.45 9.94 10.94
11/2/2021 5:15:00 PM 9.54 49.172 0.029 6.49 10.85 10.94
11/2/2021 5:30:00 PM 9.55 49.19 0.029 6.5 9.46 10.92
11/2/2021 5:45:00 PM 9.53 49.154 0.029 6.38 10.08 10.92
11/2/2021 6:00:00 PM 9.5 49.1 0.029 6.5 9.4 10.93
11/2/2021 6:15:00 PM 9.48 49.064 0.029 6.45 10.13 10.92
11/2/2021 6:30:00 PM 9.45 49.01 0.029 6.46 9.15 10.93
11/2/2021 6:45:00 PM 9.43 48.974 0.03 6.47 10.94 10.93
11/2/2021 7:00:00 PM 9.4 48.92 0.029 6.45 11.04 10.93
11/2/2021 7:15:00 PM 9.38 48.884 0.03 6.45 13.39 10.94
11/2/2021 7:30:00 PM 9.35 48.83 0.029 6.37 13.64 10.96
11/2/2021 7:45:00 PM 9.33 48.794 0.03 6.45 17.22 10.98
11/2/2021 8:00:00 PM 9.31 48.758 0.029 6.43 13.75 10.99
11/2/2021 8:15:00 PM 9.3 48.74 0.03 6.47 15.08 10.99
11/2/2021 8:30:00 PM 9.27 48.686 0.029 6.32 15.42 11
11/2/2021 8:45:00 PM 9.24 48.632 0.029 6.49 15.67 10.99
11/2/2021 9:00:00 PM 9.21 48.578 0.029 6.48 15.52 11.01
11/2/2021 9:15:00 PM 9.17 48.506 0.029 6.39 19.94 11.02
11/2/2021 9:30:00 PM 9.13 48.434 0.029 6.45 14.76 11.04
11/2/2021 9:45:00 PM 9.08 48.344 0.029 6.46 16.5 11.05
11/2/2021 10:00:00 PM 9.05 48.29 0.029 6.31 15.13 11.06
11/2/2021 10:15:00 PM 9 48.2 0.029 6.36 14.45 11.08
11/2/2021 10:30:00 PM 8.96 48.128 0.029 6.38 15.54 11.07
11/2/2021 10:45:00 PM 8.92 48.056 0.029 6.49 13.11 11.08
11/2/2021 11:00:00 PM 8.89 48.002 0.029 6.47 13.85 11.08
11/2/2021 11:15:00 PM 8.84 47.912 0.029 6.46 14.41 11.1
11/2/2021 11:30:00 PM 8.8 47.84 0.029 6.46 14.61 11.11
11/2/2021 11:45:00 PM 8.76 47.768 0.029 6.46 15.25 11.14
11/3/2021 12:00:00 AM 8.72 47.696 0.029 6.47 15.01 11.16
11/3/2021 12:15:00 AM 8.67 47.606 0.029 6.47 18.65 11.19
11/3/2021 12:30:00 AM 8.63 47.534 0.029 6.43 18.18 11.2
11/3/2021 12:45:00 AM 8.58 47.444 0.029 6.44 19.39 11.22
11/3/2021 1:00:00 AM 8.55 47.39 0.029 6.45 19.62 11.22
11/3/2021 1:15:00 AM 8.52 47.336 0.029 6.48 19.24 11.24
11/3/2021 1:30:00 AM 8.49 47.282 0.029 6.48 19.3 11.23
11/3/2021 1:45:00 AM 8.45 47.21 0.029 6.47 19.01 11.25
11/3/2021 2:00:00 AM 8.42 47.156 0.029 6.47 18.49 11.25
11/3/2021 2:15:00 AM 8.39 47.102 0.029 6.46 16.74 11.26
11/3/2021 2:30:00 AM 8.37 47.066 0.029 6.46 18.39 11.26
11/3/2021 2:45:00 AM 8.35 47.03 0.029 6.46 18.72 11.26
11/3/2021 3:00:00 AM 8.33 46.994 0.029 6.43 16.86 11.26
11/3/2021 3:15:00 AM 8.31 46.958 0.029 6.49 18.72 11.27
11/3/2021 3:30:00 AM 8.29 46.922 0.029 6.5 17.53 11.28
11/3/2021 3:45:00 AM 8.28 46.904 0.029 6.48 19.69 11.28
11/3/2021 4:00:00 AM 8.26 46.868 0.029 6.51 19.57 11.29
11/3/2021 4:15:00 AM 8.24 46.832 0.029 6.51 19.13 11.28
11/3/2021 4:30:00 AM 8.22 46.796 0.029 6.46 22.8 11.29
11/3/2021 4:45:00 AM 8.2 46.76 0.029 6.48 25.96 11.3
11/3/2021 5:00:00 AM 8.18 46.724 0.029 6.35 18.57 11.31
11/3/2021 5:15:00 AM 8.14 46.652 0.029 6.52 20.85 11.31
11/3/2021 5:30:00 AM 8.13 46.634 0.03 6.46 22.92 11.31
11/3/2021 5:45:00 AM 8.1 46.58 0.029 6.47 17.26 11.34
11/3/2021 6:00:00 AM 8.08 46.544 0.029 6.5 22.13 11.36
11/3/2021 6:15:00 AM 8.05 46.49 0.029 6.47 17.87 11.36
11/3/2021 6:30:00 AM 8.02 46.436 0.029 6.5 18.72 11.37
11/3/2021 6:45:00 AM 7.99 46.382 0.029 6.48 20.79 11.38
11/3/2021 7:00:00 AM 7.97 46.346 0.029 6.47 30.43 11.38
11/3/2021 7:15:00 AM 7.94 46.292 0.029 6.31 21.18 11.39
11/3/2021 7:30:00 AM 7.93 46.274 0.029 6.46 25.03 11.4
11/3/2021 7:45:00 AM 7.9 46.22 0.029 6.5 22.28 11.41
11/3/2021 8:00:00 AM 7.89 46.202 0.029 6.52 24.51 11.41
11/3/2021 8:15:00 AM 7.86 46.148 0.029 6.43 20.76 11.43
11/3/2021 8:30:00 AM 7.84 46.112 0.029 6.48 20.97 11.43
11/3/2021 8:45:00 AM 7.82 46.076 0.029 6.51 20.2 11.43
11/3/2021 9:00:00 AM 7.82 46.076 0.029 6.47 29.07 11.44
11/3/2021 9:15:00 AM 7.8 46.04 0.029 6.5 25.05 11.46
11/3/2021 9:30:00 AM 7.78 46.004 0.029 6.5 29.08 11.48
11/3/2021 9:45:00 AM 7.79 46.022 0.029 6.44 26.2 11.48
11/3/2021 10:00:00 AM 7.81 46.058 0.029 6.57 23.65 11.49
11/3/2021 10:15:00 AM 7.85 46.13 0.029 6.55 19.44 11.51
11/3/2021 10:30:00 AM 7.9 46.22 0.029 6.56 26.73 11.5
11/3/2021 10:45:00 AM 7.96 46.328 0.029 6.58 30.89 11.5
11/3/2021 11:00:00 AM 8.01 46.418 0.029 6.6 28.01 11.48
11/3/2021 11:15:00 AM 8.08 46.544 0.028 6.61 31.37 11.46
11/3/2021 11:30:00 AM 8.12 46.616 0.029 6.58 22.4 11.44
11/3/2021 11:45:00 AM 8.18 46.724 0.029 6.58 30.74 11.42
11/3/2021 12:00:00 PM 8.23 46.814 0.029 6.61 31.44 11.41
11/3/2021 12:15:00 PM 8.29 46.922 0.029 6.61 21.07 11.38
11/3/2021 12:30:00 PM 8.36 47.048 0.029 6.47 27.68 11.35
11/3/2021 12:45:00 PM 8.41 47.138 0.029 6.62 27.16 11.36
11/3/2021 1:00:00 PM 8.42 47.156 0.029 6.6 19.02 11.36
11/3/2021 1:15:00 PM 8.46 47.228 0.029 6.56 26.13 11.35
11/3/2021 1:30:00 PM 8.5 47.3 0.029 6.44 28.45 11.33
11/3/2021 1:45:00 PM 8.54 47.372 0.029 6.6 30.07 11.33
11/3/2021 2:00:00 PM 8.58 47.444 0.029 6.61 41.5 11.33
11/3/2021 2:15:00 PM 8.61 47.498 0.029 6.58 32.41 11.29
11/3/2021 2:30:00 PM 8.64 47.552 0.029 6.61 30.94 11.3
11/3/2021 2:45:00 PM 8.67 47.606 0.029 6.6 31.74 11.29
11/3/2021 3:00:00 PM 8.69 47.642 0.029 6.55 23.96 11.27
11/3/2021 3:15:00 PM 8.71 47.678 0.029 6.58 24.88 11.27
11/3/2021 3:30:00 PM 8.73 47.714 0.029 6.6 34.05 11.25
11/3/2021 3:45:00 PM 8.73 47.714 0.029 6.63 36.98 11.24
11/3/2021 4:00:00 PM 8.74 47.732 0.029 6.64 28.95 11.22
11/3/2021 4:15:00 PM 8.75 47.75 0.029 6.63 32.14 11.2
11/3/2021 4:30:00 PM 8.75 47.75 0.029 6.62 39.29 11.18
11/3/2021 4:45:00 PM 8.74 47.732 0.029 6.62 48.37 11.22
11/3/2021 5:00:00 PM 8.74 47.732 0.029 6.6 32.5 11.22
11/3/2021 5:15:00 PM 8.74 47.732 0.029 6.59 46.8 11.2
11/3/2021 5:30:00 PM 8.76 47.768 0.029 6.69 31.73 11.17
11/3/2021 5:45:00 PM 8.76 47.768 0.029 6.6 34.31 11.14
11/3/2021 6:00:00 PM 8.76 47.768 0.029 6.62 41.39 11.12
11/3/2021 6:15:00 PM 8.76 47.768 0.029 6.62 34.48 11.09
11/3/2021 6:30:00 PM 8.76 47.768 0.03 6.62 31.89 11.11
11/3/2021 6:45:00 PM 8.75 47.75 0.03 6.62 82.96 11.12
11/3/2021 7:00:00 PM 8.74 47.732 0.03 6.58 35.05 11.12
11/3/2021 7:15:00 PM 8.72 47.696 0.03 6.59 33.99 11.12
11/3/2021 7:30:00 PM 8.71 47.678 0.03 6.6 29.52 11.07
11/3/2021 7:45:00 PM 8.7 47.66 0.03 6.57 31.71 11.04
11/3/2021 8:00:00 PM 8.7 47.66 0.03 6.57 38.17 11.08
11/3/2021 8:15:00 PM 8.67 47.606 0.03 6.57 102.62 11.06
11/3/2021 8:30:00 PM 8.67 47.606 0.03 6.58 32.96 10.98
11/3/2021 8:45:00 PM 8.64 47.552 0.03 6.59 43.82 11.03
11/3/2021 9:00:00 PM 8.64 47.552 0.03 6.56 29.47 11
11/3/2021 9:15:00 PM 8.62 47.516 0.03 6.56 36.19 11.03
11/3/2021 9:30:00 PM 8.64 47.552 0.03 6.57 40.18 10.91
11/3/2021 9:45:00 PM 8.61 47.498 0.03 6.55 33.37 11
11/3/2021 10:00:00 PM 8.62 47.516 0.03 6.54 31.05 10.96
11/3/2021 10:15:00 PM 8.56 47.408 0.03 6.58 51 11.12
11/3/2021 10:30:00 PM 8.53 47.354 0.03 6.6 34.62 11.08
11/3/2021 10:45:00 PM 8.52 47.336 0.03 6.54 31.7 11.09
11/3/2021 11:00:00 PM 8.48 47.264 0.03 6.56 24.95 10.92
11/3/2021 11:15:00 PM 8.44 47.192 0.03 6.62 27.39 11.2
11/3/2021 11:30:00 PM 8.41 47.138 0.029 6.52 31.04 11.2
11/3/2021 11:45:00 PM 8.39 47.102 0.029 6.57 33.95 11.24
11/4/2021 12:00:00 AM 8.38 47.084 0.029 6.56 34.55 11.24
11/4/2021 12:15:00 AM 8.35 47.03 0.029 6.57 33.53 11.26
11/4/2021 12:30:00 AM 8.33 46.994 0.029 6.47 43.05 11.27
11/4/2021 12:45:00 AM 8.3 46.94 0.03 6.52 34.83 11.27
11/4/2021 1:00:00 AM 8.27 46.886 0.029 6.45 27.92 11.3
11/4/2021 1:15:00 AM 8.26 46.868 0.03 6.57 50.78 11.29
11/4/2021 1:30:00 AM 8.21 46.778 0.029 6.56 34.03 11.31
11/4/2021 1:45:00 AM 8.18 46.724 0.029 6.62 38.22 11.32
11/4/2021 2:00:00 AM 8.15 46.67 0.029 6.59 33.5 11.34
11/4/2021 2:15:00 AM 8.11 46.598 0.029 6.58 30.37 11.35
11/4/2021 2:30:00 AM 8.08 46.544 0.03 6.54 32.42 11.33
11/4/2021 2:45:00 AM 8.04 46.472 0.029 6.54 36.74 11.37
11/4/2021 3:00:00 AM 8 46.4 0.03 6.56 37.58 11.37
11/4/2021 3:15:00 AM 7.96 46.328 0.03 6.51 31.47 11.34
11/4/2021 3:30:00 AM 7.91 46.238 0.03 6.54 28.08 11.4
11/4/2021 3:45:00 AM 7.89 46.202 0.03 6.49 40.45 11.35
11/4/2021 4:00:00 AM 7.85 46.13 0.029 6.53 54.27 11.35
11/4/2021 4:15:00 AM 7.81 46.058 0.029 6.54 39.93 11.44
11/4/2021 4:30:00 AM 7.78 46.004 0.03 6.55 48.39 11.45
11/4/2021 4:45:00 AM 7.76 45.968 0.03 6.52 36.41 11.47
11/4/2021 5:00:00 AM 7.73 45.914 0.029 6.52 38.52 11.45
11/4/2021 5:15:00 AM 7.7 45.86 0.029 6.53 40 11.45
11/4/2021 5:30:00 AM 7.68 45.824 0.029 6.55 40.77 11.48
11/4/2021 5:45:00 AM 7.66 45.788 0.03 6.59 42.62 11.48
11/4/2021 6:00:00 AM 7.64 45.752 0.03 6.57 55.79 11.49
11/4/2021 6:15:00 AM 7.63 45.734 0.03 6.56 33.91 11.48
11/4/2021 6:30:00 AM 7.6 45.68 0.03 6.55 37.83 11.5
11/4/2021 6:45:00 AM 7.58 45.644 0.03 6.55 44.34 11.48
11/4/2021 7:00:00 AM 7.55 45.59 0.03 6.6 36.79 11.51
11/4/2021 7:15:00 AM 7.54 45.572 0.03 6.56 48.74 11.48
11/4/2021 7:30:00 AM 7.52 45.536 0.03 6.55 92.69 11.51
11/4/2021 7:45:00 AM 7.49 45.482 0.03 6.53 47.29 11.53
11/4/2021 8:00:00 AM 7.47 45.446 0.03 6.56 46.85 11.55
11/4/2021 8:15:00 AM 7.45 45.41 0.03 6.58 46 11.55
11/4/2021 8:30:00 AM 7.43 45.374 0.03 6.56 36.24 11.58
11/4/2021 8:45:00 AM 7.43 45.374 0.03 6.54 44.44 11.57
11/4/2021 9:00:00 AM 7.42 45.356 0.029 6.56 37.11 11.61
11/4/2021 9:15:00 AM 7.42 45.356 0.03 6.56 47.61 11.61
11/4/2021 9:30:00 AM 7.4 45.32 0.03 6.55 37.7 11.59
11/4/2021 9:45:00 AM 7.4 45.32 0.029 6.57 60.29 11.6
11/4/2021 10:00:00 AM 7.41 45.338 0.029 6.57 42.82 11.62
11/4/2021 10:15:00 AM 7.43 45.374 0.029 6.59 39.01 11.62
11/4/2021 10:30:00 AM 7.45 45.41 0.029 6.62 42.5 11.61
11/4/2021 10:45:00 AM 7.48 45.464 0.029 6.56 45.88 11.6
11/4/2021 11:00:00 AM 7.52 45.536 0.029 6.59 48.61 11.59
11/4/2021 11:15:00 AM 7.6 45.68 0.029 6.63 50.87 11.57
11/4/2021 11:30:00 AM 7.69 45.842 0.029 6.56 37.43 11.56
11/4/2021 11:45:00 AM 7.78 46.004 0.029 6.65 37.61 11.54
11/4/2021 12:00:00 PM 7.87 46.166 0.029 6.63 43.43 11.52
11/4/2021 12:15:00 PM 7.95 46.31 0.029 6.59 48.41 11.51
11/4/2021 12:30:00 PM 8.06 46.508 0.029 6.58 47.99 11.49
11/4/2021 12:45:00 PM 8.19 46.742 0.029 6.62 51.13 11.45
11/4/2021 1:00:00 PM 8.26 46.868 0.029 6.69 36.75 11.41
11/4/2021 1:15:00 PM 8.3 46.94 0.029 6.65 66.71 11.39
11/4/2021 1:30:00 PM 8.33 46.994 0.029 6.66 57.7 11.38
11/4/2021 1:45:00 PM 8.34 47.012 0.029 6.7 76.49 11.36
11/4/2021 2:00:00 PM 8.38 47.084 0.029 6.65 33.45 11.38
11/4/2021 2:15:00 PM 8.4 47.12 0.029 6.67 37.09 11.38
11/4/2021 2:30:00 PM 8.4 47.12 0.029 6.66 36.03 11.36
11/4/2021 2:45:00 PM 8.4 47.12 0.029 6.7 67.2 11.36
11/4/2021 3:00:00 PM 8.41 47.138 0.029 6.66 40.76 11.3
11/4/2021 3:15:00 PM 8.42 47.156 0.029 6.63 58.26 11.3
11/4/2021 3:30:00 PM 8.43 47.174 0.029 6.66 36.69 11.33
11/4/2021 3:45:00 PM 8.44 47.192 0.029 6.64 37.32 11.31
11/4/2021 4:00:00 PM 8.45 47.21 0.029 6.59 45.58 11.32
11/4/2021 4:15:00 PM 8.46 47.228 0.029 6.65 50.03 11.31
11/4/2021 4:30:00 PM 8.45 47.21 0.029 6.65 37.01 11.24
11/4/2021 4:45:00 PM 8.44 47.192 0.029 6.64 50.99 11.25
11/4/2021 5:00:00 PM 8.45 47.21 0.03 6.64 54.66 11.24
11/4/2021 5:15:00 PM 8.45 47.21 0.029 6.66 49 11.29
11/4/2021 5:30:00 PM 8.45 47.21 0.029 6.66 66.26 11.28
11/4/2021 5:45:00 PM 8.45 47.21 0.029 6.62 44.62 11.26
11/4/2021 6:00:00 PM 8.44 47.192 0.03 6.67 42.55 11.23
11/4/2021 6:15:00 PM 8.43 47.174 0.03 6.67 35.58 11.25
11/4/2021 6:30:00 PM 8.41 47.138 0.03 6.66 41.87 11.23
11/4/2021 6:45:00 PM 8.39 47.102 0.03 6.7 48.53 11.24
11/4/2021 7:00:00 PM 8.37 47.066 0.03 6.63 44.16 11.25
11/4/2021 7:15:00 PM 8.34 47.012 0.03 6.65 47.21 11.24
11/4/2021 7:30:00 PM 8.32 46.976 0.03 6.63 54.97 11.25
11/4/2021 7:45:00 PM 8.29 46.922 0.03 6.61 43.94 11.23
11/4/2021 8:00:00 PM 8.26 46.868 0.03 6.57 47.59 11.23
11/4/2021 8:15:00 PM 8.24 46.832 0.03 6.54 39.48 11.27
11/4/2021 8:30:00 PM 8.2 46.76 0.03 6.54 72.1 11.27
11/4/2021 8:45:00 PM 8.18 46.724 0.03 6.59 71.67 11.3
11/4/2021 9:00:00 PM 8.15 46.67 0.03 6.56 49.93 11.3
11/4/2021 9:15:00 PM 8.12 46.616 0.03 6.47 48.64 11.29
11/4/2021 9:30:00 PM 8.09 46.562 0.03 6.6 31.44 11.3
11/4/2021 9:45:00 PM 8.06 46.508 0.03 6.33 44.02 11.32
11/4/2021 10:00:00 PM 8.03 46.454 0.03 6.48 36.08 11.33
11/4/2021 10:15:00 PM 7.98 46.364 0.03 6.55 47.33 11.34
11/4/2021 10:30:00 PM 7.94 46.292 0.03 6.59 52.8 11.37
11/4/2021 10:45:00 PM 7.89 46.202 0.03 6.58 46.25 11.4
11/4/2021 11:00:00 PM 7.85 46.13 0.03 6.56 40.1 11.4
11/4/2021 11:15:00 PM 7.81 46.058 0.03 6.6 59.44 11.42
11/4/2021 11:30:00 PM 7.76 45.968 0.03 6.65 38.53 11.42
11/4/2021 11:45:00 PM 7.71 45.878 0.03 6.61 41.14 11.41
11/5/2021 12:00:00 AM 7.67 45.806 0.03 6.65 29.22 11.43
11/5/2021 12:15:00 AM 7.62 45.716 0.03 6.69 38.13 11.45
11/5/2021 12:30:00 AM 7.58 45.644 0.03 6.57 43.35 11.43
11/5/2021 12:45:00 AM 7.55 45.59 0.03 6.56 39.51 11.45
11/5/2021 1:00:00 AM 7.5 45.5 0.03 6.65 42.71 11.49
11/5/2021 1:15:00 AM 7.47 45.446 0.03 6.57 54.1 11.5
11/5/2021 1:30:00 AM 7.43 45.374 0.03 6.65 40.59 11.52
11/5/2021 1:45:00 AM 7.39 45.302 0.03 6.66 50.05 11.54
11/5/2021 2:00:00 AM 7.36 45.248 0.03 6.62 49.93 11.53
11/5/2021 2:15:00 AM 7.32 45.176 0.03 6.56 38.15 11.52
11/5/2021 2:30:00 AM 7.3 45.14 0.03 6.49 40.05 11.56
11/5/2021 2:45:00 AM 7.25 45.05 0.027 6.52 86.89 11.58
11/5/2021 3:00:00 AM 7.22 44.996 0.03 6.57 42.95 11.57
11/5/2021 3:15:00 AM 7.19 44.942 0.03 6.52 46.17 11.57
11/5/2021 3:30:00 AM 7.16 44.888 0.03 6.4 41.17 11.62
11/5/2021 3:45:00 AM 7.14 44.852 0.03 6.53 48.26 11.56
11/5/2021 4:00:00 AM 7.1 44.78 0.03 6.53 58.44 11.61
11/5/2021 4:15:00 AM 7.08 44.744 0.03 6.57 56.99 11.59
11/5/2021 4:30:00 AM 7.04 44.672 0.03 6.59 55.39 11.61
11/5/2021 4:45:00 AM 7.01 44.618 0.03 6.45 39.14 11.6
11/5/2021 5:00:00 AM 6.98 44.564 0.03 6.57 43.47 11.63
11/5/2021 5:15:00 AM 6.95 44.51 0.03 6.49 47.71 11.64
11/5/2021 5:30:00 AM 6.93 44.474 0.03 6.56 45.4 11.65
11/5/2021 5:45:00 AM 6.88 44.384 0.03 6.53 43.65 11.66
11/5/2021 6:00:00 AM 6.85 44.33 0.03 6.39 56.17 11.7
11/5/2021 6:15:00 AM 6.81 44.258 0.03 6.46 48.73 11.72
11/5/2021 6:30:00 AM 6.79 44.222 0.03 6.57 61.02 11.73
11/5/2021 6:45:00 AM 6.76 44.168 0.03 6.52 41.57 11.73
11/5/2021 7:00:00 AM 6.74 44.132 0.03 6.54 61.17 11.72
11/5/2021 7:15:00 AM 6.7 44.06 0.03 6.42 48.02 11.76
11/5/2021 7:30:00 AM 6.68 44.024 0.03 6.58 51.19 11.77
11/5/2021 7:45:00 AM 6.65 43.97 0.03 6.55 84.04 11.76
11/5/2021 8:00:00 AM 6.62 43.916 0.03 6.51 38.06 11.76
11/5/2021 8:15:00 AM 6.6 43.88 0.03 6.45 46.69 11.79
11/5/2021 8:30:00 AM 6.58 43.844 0.03 6.54 40.04 11.81
11/5/2021 8:45:00 AM 6.56 43.808 0.03 6.56 36.5 11.84
11/5/2021 9:00:00 AM 6.54 43.772 0.03 6.43 37.46 11.84
11/5/2021 9:15:00 AM 6.52 43.736 0.03 6.54 49.97 11.86
11/5/2021 9:30:00 AM 6.52 43.736 0.03 6.59 56.63 11.87
11/5/2021 9:45:00 AM 6.51 43.718 0.03 6.58 75.41 11.88
11/5/2021 10:00:00 AM 6.52 43.736 0.03 6.61 70.77 11.89
11/5/2021 10:15:00 AM 6.56 43.808 0.03 6.43 58.32 11.85
11/5/2021 10:30:00 AM 6.62 43.916 0.03 6.64 38.36 11.88
11/5/2021 10:45:00 AM 6.65 43.97 0.03 6.64 44.91 11.89
11/5/2021 11:00:00 AM 6.72 44.096 0.03 6.64 38.74 11.87
11/5/2021 11:15:00 AM 6.81 44.258 0.03 6.66 48.44 11.85
11/5/2021 11:30:00 AM 6.91 44.438 0.03 6.66 59.11 11.77
11/5/2021 11:45:00 AM 7.02 44.636 0.03 6.7 53.93 11.78
11/5/2021 12:00:00 PM 7.15 44.87 0.03 6.67 61.9 11.76
11/5/2021 12:15:00 PM 7.27 45.086 0.03 6.54 52.03 11.74
11/5/2021 12:30:00 PM 7.39 45.302 0.03 6.67 75.04 11.68
11/5/2021 12:45:00 PM 7.5 45.5 0.03 6.66 67.69 11.64
11/5/2021 1:00:00 PM 7.59 45.662 0.03 6.7 67.4 11.6
11/5/2021 1:15:00 PM 7.68 45.824 0.03 6.7 116.87 11.59
11/5/2021 1:30:00 PM 7.76 45.968 0.029 6.71 45.2 11.59
11/5/2021 1:45:00 PM 7.82 46.076 0.028 6.72 55.94 11.57
11/5/2021 2:00:00 PM 7.83 46.094 0.03 6.72 67.51 11.54
11/5/2021 2:15:00 PM 7.85 46.13 0.03 6.72 73.35 11.53
11/5/2021 2:30:00 PM 7.91 46.238 0.03 6.74 60.33 11.52
11/5/2021 2:45:00 PM 7.99 46.382 0.03 6.7 50.36 11.47
11/5/2021 3:00:00 PM 8.05 46.49 0.03 6.71 55.5 11.46
11/5/2021 3:15:00 PM 8.08 46.544 0.03 6.72 40.34 11.45
11/5/2021 3:30:00 PM 8.09 46.562 0.03 6.73 48.8 11.45
11/5/2021 3:45:00 PM 8.08 46.544 0.03 6.75 61.54 11.44
11/5/2021 4:00:00 PM 8.06 46.508 0.03 6.75 45.6 11.43
11/5/2021 4:15:00 PM 8.05 46.49 0.03 6.74 48.71 11.42
11/5/2021 4:30:00 PM 8.02 46.436 0.03 6.7 67.01 11.43
11/5/2021 4:45:00 PM 7.99 46.382 0.03 6.73 71.51 11.44
11/5/2021 5:00:00 PM 7.96 46.328 0.03 6.73 70.97 11.44
11/5/2021 5:15:00 PM 7.94 46.292 0.03 6.72 44.85 11.44
11/5/2021 5:30:00 PM 7.92 46.256 0.03 6.73 59.56 11.45
11/5/2021 5:45:00 PM 7.88 46.184 0.03 6.74 51.12 11.44
11/5/2021 6:00:00 PM 7.85 46.13 0.03 6.74 81.49 11.45
11/5/2021 6:15:00 PM 7.83 46.094 0.03 6.73 88.87 11.45
11/5/2021 6:30:00 PM 7.8 46.04 0.03 6.67 88.84 11.45
11/5/2021 6:45:00 PM 7.76 45.968 0.03 6.73 106.15 11.46
11/5/2021 7:00:00 PM 7.72 45.896 0.03 6.72 56.57 11.46
11/5/2021 7:15:00 PM 7.68 45.824 0.03 6.75 49.01 11.45
11/5/2021 7:30:00 PM 7.65 45.77 0.03 6.73 45.01 11.46
11/5/2021 7:45:00 PM 7.6 45.68 0.03 6.73 69.1 11.48
11/5/2021 8:00:00 PM 7.56 45.608 0.03 6.74 41.49 11.49
11/5/2021 8:15:00 PM 7.51 45.518 0.03 6.73 41.86 11.51
11/5/2021 8:30:00 PM 7.48 45.464 0.03 6.74 50.67 11.53
11/5/2021 8:45:00 PM 7.44 45.392 0.03 6.73 51.5 11.52
11/5/2021 9:00:00 PM 7.41 45.338 0.03 6.7 48.86 11.53
11/5/2021 9:15:00 PM 7.37 45.266 0.03 6.71 46.56 11.54
11/5/2021 9:30:00 PM 7.34 45.212 0.03 6.54 52.35 11.56
11/5/2021 9:45:00 PM 7.31 45.158 0.03 6.71 44.36 11.55
11/5/2021 10:00:00 PM 7.26 45.068 0.03 6.72 74.96 11.58
11/5/2021 10:15:00 PM 7.23 45.014 0.03 6.65 69.1 11.58
11/5/2021 10:30:00 PM 7.19 44.942 0.03 6.7 48.85 11.59
11/5/2021 10:45:00 PM 7.15 44.87 0.03 6.72 72.23 11.63
11/5/2021 11:00:00 PM 7.12 44.816 0.03 6.72 84.87 11.6
11/5/2021 11:15:00 PM 7.09 44.762 0.03 6.73 417.06 11.62
11/5/2021 11:30:00 PM 7.05 44.69 0.03 6.73 52.17 11.65
11/5/2021 11:45:00 PM 7.02 44.636 0.03 6.72 130.55 11.64
11/6/2021 12:00:00 AM 6.98 44.564 0.03 6.72 83.56 11.65
11/6/2021 12:15:00 AM 6.94 44.492 0.03 6.69 80.85 11.64
11/6/2021 12:30:00 AM 6.91 44.438 0.03 6.71 54.41 11.68
11/6/2021 12:45:00 AM 6.88 44.384 0.03 6.72 42.21 11.67
11/6/2021 1:00:00 AM 6.84 44.312 0.03 6.67 50.36 11.69
11/6/2021 1:15:00 AM 6.81 44.258 0.03 6.68 59.11 11.72
11/6/2021 1:30:00 AM 6.78 44.204 0.03 6.66 70.55 11.73
11/6/2021 1:45:00 AM 6.74 44.132 0.03 6.68 57.87 11.74
11/6/2021 2:00:00 AM 6.71 44.078 0.03 6.65 56.48 11.74
11/6/2021 2:15:00 AM 6.7 44.06 0.03 6.51 48.56 11.74
11/6/2021 2:30:00 AM 6.66 43.988 0.03 6.63 72.83 11.75
11/6/2021 2:45:00 AM 6.63 43.934 0.03 6.63 66.33 11.77
11/6/2021 3:00:00 AM 6.59 43.862 0.03 6.6 49.76 11.73
11/6/2021 3:15:00 AM 6.57 43.826 0.03 6.62 76.56 11.78
11/6/2021 3:30:00 AM 6.54 43.772 0.03 6.61 72.21 11.79
11/6/2021 3:45:00 AM 6.51 43.718 0.03 6.58 70.01 11.81
11/6/2021 4:00:00 AM 6.47 43.646 0.029 6.62 48.9 11.82
11/6/2021 4:15:00 AM 6.45 43.61 0.03 6.61 58.37 11.77
11/6/2021 4:30:00 AM 6.42 43.556 0.03 6.55 70.03 11.8
11/6/2021 4:45:00 AM 6.39 43.502 0.03 6.59 84.86 11.83
11/6/2021 5:00:00 AM 6.36 43.448 0.03 6.63 56.21 11.83
11/6/2021 5:15:00 AM 6.33 43.394 0.03 6.59 51.03 11.82
11/6/2021 5:30:00 AM 6.3 43.34 0.03 6.57 66.59 11.83
11/6/2021 5:45:00 AM 6.27 43.286 0.03 6.55 59.66 11.84
11/6/2021 6:00:00 AM 6.24 43.232 0.03 6.6 53.08 11.89
11/6/2021 6:15:00 AM 6.22 43.196 0.03 6.58 66.34 11.87
11/6/2021 6:30:00 AM 6.2 43.16 0.03 6.56 59.99 11.88
11/6/2021 6:45:00 AM 6.16 43.088 0.03 6.58 54.07 11.87
11/6/2021 7:00:00 AM 6.14 43.052 0.03 6.59 53.26 11.91
11/6/2021 7:15:00 AM 6.12 43.016 0.03 6.46 77.95 11.91
11/6/2021 7:30:00 AM 6.09 42.962 0.03 6.56 83.28 11.9
11/6/2021 7:45:00 AM 6.07 42.926 0.03 6.6 80.12 11.91
11/6/2021 8:00:00 AM 6.05 42.89 0.03 6.6 84.53 11.93
11/6/2021 8:15:00 AM 6.02 42.836 0.03 6.55 60.28 11.96
11/6/2021 8:30:00 AM 5.99 42.782 0.03 6.6 48.39 11.99
11/6/2021 8:45:00 AM 5.97 42.746 0.03 6.41 45.86 12.04
11/6/2021 9:00:00 AM 5.97 42.746 0.03 6.61 102.13 11.95
11/6/2021 9:15:00 AM 5.95 42.71 0.03 6.6 57.06 12.02
11/6/2021 9:30:00 AM 5.95 42.71 0.03 6.63 69.17 11.97
11/6/2021 9:45:00 AM 5.94 42.692 0.03 6.64 79.19 11.99
11/6/2021 10:00:00 AM 5.93 42.674 0.03 6.62 55.63 12.02
11/6/2021 10:15:00 AM 5.97 42.746 0.03 6.59 63.43 12.07
11/6/2021 10:30:00 AM 6.02 42.836 0.029 6.59 51.38 12.05
11/6/2021 10:45:00 AM 6.08 42.944 0.03 6.64 64.05 11.98
11/6/2021 11:00:00 AM 6.16 43.088 0.03 6.53 45.49 11.98
11/6/2021 11:15:00 AM 6.24 43.232 0.03 6.68 50.42 11.95
11/6/2021 11:30:00 AM 6.33 43.394 0.029 6.62 67.59 11.92
11/6/2021 11:45:00 AM 6.45 43.61 0.029 6.68 97.07 11.93
11/6/2021 12:00:00 PM 6.58 43.844 0.029 6.54 79.89 11.91
11/6/2021 12:15:00 PM 6.71 44.078 0.029 6.64 49.83 11.87
11/6/2021 12:30:00 PM 6.85 44.33 0.029 6.73 77.67 11.82
11/6/2021 12:45:00 PM 6.98 44.564 0.029 6.66 54.87 11.77
11/6/2021 1:00:00 PM 7.11 44.798 0.029 6.73 85.13 11.74
11/6/2021 1:15:00 PM 7.23 45.014 0.029 6.67 62.18 11.71
11/6/2021 1:30:00 PM 7.34 45.212 0.029 6.76 43.78 11.67
11/6/2021 1:45:00 PM 7.44 45.392 0.029 6.72 52.43 11.62
11/6/2021 2:00:00 PM 7.52 45.536 0.029 6.68 47.91 11.58
11/6/2021 2:15:00 PM 7.58 45.644 0.03 6.6 49.63 11.52
11/6/2021 2:30:00 PM 7.63 45.734 0.03 6.74 53.81 11.54
11/6/2021 2:45:00 PM 7.65 45.77 0.03 6.73 61.91 11.52
11/6/2021 3:00:00 PM 7.67 45.806 0.03 6.78 62.96 11.49
11/6/2021 3:15:00 PM 7.69 45.842 0.03 6.74 59.41 11.48
11/6/2021 3:30:00 PM 7.7 45.86 0.03 6.74 71.91 11.47
11/6/2021 3:45:00 PM 7.71 45.878 0.03 6.79 45.76 11.49
11/6/2021 4:00:00 PM 7.71 45.878 0.03 6.72 67.05 11.47
11/6/2021 4:15:00 PM 7.72 45.896 0.03 6.73 77.01 11.46
11/6/2021 4:30:00 PM 7.72 45.896 0.03 6.73 84.34 11.45
11/6/2021 4:45:00 PM 7.71 45.878 0.03 6.72 71.67 11.4
11/6/2021 5:00:00 PM 7.69 45.842 0.03 6.71 52.95 11.43
11/6/2021 5:15:00 PM 7.67 45.806 0.03 6.69 52.34 11.37
11/6/2021 5:30:00 PM 7.66 45.788 0.03 6.58 66.67 11.42
11/6/2021 5:45:00 PM 7.64 45.752 0.03 6.72 164.32 11.4
11/6/2021 6:00:00 PM 7.6 45.68 0.03 6.74 44.69 11.43
11/6/2021 6:15:00 PM 7.57 45.626 0.03 6.71 44.45 11.41
11/6/2021 6:30:00 PM 7.53 45.554 0.03 6.72 48.88 11.42
11/6/2021 6:45:00 PM 7.5 45.5 0.03 6.76 532.88 11.47
11/6/2021 7:00:00 PM 7.46 45.428 0.03 6.72 45.4 11.47
11/6/2021 7:15:00 PM 7.42 45.356 0.03 6.72 71.4 11.46
11/6/2021 7:30:00 PM 7.38 45.284 0.03 6.72 49.62 11.47
11/6/2021 7:45:00 PM 7.34 45.212 0.03 6.63 51.22 11.46
11/6/2021 8:00:00 PM 7.3 45.14 0.03 6.74 50.52 11.5
11/6/2021 8:15:00 PM 7.25 45.05 0.03 6.7 60.55 11.52
11/6/2021 8:30:00 PM 7.21 44.978 0.03 6.68 70.91 11.51
11/6/2021 8:45:00 PM 7.17 44.906 0.03 6.71 50.28 11.54
11/6/2021 9:00:00 PM 7.13 44.834 0.03 6.7 96.4 11.55
11/6/2021 9:15:00 PM 7.1 44.78 0.03 6.63 51.84 11.56
11/6/2021 9:30:00 PM 7.06 44.708 0.03 6.73 55.63 11.57
11/6/2021 9:45:00 PM 7.03 44.654 0.03 6.7 51.4 11.56
11/6/2021 10:00:00 PM 7 44.6 0.03 6.74 56.1 11.55
11/6/2021 10:15:00 PM 6.97 44.546 0.03 6.72 38.88 11.57
11/6/2021 10:30:00 PM 6.94 44.492 0.03 6.75 61.07 11.59
11/6/2021 10:45:00 PM 6.91 44.438 0.03 6.75 47.76 11.57
11/6/2021 11:00:00 PM 6.87 44.366 0.03 6.74 47.17 11.62
11/6/2021 11:15:00 PM 6.84 44.312 0.03 6.75 38.07 11.63
11/6/2021 11:30:00 PM 6.8 44.24 0.03 6.74 71.33 11.63
11/6/2021 11:45:00 PM 6.77 44.186 0.03 6.65 43.96 11.64
11/7/2021 12:00:00 AM 6.74 44.132 0.03 6.78 63.32 11.65
11/7/2021 12:15:00 AM 6.71 44.078 0.03 6.65 53.22 11.66
11/7/2021 12:30:00 AM 6.69 44.042 0.03 6.79 102.67 11.69
11/7/2021 12:45:00 AM 6.66 43.988 0.028 6.62 64.78 11.68
11/7/2021 1:00:00 AM 6.62 43.916 0.03 6.59 64.76 11.69
11/7/2021 1:15:00 AM 6.6 43.88 0.03 6.7 42.73 11.69
11/7/2021 1:30:00 AM 6.56 43.808 0.03 6.75 51.38 11.7
11/7/2021 1:45:00 AM 6.53 43.754 0.03 6.75 61.09 11.69
11/7/2021 2:00:00 AM 6.5 43.7 0.03 6.63 53.42 11.72
11/7/2021 2:15:00 AM 6.47 43.646 0.03 6.71 50.55 11.72
11/7/2021 2:30:00 AM 6.44 43.592 0.03 6.72 44.21 11.74
11/7/2021 2:45:00 AM 6.41 43.538 0.03 6.71 62.27 11.74
11/7/2021 3:00:00 AM 6.37 43.466 0.03 6.77 46.01 11.73
11/7/2021 3:15:00 AM 6.35 43.43 0.03 6.71 61.27 11.74
11/7/2021 3:30:00 AM 6.31 43.358 0.03 6.65 70.11 11.74
11/7/2021 3:45:00 AM 6.29 43.322 0.03 6.7 75.19 11.77
11/7/2021 4:00:00 AM 6.26 43.268 0.03 6.67 69.58 11.77
11/7/2021 4:15:00 AM 6.23 43.214 0.03 6.78 39.63 11.8
11/7/2021 4:30:00 AM 6.2 43.16 0.03 6.76 49.59 11.8
11/7/2021 4:45:00 AM 6.17 43.106 0.03 6.77 60.99 11.79
11/7/2021 5:00:00 AM 6.14 43.052 0.03 6.77 45.08 11.81
11/7/2021 5:15:00 AM 6.12 43.016 0.03 6.76 84.12 11.85
11/7/2021 5:30:00 AM 6.09 42.962 0.03 6.77 51.98 11.85
11/7/2021 5:45:00 AM 6.07 42.926 0.03 6.71 66.15 11.87
11/7/2021 6:00:00 AM 6.04 42.872 0.03 6.76 64.08 11.87
11/7/2021 6:15:00 AM 6.02 42.836 0.03 6.76 56.35 11.87
11/7/2021 6:30:00 AM 5.99 42.782 0.03 6.76 62.05 11.85
11/7/2021 6:45:00 AM 5.98 42.764 0.03 6.66 96.08 11.87
11/7/2021 7:00:00 AM 5.95 42.71 0.03 6.65 56.87 11.88
11/7/2021 7:15:00 AM 5.93 42.674 0.03 6.68 40.47 11.9
11/7/2021 7:30:00 AM 5.9 42.62 0.03 6.73 63.76 11.89
11/7/2021 7:45:00 AM 5.92 42.656 0.019 6.75 42.39 11.82
11/7/2021 8:00:00 AM 5.86 42.548 0.03 6.79 44.95 11.94
11/7/2021 8:15:00 AM 5.85 42.53 0.03 6.74 58.56 11.89
11/7/2021 8:30:00 AM 5.83 42.494 0.03 6.72 39.56 11.93
11/7/2021 8:45:00 AM 5.81 42.458 0.03 6.77 63.88 11.94
11/7/2021 9:00:00 AM 5.8 42.44 0.03 6.64 79.79 11.92
11/7/2021 9:15:00 AM 5.79 42.422 0.03 6.79 137.89 11.98
11/7/2021 9:30:00 AM 5.79 42.422 0.03 6.7 46.61 11.97
11/7/2021 9:45:00 AM 5.78 42.404 0.03 6.77 65.53 11.97
11/7/2021 10:00:00 AM 5.79 42.422 0.03 6.74 65.53 11.95
11/7/2021 10:15:00 AM 5.81 42.458 0.03 6.72 50.38 11.95
11/7/2021 10:30:00 AM 5.86 42.548 0.03 6.78 79.3 12
11/7/2021 10:45:00 AM 5.93 42.674 0.03 6.79 67.31 11.97
11/7/2021 11:00:00 AM 6 42.8 0.03 6.79 59.91 11.97
11/7/2021 11:15:00 AM 6.09 42.962 0.03 6.75 54.74 11.95
11/7/2021 11:30:00 AM 6.18 43.124 0.03 6.71 68.9 11.92
11/7/2021 11:45:00 AM 6.3 43.34 0.03 6.79 53.99 11.86
11/7/2021 12:00:00 PM 6.43 43.574 0.022 6.82 49.26 11.82
11/7/2021 12:15:00 PM 6.56 43.808 0.028 6.82 52.42 11.81
11/7/2021 12:30:00 PM 6.71 44.078 0.03 6.79 74.05 11.78
11/7/2021 12:45:00 PM 6.86 44.348 0.03 6.79 65.12 11.72
11/7/2021 1:00:00 PM 7 44.6 0.03 6.83 47.25 11.66
11/7/2021 1:15:00 PM 7.14 44.852 0.03 6.82 71.36 11.62
11/7/2021 1:30:00 PM 7.28 45.104 0.03 6.69 73.67 11.59
11/7/2021 1:45:00 PM 7.41 45.338 0.03 6.74 60.6 11.54
11/7/2021 2:00:00 PM 7.52 45.536 0.03 6.76 52.88 11.51
11/7/2021 2:15:00 PM 7.62 45.716 0.03 6.79 48.86 11.47
11/7/2021 2:30:00 PM 7.69 45.842 0.03 6.74 75.2 11.45
11/7/2021 2:45:00 PM 7.75 45.95 0.03 6.72 61.18 11.42
11/7/2021 3:00:00 PM 7.8 46.04 0.03 6.81 66.41 11.41
11/7/2021 3:15:00 PM 7.84 46.112 0.03 6.77 39.87 11.38
11/7/2021 3:30:00 PM 7.87 46.166 0.03 6.83 57.04 11.35
11/7/2021 3:45:00 PM 7.89 46.202 0.03 6.78 43.47 11.35
11/7/2021 4:00:00 PM 7.91 46.238 0.03 6.82 48.5 11.35
11/7/2021 4:15:00 PM 7.92 46.256 0.03 6.82 45.43 11.33
11/7/2021 4:30:00 PM 7.92 46.256 0.03 6.82 49.29 11.32
11/7/2021 4:45:00 PM 7.91 46.238 0.03 6.82 38.4 11.31
11/7/2021 5:00:00 PM 7.9 46.22 0.03 6.81 48.84 11.31
11/7/2021 5:15:00 PM 7.89 46.202 0.03 6.84 54.59 11.3
11/7/2021 5:30:00 PM 7.88 46.184 0.03 6.82 56.52 11.3
11/7/2021 5:45:00 PM 7.86 46.148 0.03 6.8 42.54 11.29
11/7/2021 6:00:00 PM 7.83 46.094 0.03 6.74 60.39 11.3
11/7/2021 6:15:00 PM 7.8 46.04 0.03 6.8 53.33 11.29
11/7/2021 6:30:00 PM 7.78 46.004 0.03 6.78 42.38 11.29
11/7/2021 6:45:00 PM 7.75 45.95 0.03 6.75 75.64 11.29
11/7/2021 7:00:00 PM 7.71 45.878 0.03 6.75 68.67 11.3
11/7/2021 7:15:00 PM 7.68 45.824 0.03 6.86 44.84 11.3
11/7/2021 7:30:00 PM 7.64 45.752 0.03 6.74 45.08 11.31
11/7/2021 7:45:00 PM 7.61 45.698 0.03 6.86 42.6 11.32
11/7/2021 8:00:00 PM 7.58 45.644 0.03 6.82 76.19 11.33
11/7/2021 8:15:00 PM 7.55 45.59 0.03 6.84 70.92 11.34
11/7/2021 8:30:00 PM 7.52 45.536 0.03 6.85 67.1 11.35
11/7/2021 8:45:00 PM 7.49 45.482 0.03 6.83 43.51 11.36
11/7/2021 9:00:00 PM 7.46 45.428 0.03 6.86 62.55 11.38
11/7/2021 9:15:00 PM 7.44 45.392 0.03 6.84 42.02 11.39
11/7/2021 9:30:00 PM 7.41 45.338 0.03 6.77 62.58 11.39
11/7/2021 9:45:00 PM 7.39 45.302 0.03 6.87 43.74 11.4
11/7/2021 10:00:00 PM 7.36 45.248 0.03 6.75 58.46 11.41
11/7/2021 10:15:00 PM 7.34 45.212 0.03 6.85 70.53 11.41
11/7/2021 10:30:00 PM 7.3 45.14 0.03 6.74 78.51 11.42
11/7/2021 10:45:00 PM 7.28 45.104 0.03 6.81 47.01 11.43
11/7/2021 11:00:00 PM 7.25 45.05 0.03 6.85 60.47 11.43
11/7/2021 11:15:00 PM 7.22 44.996 0.025 6.73 71.04 11.44
11/7/2021 11:30:00 PM 7.2 44.96 0.029 6.83 41.5 11.45
11/7/2021 11:45:00 PM 7.17 44.906 0.03 6.81 43.27 11.45
11/8/2021 12:00:00 AM 7.14 44.852 0.03 6.79 55.74 11.46
11/8/2021 12:15:00 AM 7.11 44.798 0.03 6.78 52.92 11.46
11/8/2021 12:30:00 AM 7.08 44.744 0.03 6.76 49.65 11.46
11/8/2021 12:45:00 AM 7.06 44.708 0.03 6.84 49.07 11.47
11/8/2021 1:00:00 AM 7.03 44.654 0.03 6.84 71.88 11.47
11/8/2021 1:15:00 AM 7 44.6 0.03 6.77 50.85 11.48
11/8/2021 1:30:00 AM 6.97 44.546 0.03 6.81 42.94 11.49
11/8/2021 1:45:00 AM 6.94 44.492 0.03 6.78 40.5 11.49
11/8/2021 2:00:00 AM 6.92 44.456 0.03 6.81 54.61 11.51
11/8/2021 2:15:00 AM 6.9 44.42 0.03 6.8 37.66 11.51
11/8/2021 2:30:00 AM 6.87 44.366 0.03 6.85 53.08 11.52
11/8/2021 2:45:00 AM 6.85 44.33 0.03 6.8 50.57 11.52
11/8/2021 3:00:00 AM 6.83 44.294 0.03 6.73 63.65 11.54
11/8/2021 3:15:00 AM 6.81 44.258 0.03 6.8 52.31 11.56
11/8/2021 3:30:00 AM 6.79 44.222 0.03 6.86 53.36 11.56
11/8/2021 3:45:00 AM 6.76 44.168 0.03 6.83 58.8 11.56
11/8/2021 4:00:00 AM 6.75 44.15 0.03 6.82 60.11 11.57
11/8/2021 4:15:00 AM 6.73 44.114 0.03 6.77 77.43 11.59
11/8/2021 4:30:00 AM 6.7 44.06 0.03 6.77 54.74 11.59
11/8/2021 4:45:00 AM 6.68 44.024 0.03 6.83 51.4 11.6
11/8/2021 5:00:00 AM 6.67 44.006 0.03 6.76 55.44 11.6
11/8/2021 5:15:00 AM 6.65 43.97 0.03 6.82 46.65 11.61
11/8/2021 5:30:00 AM 6.63 43.934 0.03 6.81 61.29 11.61
11/8/2021 5:45:00 AM 6.61 43.898 0.03 6.74 71.79 11.63
11/8/2021 6:00:00 AM 6.6 43.88 0.03 6.84 61.17 11.63
11/8/2021 6:15:00 AM 6.58 43.844 0.03 6.83 69.29 11.63
11/8/2021 6:30:00 AM 6.57 43.826 0.03 6.74 40.41 11.62
11/8/2021 6:45:00 AM 6.55 43.79 0.03 6.85 43.51 11.64
11/8/2021 7:00:00 AM 6.53 43.754 0.03 6.82 53.53 11.64
11/8/2021 7:15:00 AM 6.52 43.736 0.03 6.82 58.1 11.64
11/8/2021 7:30:00 AM 6.5 43.7 0.03 6.83 40.17 11.65
11/8/2021 7:45:00 AM 6.49 43.682 0.03 6.72 48.63 11.65
11/8/2021 8:00:00 AM 6.48 43.664 0.03 6.82 63.44 11.67
11/8/2021 8:15:00 AM 6.48 43.664 0.03 6.74 48.2 11.67
11/8/2021 8:30:00 AM 6.46 43.628 0.03 6.84 42.65 11.69
11/8/2021 8:45:00 AM 6.46 43.628 0.03 6.77 40.52 11.7
11/8/2021 9:00:00 AM 6.45 43.61 0.03 6.84 41.4 11.7
11/8/2021 9:15:00 AM 6.46 43.628 0.03 6.73 42.69 11.72
11/8/2021 9:30:00 AM 6.45 43.61 0.03 6.86 56.15 11.72
11/8/2021 9:45:00 AM 6.46 43.628 0.03 6.82 41.44 11.73
11/8/2021 10:00:00 AM 6.47 43.646 0.03 6.83 47.8 11.73
11/8/2021 10:15:00 AM 6.51 43.718 0.03 6.79 65.07 11.74
11/8/2021 10:30:00 AM 6.57 43.826 0.03 6.78 74.49 11.74
11/8/2021 10:45:00 AM 6.66 43.988 0.03 6.87 44.58 11.74
11/8/2021 11:00:00 AM 6.75 44.15 0.03 6.88 54.16 11.7
11/8/2021 11:15:00 AM 6.85 44.33 0.03 6.88 49.33 11.67
11/8/2021 11:30:00 AM 6.96 44.528 0.03 6.78 64.18 11.64
11/8/2021 11:45:00 AM 7.09 44.762 0.03 6.81 54.33 11.61
11/8/2021 12:00:00 PM 7.23 45.014 0.027 6.81 52.49 11.58
11/8/2021 12:15:00 PM 7.39 45.302 0.03 6.88 45.93 11.53
11/8/2021 12:30:00 PM 7.55 45.59 0.03 6.9 56.47 11.48
11/8/2021 12:45:00 PM 7.71 45.878 0.03 6.89 54.88 11.44
11/8/2021 1:00:00 PM 7.88 46.184 0.03 6.8 70.54 11.4
11/8/2021 1:15:00 PM 8.04 46.472 0.03 6.81 56.2 11.35
11/8/2021 1:30:00 PM 8.19 46.742 0.03 6.88 37.95 11.29
11/8/2021 1:45:00 PM 8.34 47.012 0.027 6.81 62.65 11.23
11/8/2021 2:00:00 PM 8.46 47.228 0.03 6.85 43.43 11.21
11/8/2021 2:15:00 PM 8.57 47.426 0.03 6.84 71.33 11.19
11/8/2021 2:30:00 PM 8.65 47.57 0.03 6.81 42.04 11.14
11/8/2021 2:45:00 PM 8.72 47.696 0.03 6.89 38.11 11.12
11/8/2021 3:00:00 PM 8.77 47.786 0.03 6.89 62.21 11.09
11/8/2021 3:15:00 PM 8.81 47.858 0.03 6.9 42.26 11.07
11/8/2021 3:30:00 PM 8.84 47.912 0.03 6.79 50.5 11.05
11/8/2021 3:45:00 PM 8.86 47.948 0.03 6.92 70.29 11.04
11/8/2021 4:00:00 PM 8.87 47.966 0.03 6.92 71.58 11.02
11/8/2021 4:15:00 PM 8.88 47.984 0.03 6.9 65.1 11
11/8/2021 4:30:00 PM 8.89 48.002 0.03 6.81 61.68 11
11/8/2021 4:45:00 PM 8.88 47.984 0.03 6.88 58.42 10.99
11/8/2021 5:00:00 PM 8.87 47.966 0.03 6.79 53.45 10.98
11/8/2021 5:15:00 PM 8.86 47.948 0.03 6.89 58.09 10.97
11/8/2021 5:30:00 PM 8.84 47.912 0.03 6.85 55.48 10.98
11/8/2021 5:45:00 PM 8.83 47.894 0.03 6.88 37.02 10.97
11/8/2021 6:00:00 PM 8.81 47.858 0.03 6.88 55.12 10.97
11/8/2021 6:15:00 PM 8.79 47.822 0.03 6.76 83.86 10.96
11/8/2021 6:30:00 PM 8.77 47.786 0.03 6.87 53.53 10.96
11/8/2021 6:45:00 PM 8.74 47.732 0.03 6.87 70.92 10.97
11/8/2021 7:00:00 PM 8.72 47.696 0.03 6.88 43.28 10.96
11/8/2021 7:15:00 PM 8.7 47.66 0.03 6.87 40.76 10.98
11/8/2021 7:30:00 PM 8.68 47.624 0.03 6.86 53.49 10.98
11/8/2021 7:45:00 PM 8.65 47.57 0.03 6.78 61.15 10.99
11/8/2021 8:00:00 PM 8.63 47.534 0.03 6.85 50.63 11
11/8/2021 8:15:00 PM 8.6 47.48 0.03 6.81 74.5 11.01
11/8/2021 8:30:00 PM 8.58 47.444 0.03 6.81 66.41 11.01
11/8/2021 8:45:00 PM 8.55 47.39 0.03 6.87 54.73 11.01
11/8/2021 9:00:00 PM 8.53 47.354 0.03 6.82 53.24 11.03
11/8/2021 9:15:00 PM 8.5 47.3 0.03 6.9 71.99 11.04
11/8/2021 9:30:00 PM 8.48 47.264 0.03 6.76 54.52 11.05
11/8/2021 9:45:00 PM 8.45 47.21 0.03 6.87 44.64 11.05
11/8/2021 10:00:00 PM 8.43 47.174 0.03 6.88 50.01 11.06
11/8/2021 10:15:00 PM 8.4 47.12 0.03 6.8 59.19 11.07
11/8/2021 10:30:00 PM 8.38 47.084 0.03 6.84 53.81 11.06
11/8/2021 10:45:00 PM 8.35 47.03 0.03 6.78 40.96 11.07
11/8/2021 11:00:00 PM 8.33 46.994 0.03 6.79 50.75 11.08
11/8/2021 11:15:00 PM 8.3 46.94 0.03 6.87 48.38 11.08
11/8/2021 11:30:00 PM 8.27 46.886 0.03 6.81 57.7 11.08
11/8/2021 11:45:00 PM 8.24 46.832 0.03 6.83 52 11.09
11/9/2021 12:00:00 AM 8.22 46.796 0.03 6.87 63.51 11.09
11/9/2021 12:15:00 AM 8.19 46.742 0.03 6.83 47.04 11.1
11/9/2021 12:30:00 AM 8.16 46.688 0.03 6.88 51.66 11.11
11/9/2021 12:45:00 AM 8.13 46.634 0.03 6.76 54.38 11.12
11/9/2021 1:00:00 AM 8.1 46.58 0.03 6.87 64.57 11.14
11/9/2021 1:15:00 AM 8.08 46.544 0.03 6.84 53.13 11.14
11/9/2021 1:30:00 AM 8.05 46.49 0.03 6.87 54.64 11.15
11/9/2021 1:45:00 AM 8.03 46.454 0.03 6.8 73.79 11.16
11/9/2021 2:00:00 AM 8 46.4 0.03 6.84 47.22 11.17
11/9/2021 2:15:00 AM 7.97 46.346 0.03 6.8 51.17 11.17
11/9/2021 2:30:00 AM 7.95 46.31 0.03 6.86 39.99 11.17
11/9/2021 2:45:00 AM 7.92 46.256 0.03 6.71 74.29 11.19
11/9/2021 3:00:00 AM 7.9 46.22 0.03 6.77 42.11 11.19
11/9/2021 3:15:00 AM 7.88 46.184 0.03 6.79 41.37 11.2
11/9/2021 3:30:00 AM 7.85 46.13 0.03 6.81 77.72 11.2
11/9/2021 3:45:00 AM 7.83 46.094 0.03 6.78 49.06 11.21
11/9/2021 4:00:00 AM 7.8 46.04 0.03 6.77 54.16 11.21
11/9/2021 4:15:00 AM 7.78 46.004 0.03 6.78 57.31 11.23
11/9/2021 4:30:00 AM 7.75 45.95 0.03 6.87 43.7 11.23
11/9/2021 4:45:00 AM 7.73 45.914 0.03 6.73 50.63 11.22
11/9/2021 5:00:00 AM 7.71 45.878 0.03 6.79 52.95 11.21
11/9/2021 5:15:00 AM 7.68 45.824 0.03 6.85 48.25 11.22
11/9/2021 5:30:00 AM 7.66 45.788 0.03 6.85 43.71 11.23
11/9/2021 5:45:00 AM 7.63 45.734 0.03 6.86 47.46 11.24
11/9/2021 6:00:00 AM 7.61 45.698 0.03 6.73 48.59 11.25
11/9/2021 6:15:00 AM 7.59 45.662 0.03 6.82 65.38 11.24
11/9/2021 6:30:00 AM 7.57 45.626 0.03 6.85 48.65 11.25
11/9/2021 6:45:00 AM 7.55 45.59 0.03 6.87 47.02 11.27
11/9/2021 7:00:00 AM 7.53 45.554 0.031 6.83 39.06 11.28
11/9/2021 7:15:00 AM 7.51 45.518 0.03 6.84 66.25 11.28
11/9/2021 7:30:00 AM 7.49 45.482 0.03 6.74 58.85 11.29
11/9/2021 7:45:00 AM 7.46 45.428 0.03 6.85 65.58 11.3
11/9/2021 8:00:00 AM 7.45 45.41 0.03 6.85 46.08 11.32
11/9/2021 8:15:00 AM 7.43 45.374 0.03 6.84 49.57 11.32
11/9/2021 8:30:00 AM 7.42 45.356 0.03 6.77 58.3 11.34
11/9/2021 8:45:00 AM 7.41 45.338 0.03 6.8 53.55 11.35
11/9/2021 9:00:00 AM 7.4 45.32 0.03 6.87 38.24 11.37
11/9/2021 9:15:00 AM 7.39 45.302 0.03 6.81 73.33 11.39
11/9/2021 9:30:00 AM 7.4 45.32 0.03 6.87 52.39 11.4
11/9/2021 9:45:00 AM 7.4 45.32 0.03 6.78 62.74 11.4
11/9/2021 10:00:00 AM 7.41 45.338 0.03 6.86 63.04 11.41
11/9/2021 10:15:00 AM 7.44 45.392 0.03 6.87 48.52 11.41
11/9/2021 10:30:00 AM 7.49 45.482 0.03 6.75 67.95 11.4
11/9/2021 10:45:00 AM 7.57 45.626 0.03 6.8 39.34 11.38
11/9/2021 11:00:00 AM 7.65 45.77 0.03 6.8 59.36 11.36
11/9/2021 11:15:00 AM 7.75 45.95 0.03 6.81 65.25 11.36
11/9/2021 11:30:00 AM 7.85 46.13 0.03 6.89 61.3 11.34
11/9/2021 11:45:00 AM 7.97 46.346 0.03 6.9 58.12 11.31
11/9/2021 12:00:00 PM 8.09 46.562 0.029 6.91 58.92 11.26
11/9/2021 12:15:00 PM 8.22 46.796 0.03 6.8 57.45 11.22
11/9/2021 12:30:00 PM 8.37 47.066 0.03 6.86 47.65 11.2
11/9/2021 12:45:00 PM 8.51 47.318 0.03 6.89 48.54 11.17
11/9/2021 1:00:00 PM 8.66 47.588 0.03 6.9 57.56 11.12
11/9/2021 1:15:00 PM 8.81 47.858 0.03 6.96 114.69 11.06
11/9/2021 1:30:00 PM 8.96 48.128 0.03 6.94 44.67 11.02
11/9/2021 1:45:00 PM 9.12 48.416 0.03 6.87 53.28 11
11/9/2021 2:00:00 PM 9.26 48.668 0.03 6.97 51.02 10.96
11/9/2021 2:15:00 PM 9.37 48.866 0.03 6.98 43.33 10.92
11/9/2021 2:30:00 PM 9.45 49.01 0.03 6.98 46.79 10.89
11/9/2021 2:45:00 PM 9.52 49.136 0.03 6.87 51.06 10.86
11/9/2021 3:00:00 PM 9.57 49.226 0.03 6.97 52.54 10.84
11/9/2021 3:15:00 PM 9.59 49.262 0.03 7.01 74.14 10.83
11/9/2021 3:30:00 PM 9.6 49.28 0.03 6.98 48.39 10.81
11/9/2021 3:45:00 PM 9.61 49.298 0.03 7 60.56 10.81
11/9/2021 4:00:00 PM 9.6 49.28 0.03 6.89 84.54 10.8
11/9/2021 4:15:00 PM 9.59 49.262 0.03 6.99 66.35 10.79
11/9/2021 4:30:00 PM 9.58 49.244 0.03 6.95 45.99 10.78
11/9/2021 4:45:00 PM 9.56 49.208 0.03 6.97 49.28 10.77
11/9/2021 5:00:00 PM 9.55 49.19 0.03 6.87 57.04 10.76
11/9/2021 5:15:00 PM 9.54 49.172 0.03 6.97 53.97 10.74
11/9/2021 5:30:00 PM 9.53 49.154 0.03 6.94 51.98 10.73
11/9/2021 5:45:00 PM 9.52 49.136 0.03 6.88 60.22 10.71
11/9/2021 6:00:00 PM 9.51 49.118 0.03 6.95 55.5 10.68
11/9/2021 6:15:00 PM 9.51 49.118 0.03 6.82 82.1 10.69
11/9/2021 6:30:00 PM 9.51 49.118 0.031 6.92 39.76 10.69
11/9/2021 6:45:00 PM 9.51 49.118 0.031 6.92 61.45 10.67
11/9/2021 7:00:00 PM 9.5 49.1 0.031 6.91 48.59 10.66
11/9/2021 7:15:00 PM 9.5 49.1 0.031 6.84 59.86 10.66
11/9/2021 7:30:00 PM 9.5 49.1 0.031 6.89 53.31 10.66
11/9/2021 7:45:00 PM 9.5 49.1 0.031 6.84 72.69 10.66
11/9/2021 8:00:00 PM 9.5 49.1 0.031 6.89 71.71 10.66
11/9/2021 8:15:00 PM 9.5 49.1 0.031 6.87 68.45 10.66
11/9/2021 8:30:00 PM 9.5 49.1 0.031 6.83 48.28 10.65
11/9/2021 8:45:00 PM 9.5 49.1 0.031 6.89 71.28 10.65
11/9/2021 9:00:00 PM 9.51 49.118 0.031 6.8 41.25 10.63
11/9/2021 9:15:00 PM 9.51 49.118 0.031 6.9 58.33 10.64
11/9/2021 9:30:00 PM 9.52 49.136 0.031 6.9 51.52 10.64
11/9/2021 9:45:00 PM 9.52 49.136 0.031 6.78 86.02 10.62
11/9/2021 10:00:00 PM 9.53 49.154 0.031 6.89 65.44 10.63
11/9/2021 10:15:00 PM 9.53 49.154 0.031 6.9 58.42 10.62
11/9/2021 10:30:00 PM 9.53 49.154 0.031 6.77 45.92 10.62
11/9/2021 10:45:00 PM 9.53 49.154 0.031 6.9 38.65 10.62
11/9/2021 11:00:00 PM 9.52 49.136 0.031 6.9 53.03 10.62
11/9/2021 11:15:00 PM 9.51 49.118 0.031 6.89 47.01 10.62
11/9/2021 11:30:00 PM 9.51 49.118 0.031 6.88 61.68 10.62
11/9/2021 11:45:00 PM 9.51 49.118 0.031 6.89 52.41 10.64
11/10/2021 12:00:00 AM 9.51 49.118 0.031 6.92 70.76 10.64
11/10/2021 12:15:00 AM 9.5 49.1 0.031 6.85 54.07 10.63
11/10/2021 12:30:00 AM 9.49 49.082 0.031 6.89 43.6 10.64
11/10/2021 12:45:00 AM 9.49 49.082 0.031 6.92 47.87 10.63
11/10/2021 1:00:00 AM 9.48 49.064 0.031 6.86 51.41 10.63
11/10/2021 1:15:00 AM 9.47 49.046 0.03 6.83 74.91 10.62
11/10/2021 1:30:00 AM 9.46 49.028 0.03 6.94 220.74 10.63
11/10/2021 1:45:00 AM 9.45 49.01 0.031 6.91 46.43 10.63
11/10/2021 2:00:00 AM 9.43 48.974 0.031 6.8 87.1 10.64
11/10/2021 2:15:00 AM 9.42 48.956 0.031 6.91 40.3 10.65
11/10/2021 2:30:00 AM 9.4 48.92 0.031 6.91 45.14 10.65
11/10/2021 2:45:00 AM 9.39 48.902 0.03 6.92 50.31 10.62
11/10/2021 3:00:00 AM 9.38 48.884 0.031 6.79 38.53 10.64
11/10/2021 3:15:00 AM 9.36 48.848 0.031 6.91 47.32 10.64
11/10/2021 3:30:00 AM 9.34 48.812 0.031 6.87 39.09 10.66
11/10/2021 3:45:00 AM 9.32 48.776 0.031 6.84 49.11 10.67
11/10/2021 4:00:00 AM 9.29 48.722 0.029 6.91 57.36 10.68
11/10/2021 4:15:00 AM 9.27 48.686 0.031 6.91 90.8 10.68
11/10/2021 4:30:00 AM 9.25 48.65 0.031 6.92 42.61 10.68
11/10/2021 4:45:00 AM 9.24 48.632 0.031 6.8 59.13 10.68
11/10/2021 5:00:00 AM 9.22 48.596 0.031 6.93 52.5 10.71
11/10/2021 5:15:00 AM 9.21 48.578 0.031 6.92 40.05 10.71
11/10/2021 5:30:00 AM 9.19 48.542 0.031 6.9 46.57 10.72
11/10/2021 5:45:00 AM 9.17 48.506 0.031 6.84 48.79 10.71
11/10/2021 6:00:00 AM 9.15 48.47 0.031 6.89 51.82 10.71
11/10/2021 6:15:00 AM 9.13 48.434 0.031 6.88 64.17 10.71
11/10/2021 6:30:00 AM 9.13 48.434 0.031 6.83 43.75 10.73
11/10/2021 6:45:00 AM 9.13 48.434 0.031 6.87 59.34 10.73
11/10/2021 7:00:00 AM 9.13 48.434 0.031 6.81 59.61 10.75
11/10/2021 7:15:00 AM 9.14 48.452 0.031 6.84 49.66 10.73
11/10/2021 7:30:00 AM 9.15 48.47 0.031 6.85 49.96 10.73
11/10/2021 7:45:00 AM 9.17 48.506 0.031 6.93 68.86 10.72
11/10/2021 8:00:00 AM 9.19 48.542 0.031 6.9 57.9 10.72
11/10/2021 8:15:00 AM 9.21 48.578 0.021 6.88 65.98 10.73
11/10/2021 8:30:00 AM 9.23 48.614 0.031 6.94 43.04 10.73
11/10/2021 8:45:00 AM 9.26 48.668 0.031 6.91 63.98 10.74
11/10/2021 9:00:00 AM 9.28 48.704 0.031 6.87 67.66 10.78
11/10/2021 9:15:00 AM 9.29 48.722 0.031 6.95 80.61 10.77
11/10/2021 9:30:00 AM 9.31 48.758 0.029 6.87 67.01 10.79
11/10/2021 9:45:00 AM 9.34 48.812 0.031 6.99 52.12 10.78
11/10/2021 10:00:00 AM 9.37 48.866 0.03 6.95 56.41 10.77
11/10/2021 10:15:00 AM 9.39 48.902 0.03 6.98 50.22 10.78
11/10/2021 10:30:00 AM 9.41 48.938 0.03 6.89 72.69 10.77
11/10/2021 10:45:00 AM 9.43 48.974 0.03 6.98 49.84 10.77
11/10/2021 11:00:00 AM 9.46 49.028 0.03 6.96 37.35 10.78
11/10/2021 11:15:00 AM 9.49 49.082 0.03 6.88 51.96 10.79
11/10/2021 11:30:00 AM 9.53 49.154 0.03 6.99 54.77 10.78
11/10/2021 11:45:00 AM 9.58 49.244 0.03 6.87 45.12 10.78
11/10/2021 12:00:00 PM 9.64 49.352 0.03 7.01 80.96 10.78
11/10/2021 12:15:00 PM 9.69 49.442 0.03 6.94 56.88 10.77
11/10/2021 12:30:00 PM 9.76 49.568 0.03 6.91 61.66 10.76
11/10/2021 12:45:00 PM 9.83 49.694 0.029 6.87 42.52 10.76
11/10/2021 1:00:00 PM 9.9 49.82 0.03 6.91 77.43 10.73
11/10/2021 1:15:00 PM 9.97 49.946 0.03 7 85.26 10.71
11/10/2021 1:30:00 PM 10.05 50.09 0.03 7.01 41.35 10.68
11/10/2021 1:45:00 PM 10.11 50.198 0.03 6.89 64.12 10.66
11/10/2021 2:00:00 PM 10.17 50.306 0.03 6.97 92.3 10.62
11/10/2021 2:15:00 PM 10.22 50.396 0.03 7 81.98 10.6
11/10/2021 2:30:00 PM 10.24 50.432 0.03 6.99 57.6 10.59
11/10/2021 2:45:00 PM 10.26 50.468 0.03 6.91 67.64 10.58
11/10/2021 3:00:00 PM 10.26 50.468 0.03 6.97 65.16 10.57
11/10/2021 3:15:00 PM 10.25 50.45 0.03 7.03 47.89 10.57
11/10/2021 3:30:00 PM 10.22 50.396 0.03 6.97 62.94 10.57
11/10/2021 3:45:00 PM 10.2 50.36 0.03 7 40.73 10.56
11/10/2021 4:00:00 PM 10.17 50.306 0.03 6.99 64.12 10.55
11/10/2021 4:15:00 PM 10.14 50.252 0.031 6.89 51.45 10.56
11/10/2021 4:30:00 PM 10.11 50.198 0.031 7.02 47.75 10.56
11/10/2021 4:45:00 PM 10.09 50.162 0.031 6.89 54.57 10.55
11/10/2021 5:00:00 PM 10.06 50.108 0.031 6.96 55.8 10.57
11/10/2021 5:15:00 PM 10.01 50.018 0.031 6.97 71.55 10.57
11/10/2021 5:30:00 PM 9.97 49.946 0.031 6.99 48.39 10.56
11/10/2021 5:45:00 PM 9.93 49.874 0.031 6.9 48.27 10.57
11/10/2021 6:00:00 PM 9.88 49.784 0.031 6.92 38.57 10.57
11/10/2021 6:15:00 PM 9.83 49.694 0.031 6.9 53.3 10.57
11/10/2021 6:30:00 PM 9.77 49.586 0.031 6.87 53.2 10.59
11/10/2021 6:45:00 PM 9.72 49.496 0.031 6.89 63.26 10.59
11/10/2021 7:00:00 PM 9.65 49.37 0.031 6.98 52.5 10.6
11/10/2021 7:15:00 PM 9.59 49.262 0.031 6.86 44.16 10.61
11/10/2021 7:30:00 PM 9.54 49.172 0.031 6.97 58.93 10.62
11/10/2021 7:45:00 PM 9.48 49.064 0.031 6.97 68.32 10.64
11/10/2021 8:00:00 PM 9.42 48.956 0.031 6.95 56.59 10.65
11/10/2021 8:15:00 PM 9.37 48.866 0.031 6.97 68.67 10.68
11/10/2021 8:30:00 PM 9.32 48.776 0.031 6.97 67.42 10.7
11/10/2021 8:45:00 PM 9.28 48.704 0.031 6.9 66.42 10.7
11/10/2021 9:00:00 PM 9.23 48.614 0.031 6.9 99.31 10.72
11/10/2021 9:15:00 PM 9.18 48.524 0.031 6.88 62.9 10.74
11/10/2021 9:30:00 PM 9.14 48.452 0.031 6.89 58.94 10.76
11/10/2021 9:45:00 PM 9.09 48.362 0.031 6.97 61.31 10.76
11/10/2021 10:00:00 PM 9.04 48.272 0.031 6.96 55.72 10.78
11/10/2021 10:15:00 PM 8.99 48.182 0.031 6.88 52.16 10.78
11/10/2021 10:30:00 PM 8.94 48.092 0.031 6.88 62.08 10.8
11/10/2021 10:45:00 PM 8.89 48.002 0.031 6.89 91.29 10.8
11/10/2021 11:00:00 PM 8.84 47.912 0.031 6.96 54.27 10.81
11/10/2021 11:15:00 PM 8.8 47.84 0.031 6.96 46.48 10.83
11/10/2021 11:30:00 PM 8.75 47.75 0.031 6.91 58.12 10.84
11/10/2021 11:45:00 PM 8.71 47.678 0.031 6.97 55.21 10.86
11/11/2021 12:00:00 AM 8.66 47.588 0.031 6.96 45.66 10.87
11/11/2021 12:15:00 AM 8.61 47.498 0.031 6.87 49.77 10.9
11/11/2021 12:30:00 AM 8.56 47.408 0.031 6.89 53.83 10.91
11/11/2021 12:45:00 AM 8.51 47.318 0.031 6.95 50.74 10.93
11/11/2021 1:00:00 AM 8.46 47.228 0.031 6.87 56.62 10.94
11/11/2021 1:15:00 AM 8.41 47.138 0.031 6.98 56.97 10.95
11/11/2021 1:30:00 AM 8.36 47.048 0.031 6.97 49.78 10.95
11/11/2021 1:45:00 AM 8.32 46.976 0.031 6.86 86.19 10.95
11/11/2021 2:00:00 AM 8.26 46.868 0.031 6.94 66.48 10.96
11/11/2021 2:15:00 AM 8.22 46.796 0.031 6.97 38.07 10.98
11/11/2021 2:30:00 AM 8.17 46.706 0.031 6.96 55.56 10.99
11/11/2021 2:45:00 AM 8.12 46.616 0.031 6.88 46.29 11
11/11/2021 3:00:00 AM 8.08 46.544 0.031 6.89 111.43 11.02
11/11/2021 3:15:00 AM 8.04 46.472 0.031 6.97 88.21 11.02
11/11/2021 3:30:00 AM 8.01 46.418 0.031 6.86 64.75 11.04
11/11/2021 3:45:00 AM 7.99 46.382 0.031 6.89 48.31 11.06
11/11/2021 4:00:00 AM 7.96 46.328 0.031 6.98 58.97 11.05
11/11/2021 4:15:00 AM 7.94 46.292 0.031 6.85 50.75 11.08
11/11/2021 4:30:00 AM 7.91 46.238 0.031 6.89 123.78 11.07
11/11/2021 4:45:00 AM 7.88 46.184 0.031 6.99 63.22 11.08
11/11/2021 5:00:00 AM 7.86 46.148 0.031 6.9 65.14 11.09
11/11/2021 5:15:00 AM 7.85 46.13 0.031 6.94 59.43 11.09
11/11/2021 5:30:00 AM 7.82 46.076 0.031 6.87 66.37 11.11
11/11/2021 5:45:00 AM 7.79 46.022 0.031 6.9 67.82 11.11
11/11/2021 6:00:00 AM 7.77 45.986 0.031 6.95 50.53 11.12
11/11/2021 6:15:00 AM 7.74 45.932 0.031 6.96 63.5 11.11
11/11/2021 6:30:00 AM 7.73 45.914 0.031 6.83 39.72 11.12
11/11/2021 6:45:00 AM 7.7 45.86 0.031 6.88 216.01 11.12
11/11/2021 7:00:00 AM 7.67 45.806 0.031 6.86 48.21 11.11
11/11/2021 7:15:00 AM 7.65 45.77 0.031 6.86 53.54 11.13
11/11/2021 7:30:00 AM 7.62 45.716 0.031 6.86 78.74 11.13
11/11/2021 7:45:00 AM 7.6 45.68 0.031 6.91 53.76 11.15
11/11/2021 8:00:00 AM 7.57 45.626 0.031 6.93 47.75 11.15
11/11/2021 8:15:00 AM 7.54 45.572 0.031 6.85 49.79 11.17
11/11/2021 8:30:00 AM 7.52 45.536 0.031 6.88 53.81 11.21
11/11/2021 8:45:00 AM 7.5 45.5 0.031 6.9 82.09 11.23
11/11/2021 9:00:00 AM 7.48 45.464 0.031 6.89 67.12 11.24
11/11/2021 9:15:00 AM 7.47 45.446 0.031 6.91 60.77 11.27
11/11/2021 9:30:00 AM 7.46 45.428 0.027 6.9 68.09 11.28
11/11/2021 9:45:00 AM 7.46 45.428 0.031 6.95 85.25 11.29
11/11/2021 10:00:00 AM 7.46 45.428 0.031 6.98 135.22 11.28
11/11/2021 10:15:00 AM 7.49 45.482 0.031 6.97 38.32 11.31
11/11/2021 10:30:00 AM 7.53 45.554 0.031 6.98 36.15 11.31
11/11/2021 10:45:00 AM 7.61 45.698 0.031 7.01 54.43 11.3
11/11/2021 11:00:00 AM 7.7 45.86 0.031 6.92 47.18 11.29
11/11/2021 11:15:00 AM 7.77 45.986 0.031 7.03 49.71 11.27
11/11/2021 11:30:00 AM 7.85 46.13 0.03 6.92 71.04 11.25
11/11/2021 11:45:00 AM 7.94 46.292 0.03 7.03 50.09 11.24
11/11/2021 12:00:00 PM 8.01 46.418 0.03 7 62.73 11.23
11/11/2021 12:15:00 PM 8.1 46.58 0.03 6.93 97.84 11.17
11/11/2021 12:30:00 PM 8.18 46.724 0.03 6.96 47.61 11.15
11/11/2021 12:45:00 PM 8.27 46.886 0.03 7.03 43.18 11.11
11/11/2021 1:00:00 PM 8.35 47.03 0.03 6.93 53.37 11.1
11/11/2021 1:15:00 PM 8.43 47.174 0.03 6.96 71.16 11.07
11/11/2021 1:30:00 PM 8.5 47.3 0.03 7.05 50.31 11.05
11/11/2021 1:45:00 PM 8.56 47.408 0.03 6.96 70.38 11.03
11/11/2021 2:00:00 PM 8.62 47.516 0.03 6.96 56.57 11.02
11/11/2021 2:15:00 PM 8.69 47.642 0.03 6.95 58.59 10.99
11/11/2021 2:30:00 PM 8.74 47.732 0.031 7.03 87.44 10.97
11/11/2021 2:45:00 PM 8.78 47.804 0.03 6.97 51.09 10.95
11/11/2021 3:00:00 PM 8.83 47.894 0.031 7.05 63.46 10.92
11/11/2021 3:15:00 PM 8.86 47.948 0.031 6.96 46.03 10.91
11/11/2021 3:30:00 PM 8.91 48.038 0.031 6.96 73.07 10.88
11/11/2021 3:45:00 PM 8.94 48.092 0.031 6.94 69.1 10.87
11/11/2021 4:00:00 PM 8.97 48.146 0.031 6.93 79.23 10.86
11/11/2021 4:15:00 PM 8.99 48.182 0.031 6.94 65 10.84
11/11/2021 4:30:00 PM 9.01 48.218 0.027 6.91 51.19 10.83
11/11/2021 4:45:00 PM 9.02 48.236 0.031 7.01 44.72 10.82
11/11/2021 5:00:00 PM 9.02 48.236 0.031 6.92 56.39 10.8
11/11/2021 5:15:00 PM 9.01 48.218 0.031 7.03 68.08 10.78
11/11/2021 5:30:00 PM 9.01 48.218 0.031 6.86 86.21 10.76
11/11/2021 5:45:00 PM 9 48.2 0.028 7.01 61.03 10.74
11/11/2021 6:00:00 PM 9 48.2 0.031 6.89 49.6 10.7
11/11/2021 6:15:00 PM 8.99 48.182 0.031 7 39.54 10.7
11/11/2021 6:30:00 PM 9 48.2 0.031 6.85 47.53 10.69
11/11/2021 6:45:00 PM 9 48.2 0.031 6.85 57.49 10.68
11/11/2021 7:00:00 PM 9 48.2 0.031 6.96 54.48 10.69
11/11/2021 7:15:00 PM 9 48.2 0.031 6.88 56.18 10.66
11/11/2021 7:30:00 PM 9.01 48.218 0.031 6.88 71.83 10.67
11/11/2021 7:45:00 PM 9.05 48.29 0.032 6.69 55.5 10.62
11/11/2021 8:00:00 PM 9.06 48.308 0.032 6.65 64.61 10.64
11/11/2021 8:15:00 PM 9.07 48.326 0.032 6.64 65.99 10.57
11/11/2021 8:30:00 PM 9.05 48.29 0.031 6.81 65.28 10.67
11/11/2021 8:45:00 PM 9.05 48.29 0.031 6.93 61.7 10.67
11/11/2021 9:00:00 PM 9.07 48.326 0.031 6.92 58.56 10.66
11/11/2021 9:15:00 PM 9.08 48.344 0.031 6.85 63 10.65
11/11/2021 9:30:00 PM 9.1 48.38 0.031 6.97 54.91 10.64
11/11/2021 9:45:00 PM 9.13 48.434 0.031 6.78 53.11 10.62
11/11/2021 10:00:00 PM 9.15 48.47 0.031 6.86 64.91 10.62
11/11/2021 10:15:00 PM 9.19 48.542 0.031 6.91 60.25 10.61
11/11/2021 10:30:00 PM 9.2 48.56 0.031 6.85 68.18 10.6
11/11/2021 10:45:00 PM 9.23 48.614 0.031 6.93 71.01 10.59
11/11/2021 11:00:00 PM 9.24 48.632 0.031 6.87 56.58 10.59
11/11/2021 11:15:00 PM 9.27 48.686 0.031 6.89 61.15 10.57
11/11/2021 11:30:00 PM 9.3 48.74 0.031 6.84 33.42 10.57
11/11/2021 11:45:00 PM 9.32 48.776 0.031 6.89 52.47 10.56
11/12/2021 12:00:00 AM 9.33 48.794 0.031 6.87 69.6 10.54
11/12/2021 12:15:00 AM 9.36 48.848 0.031 6.94 55.4 10.53
11/12/2021 12:30:00 AM 9.39 48.902 0.031 6.92 47.38 10.51
11/12/2021 12:45:00 AM 9.43 48.974 0.031 6.9 51.79 10.49
11/12/2021 1:00:00 AM 9.45 49.01 0.031 6.98 49.39 10.49
11/12/2021 1:15:00 AM 9.47 49.046 0.031 6.89 46.61 10.48
11/12/2021 1:30:00 AM 9.49 49.082 0.031 6.9 44.64 10.47
11/12/2021 1:45:00 AM 9.51 49.118 0.031 6.94 36.18 10.46
11/12/2021 2:00:00 AM 9.53 49.154 0.031 6.97 48.09 10.47
11/12/2021 2:15:00 AM 9.55 49.19 0.031 6.96 56.29 10.43
11/12/2021 2:30:00 AM 9.57 49.226 0.031 6.9 61.09 10.44
11/12/2021 2:45:00 AM 9.59 49.262 0.031 6.87 45.85 10.44
11/12/2021 3:00:00 AM 9.61 49.298 0.031 6.92 56.8 10.44
11/12/2021 3:15:00 AM 9.62 49.316 0.024 6.95 59.16 10.42
11/12/2021 3:30:00 AM 9.64 49.352 0.031 6.86 67.03 10.41
11/12/2021 3:45:00 AM 9.68 49.424 0.031 6.94 51.5 10.4
11/12/2021 4:00:00 AM 9.73 49.514 0.031 6.9 43.48 10.39
11/12/2021 4:15:00 AM 9.77 49.586 0.031 6.86 50.18 10.4
11/12/2021 4:30:00 AM 9.82 49.676 0.03 6.91 78.19 10.39
11/12/2021 4:45:00 AM 9.88 49.784 0.03 6.9 140.58 10.36
11/12/2021 5:00:00 AM 9.92 49.856 0.03 6.86 102.3 10.33
11/12/2021 5:15:00 AM 9.99 49.982 0.031 6.86 76.55 10.3
11/12/2021 5:30:00 AM 10.08 50.144 0.033 6.89 150.71 10.26
11/12/2021 5:45:00 AM 10.21 50.378 0.032 6.94 71.89 10.23
11/12/2021 6:00:00 AM 10.31 50.558 0.031 6.97 84.97 10.23
11/12/2021 6:15:00 AM 10.43 50.774 0.031 6.91 135.65 10.14
11/12/2021 6:30:00 AM 10.47 50.846 0.031 6.92 347.06 10.15
11/12/2021 6:45:00 AM 10.44 50.792 0.031 6.85 360.47 10.25
11/12/2021 7:00:00 AM 10.4 50.72 0.032 6.97 125.88 10.17
11/12/2021 7:15:00 AM 10.35 50.63 0.033 7.02 191.7 10.2
11/12/2021 7:30:00 AM 10.29 50.522 0.029 6.87 2749.67 10.26
11/12/2021 7:45:00 AM 10.24 50.432 0.027 6.89 3504.72 10.18
11/12/2021 8:00:00 AM 10.21 50.378 0.025 6.9 856.6 10.22
11/12/2021 8:15:00 AM 10.21 50.378 0.022 6.78 947.68 10.23
11/12/2021 8:30:00 AM 10.22 50.396 0.022 6.78 829.05 10.26
11/12/2021 8:45:00 AM 10.22 50.396 0.022 6.9 756.09 10.21
11/12/2021 9:00:00 AM 10.22 50.396 0.022 6.88 687.56 10
11/12/2021 9:15:00 AM 10.21 50.378 0.021 6.77 612.99 9.99
11/12/2021 9:30:00 AM 10.21 50.378 0.021 6.8 583.84 10.06
11/12/2021 9:45:00 AM 10.21 50.378 0.021 6.9 584.24 10.2
11/12/2021 10:00:00 AM 10.2 50.36 0.021 6.82 564.08 10.1
11/12/2021 10:15:00 AM 10.19 50.342 0.021 6.84 548.29 10.13
11/12/2021 10:30:00 AM 10.18 50.324 0.021 6.72 536.47 10.25
11/12/2021 10:45:00 AM 10.18 50.324 0.021 6.71 534.47 10.25
11/12/2021 11:00:00 AM 10.18 50.324 0.021 6.79 551.2 10.27
11/12/2021 11:15:00 AM 10.19 50.342 0.021 6.91 564.55 10.19
11/12/2021 11:30:00 AM 10.21 50.378 0.021 6.82 554.67 10.08
11/12/2021 11:45:00 AM 10.23 50.414 0.021 6.87 742.85 9.96
11/12/2021 12:00:00 PM 10.23 50.414 0.021 6.84 637.79 9.99
11/12/2021 12:15:00 PM 10.23 50.414 0.021 6.82 654.45 10.02
11/12/2021 12:30:00 PM 10.24 50.432 0.021 6.96 649.43 10.08
11/12/2021 12:45:00 PM 10.27 50.486 0.021 6.83 672.96 10.02
11/12/2021 1:00:00 PM 10.31 50.558 0.021 6.85 717.77 10.07
11/12/2021 1:15:00 PM 10.33 50.594 0.021 6.84 626.21 10.05
11/12/2021 1:30:00 PM 10.36 50.648 0.021 6.87 630.36 10.09
11/12/2021 1:45:00 PM 10.39 50.702 0.021 6.87 609.5 10.01
11/12/2021 2:00:00 PM 10.4 50.72 0.021 6.87 614.32 10.01
11/12/2021 2:15:00 PM 10.39 50.702 0.021 6.83 607.36 10.01
11/12/2021 2:30:00 PM 10.38 50.684 0.02 6.8 605.37 10.06
11/12/2021 2:45:00 PM 10.38 50.684 0.021 6.86 607.37 10.05
11/12/2021 3:00:00 PM 10.37 50.666 0.02 6.89 615.78 10.03
11/12/2021 3:15:00 PM 10.35 50.63 0.021 6.85 655.04 10.06
11/12/2021 3:30:00 PM 10.33 50.594 0.02 6.88 646.49 10.04
11/12/2021 3:45:00 PM 10.32 50.576 0.02 6.8 649.52 10.06
11/12/2021 4:00:00 PM 10.29 50.522 0.02 6.82 639.64 10.06
11/12/2021 4:15:00 PM 10.26 50.468 0.02 6.9 668.19 10.08
11/12/2021 4:30:00 PM 10.22 50.396 0.02 6.93 639.45 10.03
11/12/2021 4:45:00 PM 10.19 50.342 0.02 6.89 607.7 10.1
11/12/2021 5:00:00 PM 10.15 50.27 0.02 6.78 852.72 10.08
11/12/2021 5:15:00 PM 10.1 50.18 0.02 6.88 832.07 10.12
11/12/2021 5:30:00 PM 10.05 50.09 0.02 6.82 800.51 10.16
11/12/2021 5:45:00 PM 9.99 49.982 0.02 6.85 739.09 10.16
11/12/2021 6:00:00 PM 9.94 49.892 0.02 6.77 722.02 10.21
11/12/2021 6:15:00 PM 9.88 49.784 0.02 6.8 949.75 10.19
11/12/2021 6:30:00 PM 9.84 49.712 0.02 6.84 807.35 10.2
11/12/2021 6:45:00 PM 9.78 49.604 0.02 6.85 646.23 10.22
11/12/2021 7:00:00 PM 9.72 49.496 0.02 6.84 708.82 10.29
11/12/2021 7:15:00 PM 9.65 49.37 0.02 6.85 751.28 10.28
11/12/2021 7:30:00 PM 9.59 49.262 0.02 6.85 729.02 10.29
11/12/2021 7:45:00 PM 9.52 49.136 0.02 6.85 649.11 10.33
11/12/2021 8:00:00 PM 9.46 49.028 0.02 6.87 680.98 10.33
11/12/2021 8:15:00 PM 9.41 48.938 0.02 6.83 617.07 10.28
11/12/2021 8:30:00 PM 9.35 48.83 0.02 6.86 435.65 10.32
11/12/2021 8:45:00 PM 9.29 48.722 0.02 6.85 452.24 10.41
11/12/2021 9:00:00 PM 9.24 48.632 0.02 6.75 458.96 10.43
11/12/2021 9:15:00 PM 9.18 48.524 0.02 6.87 424.09 10.41
11/12/2021 9:30:00 PM 9.12 48.416 0.02 6.83 364.41 10.46
11/12/2021 9:45:00 PM 9.08 48.344 0.02 6.84 358.74 10.45
11/12/2021 10:00:00 PM 9.03 48.254 0.02 6.84 365.47 10.49
11/12/2021 10:15:00 PM 8.99 48.182 0.02 6.84 350.34 10.49
11/12/2021 10:30:00 PM 8.94 48.092 0.02 6.79 336.21 10.49
11/12/2021 10:45:00 PM 8.89 48.002 0.02 6.83 323.92 10.47
11/12/2021 11:00:00 PM 8.83 47.894 0.02 6.85 309.61 10.5
11/12/2021 11:15:00 PM 8.77 47.786 0.02 6.81 287.04 10.51
11/12/2021 11:30:00 PM 8.72 47.696 0.02 6.83 401.43 10.59
11/12/2021 11:45:00 PM 8.68 47.624 0.02 6.85 415.6 10.61
11/13/2021 12:00:00 AM 8.64 47.552 0.02 6.84 397.31 10.54
11/13/2021 12:15:00 AM 8.59 47.462 0.02 6.84 448.08 10.58
11/13/2021 12:30:00 AM 8.54 47.372 0.02 6.86 572.88 10.59
11/13/2021 12:45:00 AM 8.5 47.3 0.02 6.86 845.92 10.62
11/13/2021 1:00:00 AM 8.47 47.246 0.02 6.85 782.87 10.64
11/13/2021 1:15:00 AM 8.44 47.192 0.02 6.84 809.6 10.67
11/13/2021 1:30:00 AM 8.41 47.138 0.02 6.82 729.84 10.67
11/13/2021 1:45:00 AM 8.38 47.084 0.019 6.8 747.16 10.67
11/13/2021 2:00:00 AM 8.34 47.012 0.019 6.78 714.38 10.64
11/13/2021 2:15:00 AM 8.32 46.976 0.019 6.76 739.88 10.63
11/13/2021 2:30:00 AM 8.29 46.922 0.019 6.82 740.2 10.63
11/13/2021 2:45:00 AM 8.29 46.922 0.019 6.83 715.95 10.67
11/13/2021 3:00:00 AM 8.28 46.904 0.019 6.82 723.92 10.64
11/13/2021 3:15:00 AM 8.27 46.886 0.019 6.84 914.92 10.67
11/13/2021 3:30:00 AM 8.25 46.85 0.019 6.82 841.17 10.66
11/13/2021 3:45:00 AM 8.24 46.832 0.019 6.86 769.12 10.67
11/13/2021 4:00:00 AM 8.23 46.814 0.019 6.72 750.57 10.69
11/13/2021 4:15:00 AM 8.22 46.796 0.019 6.85 727.36 10.68
11/13/2021 4:30:00 AM 8.23 46.814 0.019 6.84 723.58 10.66
11/13/2021 4:45:00 AM 8.24 46.832 0.019 6.85 720.79 10.67
11/13/2021 5:00:00 AM 8.24 46.832 0.019 6.72 705.16 10.69
11/13/2021 5:15:00 AM 8.24 46.832 0.019 6.85 703.14 10.68
11/13/2021 5:30:00 AM 8.24 46.832 0.019 6.86 686.32 10.68
11/13/2021 5:45:00 AM 8.23 46.814 0.019 6.85 686.61 10.68
11/13/2021 6:00:00 AM 8.24 46.832 0.019 6.81 671.84 10.66
11/13/2021 6:15:00 AM 8.25 46.85 0.019 6.81 668.08 10.67
11/13/2021 6:30:00 AM 8.26 46.868 0.019 6.73 664.23 10.66
11/13/2021 6:45:00 AM 8.27 46.886 0.019 6.84 655.24 10.66
11/13/2021 7:00:00 AM 8.27 46.886 0.019 6.73 654.37 10.64
11/13/2021 7:15:00 AM 8.28 46.904 0.019 6.85 647.14 10.67
11/13/2021 7:30:00 AM 8.28 46.904 0.019 6.77 651.39 10.66
11/13/2021 7:45:00 AM 8.28 46.904 0.019 6.86 654.08 10.65
11/13/2021 8:00:00 AM 8.29 46.922 0.019 6.87 653.09 10.66
11/13/2021 8:15:00 AM 8.3 46.94 0.019 6.86 642.03 10.69
11/13/2021 8:30:00 AM 8.31 46.958 0.019 6.82 634.4 10.7
11/13/2021 8:45:00 AM 8.32 46.976 0.019 6.86 622.54 10.71
11/13/2021 9:00:00 AM 8.34 47.012 0.019 6.88 622.95 10.73
11/13/2021 9:15:00 AM 8.36 47.048 0.019 6.76 639.78 10.72
11/13/2021 9:30:00 AM 8.38 47.084 0.019 6.77 652.56 10.71
11/13/2021 9:45:00 AM 8.4 47.12 0.019 6.82 662.76 10.69
11/13/2021 10:00:00 AM 8.43 47.174 0.019 6.84 672.81 10.68
11/13/2021 10:15:00 AM 8.45 47.21 0.019 6.85 676.15 10.66
11/13/2021 10:30:00 AM 8.47 47.246 0.019 6.79 688.91 10.61
11/13/2021 10:45:00 AM 8.49 47.282 0.019 6.8 698.05 10.62
11/13/2021 11:00:00 AM 8.5 47.3 0.019 6.79 706.36 10.69
11/13/2021 11:15:00 AM 8.52 47.336 0.019 6.9 712.74 10.65
11/13/2021 11:30:00 AM 8.54 47.372 0.019 6.93 712.49 10.61
11/13/2021 11:45:00 AM 8.55 47.39 0.019 6.87 705.59 10.6
11/13/2021 12:00:00 PM 8.57 47.426 0.019 6.92 694.16 10.61
11/13/2021 12:15:00 PM 8.57 47.426 0.019 6.79 708.38 10.6
11/13/2021 12:30:00 PM 8.56 47.408 0.019 6.84 710.98 10.59
11/13/2021 12:45:00 PM 8.55 47.39 0.019 6.93 722.32 10.62
11/13/2021 1:00:00 PM 8.55 47.39 0.019 6.89 719.2 10.59
11/13/2021 1:15:00 PM 8.55 47.39 0.019 6.85 697.3 10.66
11/13/2021 1:30:00 PM 8.54 47.372 0.019 6.81 700.25 10.66
11/13/2021 1:45:00 PM 8.53 47.354 0.019 6.87 731.48 10.65
11/13/2021 2:00:00 PM 8.51 47.318 0.019 6.83 728.06 10.69
11/13/2021 2:15:00 PM 8.5 47.3 0.019 6.74 745.02 10.7
11/13/2021 2:30:00 PM 8.51 47.318 0.019 6.88 718.48 10.7
11/13/2021 2:45:00 PM 8.52 47.336 0.019 6.92 714.98 10.68
11/13/2021 3:00:00 PM 8.52 47.336 0.019 6.89 711.63 10.68
11/13/2021 3:15:00 PM 8.51 47.318 0.019 6.94 710.38 10.68
11/13/2021 3:30:00 PM 8.5 47.3 0.018 6.91 701.71 10.69
11/13/2021 3:45:00 PM 8.48 47.264 0.018 6.91 700.49 10.69
11/13/2021 4:00:00 PM 8.45 47.21 0.018 6.89 698.57 10.69
11/13/2021 4:15:00 PM 8.42 47.156 0.018 6.93 687.82 10.7
11/13/2021 4:30:00 PM 8.41 47.138 0.018 6.9 686.05 10.68
11/13/2021 4:45:00 PM 8.4 47.12 0.018 6.89 703.21 10.68
11/13/2021 5:00:00 PM 8.38 47.084 0.018 6.75 701.86 10.69
11/13/2021 5:15:00 PM 8.34 47.012 0.018 6.9 703.82 10.68
11/13/2021 5:30:00 PM 8.32 46.976 0.018 6.87 705.49 10.67
11/13/2021 5:45:00 PM 8.3 46.94 0.018 6.89 704.67 10.7
11/13/2021 6:00:00 PM 8.28 46.904 0.019 6.89 698.38 10.68
11/13/2021 6:15:00 PM 8.26 46.868 0.019 6.9 697.45 10.66
11/13/2021 6:30:00 PM 8.24 46.832 0.019 6.88 689.1 10.66
11/13/2021 6:45:00 PM 8.23 46.814 0.019 6.91 696.67 10.66
11/13/2021 7:00:00 PM 8.22 46.796 0.019 6.87 684.07 10.67
11/13/2021 7:15:00 PM 8.2 46.76 0.018 6.92 680.15 10.67
11/13/2021 7:30:00 PM 8.19 46.742 0.019 6.87 672.9 10.66
11/13/2021 7:45:00 PM 8.17 46.706 0.019 6.82 671.24 10.68
11/13/2021 8:00:00 PM 8.16 46.688 0.019 6.88 660.34 10.66
11/13/2021 8:15:00 PM 8.14 46.652 0.019 6.88 655.17 10.69
11/13/2021 8:30:00 PM 8.12 46.616 0.018 6.86 659.87 10.69
11/13/2021 8:45:00 PM 8.1 46.58 0.018 6.9 657.78 10.7
11/13/2021 9:00:00 PM 8.09 46.562 0.018 6.79 658.63 10.67
11/13/2021 9:15:00 PM 8.07 46.526 0.018 6.92 658.13 10.68
11/13/2021 9:30:00 PM 8.06 46.508 0.018 6.88 658.07 10.69
11/13/2021 9:45:00 PM 8.04 46.472 0.019 6.87 655.87 10.69
11/13/2021 10:00:00 PM 8.04 46.472 0.018 6.78 657.42 10.69
11/13/2021 10:15:00 PM 8.03 46.454 0.018 6.89 652.4 10.73
11/13/2021 10:30:00 PM 8.02 46.436 0.018 6.84 666.88 10.74
11/13/2021 10:45:00 PM 8.01 46.418 0.018 6.87 676.87 10.74
11/13/2021 11:00:00 PM 8 46.4 0.018 6.87 671.13 10.75
11/13/2021 11:15:00 PM 7.99 46.382 0.018 6.84 659.13 10.76
11/13/2021 11:30:00 PM 7.99 46.382 0.018 6.85 661.67 10.75
11/13/2021 11:45:00 PM 7.98 46.364 0.018 6.84 657.99 10.75
11/14/2021 12:00:00 AM 7.96 46.328 0.018 6.8 666.55 10.73
11/14/2021 12:15:00 AM 7.94 46.292 0.018 6.85 671.5 10.75
11/14/2021 12:30:00 AM 7.93 46.274 0.018 6.69 689.06 10.76
11/14/2021 12:45:00 AM 7.93 46.274 0.018 6.68 769.26 10.75
11/14/2021 1:00:00 AM 7.92 46.256 0.018 6.85 779.69 10.78
11/14/2021 1:15:00 AM 7.91 46.238 0.018 6.81 781.49 10.78
11/14/2021 1:30:00 AM 7.91 46.238 0.018 6.81 782.68 10.79
11/14/2021 1:45:00 AM 7.9 46.22 0.018 6.75 805.04 10.8
11/14/2021 2:00:00 AM 7.89 46.202 0.018 6.83 800.82 10.81
11/14/2021 2:15:00 AM 7.89 46.202 0.018 6.72 799.85 10.79
11/14/2021 2:30:00 AM 7.89 46.202 0.018 6.82 791.84 10.79
11/14/2021 2:45:00 AM 7.89 46.202 0.018 6.75 776.96 10.78
11/14/2021 3:00:00 AM 7.89 46.202 0.018 6.79 764.11 10.79
11/14/2021 3:15:00 AM 7.88 46.184 0.018 6.83 753.86 10.8
11/14/2021 3:30:00 AM 7.88 46.184 0.018 6.88 744.39 10.8
11/14/2021 3:45:00 AM 7.87 46.166 0.018 6.84 732.98 10.78
11/14/2021 4:00:00 AM 7.87 46.166 0.018 6.86 729.41 10.8
11/14/2021 4:15:00 AM 7.86 46.148 0.018 6.8 721.84 10.79
11/14/2021 4:30:00 AM 7.86 46.148 0.018 6.87 731.47 10.79
11/14/2021 4:45:00 AM 7.85 46.13 0.018 6.85 725.85 10.78
11/14/2021 5:00:00 AM 7.85 46.13 0.018 6.82 730.11 10.79
11/14/2021 5:15:00 AM 7.84 46.112 0.018 6.83 725.82 10.79
11/14/2021 5:30:00 AM 7.83 46.094 0.018 6.77 724.47 10.81
11/14/2021 5:45:00 AM 7.82 46.076 0.018 6.85 725.51 10.81
11/14/2021 6:00:00 AM 7.8 46.04 0.018 6.86 726.67 10.8
11/14/2021 6:15:00 AM 7.78 46.004 0.018 6.87 729.37 10.81
11/14/2021 6:30:00 AM 7.76 45.968 0.018 6.86 729.61 10.81
11/14/2021 6:45:00 AM 7.73 45.914 0.018 6.82 729.57 10.83
11/14/2021 7:00:00 AM 7.71 45.878 0.018 6.82 733.41 10.83
11/14/2021 7:15:00 AM 7.69 45.842 0.018 6.66 731.07 10.84
11/14/2021 7:30:00 AM 7.67 45.806 0.018 6.77 731.15 10.84
11/14/2021 7:45:00 AM 7.64 45.752 0.018 6.79 715.47 10.84
11/14/2021 8:00:00 AM 7.62 45.716 0.018 6.77 735.4 10.85
11/14/2021 8:15:00 AM 7.6 45.68 0.018 6.81 734.01 10.87
11/14/2021 8:30:00 AM 7.59 45.662 0.018 6.79 738.74 10.87
11/14/2021 8:45:00 AM 7.58 45.644 0.018 6.79 727.04 10.88
11/14/2021 9:00:00 AM 7.57 45.626 0.018 6.8 724.37 10.89
11/14/2021 9:15:00 AM 7.58 45.644 0.018 6.82 693.54 10.9
11/14/2021 9:30:00 AM 7.58 45.644 0.018 6.74 692.34 10.91
11/14/2021 9:45:00 AM 7.59 45.662 0.018 6.84 683.34 10.94
11/14/2021 10:00:00 AM 7.6 45.68 0.018 6.84 675.09 10.96
11/14/2021 10:15:00 AM 7.61 45.698 0.018 6.86 662.61 10.98
11/14/2021 10:30:00 AM 7.63 45.734 0.018 6.88 655.51 10.99
11/14/2021 10:45:00 AM 7.65 45.77 0.018 6.78 651.02 11
11/14/2021 11:00:00 AM 7.66 45.788 0.018 6.81 651.31 11
11/14/2021 11:15:00 AM 7.69 45.842 0.018 6.83 652.22 11.01
11/14/2021 11:30:00 AM 7.71 45.878 0.018 6.83 644.83 11
11/14/2021 11:45:00 AM 7.74 45.932 0.018 6.87 634.82 10.99
11/14/2021 12:00:00 PM 7.78 46.004 0.018 6.77 637.96 10.98
11/14/2021 12:15:00 PM 7.8 46.04 0.018 6.78 660.91 10.99
11/14/2021 12:30:00 PM 7.82 46.076 0.018 6.85 620.48 10.95
11/14/2021 12:45:00 PM 7.82 46.076 0.018 6.8 975.71 10.99
11/14/2021 1:00:00 PM 7.84 46.112 0.018 6.89 869.89 10.98
11/14/2021 1:15:00 PM 7.86 46.148 0.018 6.76 910.73 10.95
11/14/2021 1:30:00 PM 7.88 46.184 0.018 6.86 1512.36 10.92
11/14/2021 1:45:00 PM 7.9 46.22 0.018 6.86 1324.31 10.91
11/14/2021 2:00:00 PM 7.9 46.22 0.018 6.78 1500.32 10.93
11/14/2021 2:15:00 PM 7.89 46.202 0.018 6.78 1254.57 10.91
11/14/2021 2:30:00 PM 7.88 46.184 0.018 6.75 1083.73 10.92
11/14/2021 2:45:00 PM 7.89 46.202 0.018 6.87 1005.3 10.91
11/14/2021 3:00:00 PM 7.88 46.184 0.018 6.75 918.25 10.91
11/14/2021 3:15:00 PM 7.88 46.184 0.018 6.88 856.21 10.93
11/14/2021 3:30:00 PM 7.87 46.166 0.018 6.87 888.74 10.91
11/14/2021 3:45:00 PM 7.86 46.148 0.018 6.81 909.86 10.89
11/14/2021 4:00:00 PM 7.85 46.13 0.018 6.78 840.21 10.89
11/14/2021 4:15:00 PM 7.84 46.112 0.018 6.79 939.29 10.88
11/14/2021 4:30:00 PM 7.83 46.094 0.018 6.85 848.07 10.88
11/14/2021 4:45:00 PM 7.82 46.076 0.018 6.84 875.83 10.85
11/14/2021 5:00:00 PM 7.81 46.058 0.018 6.8 803.46 10.84
11/14/2021 5:15:00 PM 7.8 46.04 0.018 6.81 873.48 10.84
11/14/2021 5:30:00 PM 7.79 46.022 0.018 6.85 814.54 10.83
11/14/2021 5:45:00 PM 7.77 45.986 0.018 6.79 866.52 10.81
11/14/2021 6:00:00 PM 7.75 45.95 0.018 6.77 843.42 10.79
11/14/2021 6:15:00 PM 7.73 45.914 0.018 6.84 796.2 10.79
11/14/2021 6:30:00 PM 7.72 45.896 0.018 6.84 802.33 10.77
11/14/2021 6:45:00 PM 7.7 45.86 0.018 6.69 770.52 10.77
11/14/2021 7:00:00 PM 7.68 45.824 0.018 6.81 812.69 10.81
11/14/2021 7:15:00 PM 7.65 45.77 0.018 6.67 886.97 10.78
11/14/2021 7:30:00 PM 7.62 45.716 0.018 6.82 890.06 10.8
11/14/2021 7:45:00 PM 7.59 45.662 0.018 6.81 881.67 10.79
11/14/2021 8:00:00 PM 7.53 45.554 0.018 6.68 860.13 10.83
11/14/2021 8:15:00 PM 7.45 45.41 0.018 6.7 842.66 10.85
11/14/2021 8:30:00 PM 7.4 45.32 0.018 6.79 853.82 10.86
11/14/2021 8:45:00 PM 7.35 45.23 0.018 6.82 804.05 10.87
11/14/2021 9:00:00 PM 7.31 45.158 0.018 6.8 840.39 10.89
11/14/2021 9:15:00 PM 7.27 45.086 0.018 6.79 842.36 10.95
11/14/2021 9:30:00 PM 7.24 45.032 0.018 6.82 836.61 10.95
11/14/2021 9:45:00 PM 7.23 45.014 0.018 6.78 867.82 10.96
11/14/2021 10:00:00 PM 7.22 44.996 0.018 6.79 810.02 10.95
11/14/2021 10:15:00 PM 7.2 44.96 0.018 6.66 824.1 10.96
11/14/2021 10:30:00 PM 7.2 44.96 0.018 6.72 889.87 10.95
11/14/2021 10:45:00 PM 7.2 44.96 0.018 6.71 1005.91 10.95
11/14/2021 11:00:00 PM 7.2 44.96 0.018 6.71 956.08 10.95
11/14/2021 11:15:00 PM 7.2 44.96 0.018 6.68 963.46 10.97
11/14/2021 11:30:00 PM 7.2 44.96 0.018 6.71 943.01 10.94
11/14/2021 11:45:00 PM 7.2 44.96 0.018 6.71 1072.54 10.95
11/15/2021 12:00:00 AM 7.2 44.96 0.018 6.79 941.66 10.96
11/15/2021 12:15:00 AM 7.2 44.96 0.018 6.75 939.43 10.96
11/15/2021 12:30:00 AM 7.2 44.96 0.018 6.82 1038.84 10.95
11/15/2021 12:45:00 AM 7.2 44.96 0.018 6.76 917.88 10.96
11/15/2021 1:00:00 AM 7.19 44.942 0.018 6.68 976.37 10.95
11/15/2021 1:15:00 AM 7.19 44.942 0.018 6.77 945.85 10.95
11/15/2021 1:30:00 AM 7.19 44.942 0.018 6.8 961.49 10.93
11/15/2021 1:45:00 AM 7.19 44.942 0.018 6.65 953.45 10.95
11/15/2021 2:00:00 AM 7.18 44.924 0.018 6.82 883.79 10.94
11/15/2021 2:15:00 AM 7.18 44.924 0.018 6.64 873.16 10.94
11/15/2021 2:30:00 AM 7.18 44.924 0.018 6.72 840.98 10.93
11/15/2021 2:45:00 AM 7.18 44.924 0.018 6.73 806.25 10.93
11/15/2021 3:00:00 AM 7.18 44.924 0.018 6.84 818.9 10.94
11/15/2021 3:15:00 AM 7.18 44.924 0.018 6.76 812.92 10.95
11/15/2021 3:30:00 AM 7.17 44.906 0.018 6.84 823.46 10.96
11/15/2021 3:45:00 AM 7.17 44.906 0.018 6.81 802.05 10.94
11/15/2021 4:00:00 AM 7.17 44.906 0.018 6.59 797.77 10.94
11/15/2021 4:15:00 AM 7.17 44.906 0.018 6.84 789.79 10.94
11/15/2021 4:30:00 AM 7.17 44.906 0.018 6.65 776.56 10.94
11/15/2021 4:45:00 AM 7.16 44.888 0.018 6.71 762.94 10.94
11/15/2021 5:00:00 AM 7.14 44.852 0.018 6.8 759.34 10.94
11/15/2021 5:15:00 AM 7.13 44.834 0.018 6.65 762.64 10.95
11/15/2021 5:30:00 AM 7.13 44.834 0.018 6.81 747.21 10.96
11/15/2021 5:45:00 AM 7.12 44.816 0.018 6.7 735.27 10.96
11/15/2021 6:00:00 AM 7.11 44.798 0.018 6.8 730.77 10.96
11/15/2021 6:15:00 AM 7.11 44.798 0.018 6.68 729.2 10.97
11/15/2021 6:30:00 AM 7.1 44.78 0.018 6.72 731.42 10.96
11/15/2021 6:45:00 AM 7.09 44.762 0.018 6.78 722.49 10.96
11/15/2021 7:00:00 AM 7.09 44.762 0.018 6.83 707.41 10.97
11/15/2021 7:15:00 AM 7.09 44.762 0.018 6.76 706.68 10.96
11/15/2021 7:30:00 AM 7.09 44.762 0.018 6.77 704.51 10.98
11/15/2021 7:45:00 AM 7.09 44.762 0.018 6.76 705.84 10.99
11/15/2021 8:00:00 AM 7.09 44.762 0.018 6.71 7